<?xml version='1.0' encoding='UTF-8'?><gpx version="1.1" creator="JPX - https://github.com/jenetics/jpx" xmlns="http://www.topografix.com/GPX/1/1"><trk><trkseg><trkpt lat="45.7707755" lon="11.7518326"><ele>133.0</ele><time>2026-04-26T12:48:36.81Z</time></trkpt><trkpt lat="45.7707132" lon="11.751801"><ele>133.0</ele><time>2026-04-26T12:48:52.861Z</time></trkpt><trkpt lat="45.7706391" lon="11.7517795"><ele>133.0</ele><time>2026-04-26T12:50:25.853Z</time></trkpt><trkpt lat="45.7706162" lon="11.7519933"><ele>133.0</ele><time>2026-04-26T12:50:27.887Z</time></trkpt><trkpt lat="45.770604" lon="11.7520824"><ele>133.0</ele><time>2026-04-26T12:50:30.886Z</time></trkpt><trkpt lat="45.7706104" lon="11.7521889"><ele>133.0</ele><time>2026-04-26T12:50:49.885Z</time></trkpt><trkpt lat="45.7706401" lon="11.7523198"><ele>132.8</ele><time>2026-04-26T12:50:50.849Z</time></trkpt><trkpt lat="45.7706491" lon="11.7524664"><ele>132.60000000000002</ele><time>2026-04-26T12:50:52.856Z</time></trkpt><trkpt lat="45.7706635" lon="11.7526483"><ele>132.39999999999998</ele><time>2026-04-26T12:50:54.859Z</time></trkpt><trkpt lat="45.7706797" lon="11.7527522"><ele>132.2</ele><time>2026-04-26T12:50:55.856Z</time></trkpt><trkpt lat="45.7706842" lon="11.7529072"><ele>132.0</ele><time>2026-04-26T12:50:57.863Z</time></trkpt><trkpt lat="45.7706261" lon="11.7529723"><ele>131.83333333333334</ele><time>2026-04-26T12:50:59.857Z</time></trkpt><trkpt lat="45.7705732" lon="11.7530692"><ele>131.66666666666666</ele><time>2026-04-26T12:51:02.855Z</time></trkpt><trkpt lat="45.7706021" lon="11.7531728"><ele>131.5</ele><time>2026-04-26T12:51:04.872Z</time></trkpt><trkpt lat="45.7706936" lon="11.7532998"><ele>131.33333333333331</ele><time>2026-04-26T12:51:06.868Z</time></trkpt><trkpt lat="45.7707437" lon="11.7533607"><ele>131.16666666666666</ele><time>2026-04-26T12:51:07.875Z</time></trkpt><trkpt lat="45.7708027" lon="11.7534337"><ele>131.0</ele><time>2026-04-26T12:51:08.861Z</time></trkpt><trkpt lat="45.7708689" lon="11.7535133"><ele>130.8</ele><time>2026-04-26T12:51:09.868Z</time></trkpt><trkpt lat="45.7709396" lon="11.7536016"><ele>130.6</ele><time>2026-04-26T12:51:10.846Z</time></trkpt><trkpt lat="45.7710143" lon="11.7536952"><ele>130.4</ele><time>2026-04-26T12:51:11.873Z</time></trkpt><trkpt lat="45.7710864" lon="11.7537852"><ele>130.2</ele><time>2026-04-26T12:51:12.863Z</time></trkpt><trkpt lat="45.7711607" lon="11.7538728"><ele>130.0</ele><time>2026-04-26T12:51:13.872Z</time></trkpt><trkpt lat="45.7712321" lon="11.7539635"><ele>130.2</ele><time>2026-04-26T12:51:14.871Z</time></trkpt><trkpt lat="45.7713043" lon="11.7540567"><ele>130.4</ele><time>2026-04-26T12:51:15.873Z</time></trkpt><trkpt lat="45.7713773" lon="11.7541486"><ele>130.6</ele><time>2026-04-26T12:51:16.861Z</time></trkpt><trkpt lat="45.7714515" lon="11.7542392"><ele>130.8</ele><time>2026-04-26T12:51:17.874Z</time></trkpt><trkpt lat="45.7715271" lon="11.7543338"><ele>131.0</ele><time>2026-04-26T12:51:18.852Z</time></trkpt><trkpt lat="45.7716007" lon="11.7544292"><ele>131.0</ele><time>2026-04-26T12:51:19.863Z</time></trkpt><trkpt lat="45.7716764" lon="11.7545273"><ele>131.0</ele><time>2026-04-26T12:51:20.873Z</time></trkpt><trkpt lat="45.7717501" lon="11.754624"><ele>131.0</ele><time>2026-04-26T12:51:21.864Z</time></trkpt><trkpt lat="45.7718252" lon="11.7547172"><ele>131.0</ele><time>2026-04-26T12:51:22.862Z</time></trkpt><trkpt lat="45.7718986" lon="11.7548121"><ele>131.0</ele><time>2026-04-26T12:51:23.862Z</time></trkpt><trkpt lat="45.771973" lon="11.75491"><ele>131.0</ele><time>2026-04-26T12:51:24.873Z</time></trkpt><trkpt lat="45.7720483" lon="11.7550156"><ele>131.0</ele><time>2026-04-26T12:51:25.878Z</time></trkpt><trkpt lat="45.7721204" lon="11.7551084"><ele>131.0</ele><time>2026-04-26T12:51:26.867Z</time></trkpt><trkpt lat="45.7721889" lon="11.7551963"><ele>131.0</ele><time>2026-04-26T12:51:27.874Z</time></trkpt><trkpt lat="45.7722616" lon="11.755292"><ele>131.0</ele><time>2026-04-26T12:51:28.849Z</time></trkpt><trkpt lat="45.7723385" lon="11.7553929"><ele>131.0</ele><time>2026-04-26T12:51:29.87Z</time></trkpt><trkpt lat="45.7724157" lon="11.7554939"><ele>131.0</ele><time>2026-04-26T12:51:30.863Z</time></trkpt><trkpt lat="45.7724925" lon="11.7555985"><ele>131.0</ele><time>2026-04-26T12:51:31.876Z</time></trkpt><trkpt lat="45.7725681" lon="11.7557012"><ele>131.0</ele><time>2026-04-26T12:51:32.873Z</time></trkpt><trkpt lat="45.7726401" lon="11.7557988"><ele>131.0</ele><time>2026-04-26T12:51:33.869Z</time></trkpt><trkpt lat="45.7727003" lon="11.7558885"><ele>131.0</ele><time>2026-04-26T12:51:34.868Z</time></trkpt><trkpt lat="45.772744" lon="11.7559632"><ele>131.0</ele><time>2026-04-26T12:51:35.869Z</time></trkpt><trkpt lat="45.7728314" lon="11.7560182"><ele>131.0</ele><time>2026-04-26T12:51:53.857Z</time></trkpt><trkpt lat="45.7729008" lon="11.7560836"><ele>131.0</ele><time>2026-04-26T12:51:55.857Z</time></trkpt><trkpt lat="45.7730128" lon="11.7562221"><ele>131.0</ele><time>2026-04-26T12:51:57.86Z</time></trkpt><trkpt lat="45.7730792" lon="11.7563125"><ele>131.0</ele><time>2026-04-26T12:51:58.854Z</time></trkpt><trkpt lat="45.7731638" lon="11.7564009"><ele>131.0</ele><time>2026-04-26T12:51:59.851Z</time></trkpt><trkpt lat="45.7732529" lon="11.756472"><ele>131.0</ele><time>2026-04-26T12:52:00.847Z</time></trkpt><trkpt lat="45.7733503" lon="11.7565266"><ele>131.0</ele><time>2026-04-26T12:52:01.874Z</time></trkpt><trkpt lat="45.7734509" lon="11.7565531"><ele>131.0</ele><time>2026-04-26T12:52:02.845Z</time></trkpt><trkpt lat="45.7735433" lon="11.7565725"><ele>131.2</ele><time>2026-04-26T12:52:03.857Z</time></trkpt><trkpt lat="45.7736406" lon="11.7565647"><ele>131.39999999999998</ele><time>2026-04-26T12:52:04.832Z</time></trkpt><trkpt lat="45.7737476" lon="11.7565502"><ele>131.6</ele><time>2026-04-26T12:52:05.842Z</time></trkpt><trkpt lat="45.7738567" lon="11.7565302"><ele>131.79999999999998</ele><time>2026-04-26T12:52:06.838Z</time></trkpt><trkpt lat="45.7739764" lon="11.756516"><ele>132.0</ele><time>2026-04-26T12:52:07.838Z</time></trkpt><trkpt lat="45.7741009" lon="11.7565011"><ele>132.0</ele><time>2026-04-26T12:52:08.85Z</time></trkpt><trkpt lat="45.7742332" lon="11.7564833"><ele>132.0</ele><time>2026-04-26T12:52:09.842Z</time></trkpt><trkpt lat="45.7743727" lon="11.7564728"><ele>132.0</ele><time>2026-04-26T12:52:10.864Z</time></trkpt><trkpt lat="45.7745105" lon="11.756462"><ele>132.0</ele><time>2026-04-26T12:52:11.857Z</time></trkpt><trkpt lat="45.774653" lon="11.7564518"><ele>132.0</ele><time>2026-04-26T12:52:12.865Z</time></trkpt><trkpt lat="45.7747946" lon="11.7564409"><ele>132.0</ele><time>2026-04-26T12:52:13.851Z</time></trkpt><trkpt lat="45.774946" lon="11.7564248"><ele>132.0</ele><time>2026-04-26T12:52:14.842Z</time></trkpt><trkpt lat="45.7751001" lon="11.7564083"><ele>132.0</ele><time>2026-04-26T12:52:15.853Z</time></trkpt><trkpt lat="45.7752516" lon="11.75639"><ele>131.75</ele><time>2026-04-26T12:52:16.847Z</time></trkpt><trkpt lat="45.7753974" lon="11.7563729"><ele>131.5</ele><time>2026-04-26T12:52:17.848Z</time></trkpt><trkpt lat="45.775547" lon="11.7563538"><ele>131.25</ele><time>2026-04-26T12:52:18.859Z</time></trkpt><trkpt lat="45.7756776" lon="11.7563441"><ele>131.0</ele><time>2026-04-26T12:52:19.859Z</time></trkpt><trkpt lat="45.7758001" lon="11.7563333"><ele>131.0</ele><time>2026-04-26T12:52:20.855Z</time></trkpt><trkpt lat="45.7759127" lon="11.7563041"><ele>131.0</ele><time>2026-04-26T12:52:21.861Z</time></trkpt><trkpt lat="45.7760317" lon="11.7562545"><ele>131.0</ele><time>2026-04-26T12:52:22.86Z</time></trkpt><trkpt lat="45.776157" lon="11.7562015"><ele>131.0</ele><time>2026-04-26T12:52:23.853Z</time></trkpt><trkpt lat="45.776281" lon="11.7561053"><ele>131.66666666666666</ele><time>2026-04-26T12:52:24.86Z</time></trkpt><trkpt lat="45.7764177" lon="11.7560006"><ele>132.33333333333334</ele><time>2026-04-26T12:52:25.843Z</time></trkpt><trkpt lat="45.7765524" lon="11.7558949"><ele>133.0</ele><time>2026-04-26T12:52:26.853Z</time></trkpt><trkpt lat="45.7766858" lon="11.7557882"><ele>133.0</ele><time>2026-04-26T12:52:27.863Z</time></trkpt><trkpt lat="45.7768247" lon="11.7556796"><ele>133.0</ele><time>2026-04-26T12:52:28.879Z</time></trkpt><trkpt lat="45.7769745" lon="11.7555616"><ele>133.0</ele><time>2026-04-26T12:52:29.873Z</time></trkpt><trkpt lat="45.7771168" lon="11.7554489"><ele>132.66666666666669</ele><time>2026-04-26T12:52:30.864Z</time></trkpt><trkpt lat="45.7772457" lon="11.7553317"><ele>132.33333333333334</ele><time>2026-04-26T12:52:31.876Z</time></trkpt><trkpt lat="45.7774042" lon="11.7552352"><ele>132.0</ele><time>2026-04-26T12:52:32.85Z</time></trkpt><trkpt lat="45.7775603" lon="11.7551293"><ele>133.33333333333334</ele><time>2026-04-26T12:52:33.868Z</time></trkpt><trkpt lat="45.7777106" lon="11.7550116"><ele>134.66666666666669</ele><time>2026-04-26T12:52:34.877Z</time></trkpt><trkpt lat="45.7778539" lon="11.7548926"><ele>136.0</ele><time>2026-04-26T12:52:35.864Z</time></trkpt><trkpt lat="45.7780045" lon="11.7547669"><ele>136.0</ele><time>2026-04-26T12:52:36.874Z</time></trkpt><trkpt lat="45.7781486" lon="11.7546398"><ele>136.0</ele><time>2026-04-26T12:52:37.875Z</time></trkpt><trkpt lat="45.7782832" lon="11.7545022"><ele>136.0</ele><time>2026-04-26T12:52:38.866Z</time></trkpt><trkpt lat="45.778404" lon="11.7543541"><ele>135.66666666666669</ele><time>2026-04-26T12:52:39.874Z</time></trkpt><trkpt lat="45.7785233" lon="11.7542049"><ele>135.33333333333334</ele><time>2026-04-26T12:52:40.85Z</time></trkpt><trkpt lat="45.7786419" lon="11.7540654"><ele>135.0</ele><time>2026-04-26T12:52:41.868Z</time></trkpt><trkpt lat="45.7787541" lon="11.7539178"><ele>135.0</ele><time>2026-04-26T12:52:42.88Z</time></trkpt><trkpt lat="45.7788678" lon="11.7537812"><ele>135.0</ele><time>2026-04-26T12:52:43.869Z</time></trkpt><trkpt lat="45.7789893" lon="11.7536509"><ele>135.0</ele><time>2026-04-26T12:52:44.877Z</time></trkpt><trkpt lat="45.7790996" lon="11.7535002"><ele>135.0</ele><time>2026-04-26T12:52:45.859Z</time></trkpt><trkpt lat="45.7792142" lon="11.7533646"><ele>135.0</ele><time>2026-04-26T12:52:46.866Z</time></trkpt><trkpt lat="45.7793419" lon="11.7532426"><ele>135.0</ele><time>2026-04-26T12:52:47.863Z</time></trkpt><trkpt lat="45.779466" lon="11.7530988"><ele>134.75</ele><time>2026-04-26T12:52:48.868Z</time></trkpt><trkpt lat="45.7795809" lon="11.7529653"><ele>134.5</ele><time>2026-04-26T12:52:49.869Z</time></trkpt><trkpt lat="45.7796991" lon="11.7528309"><ele>134.25</ele><time>2026-04-26T12:52:50.865Z</time></trkpt><trkpt lat="45.779809" lon="11.7526847"><ele>134.0</ele><time>2026-04-26T12:52:51.872Z</time></trkpt><trkpt lat="45.7799252" lon="11.7525354"><ele>134.0</ele><time>2026-04-26T12:52:52.871Z</time></trkpt><trkpt lat="45.7800336" lon="11.7523801"><ele>134.0</ele><time>2026-04-26T12:52:53.856Z</time></trkpt><trkpt lat="45.7801403" lon="11.7522298"><ele>134.0</ele><time>2026-04-26T12:52:54.877Z</time></trkpt><trkpt lat="45.7802432" lon="11.7520953"><ele>134.0</ele><time>2026-04-26T12:52:55.848Z</time></trkpt><trkpt lat="45.7803339" lon="11.7520099"><ele>134.4</ele><time>2026-04-26T12:52:56.847Z</time></trkpt><trkpt lat="45.780396" lon="11.7519511"><ele>134.8</ele><time>2026-04-26T12:52:57.857Z</time></trkpt><trkpt lat="45.7804584" lon="11.7518745"><ele>135.2</ele><time>2026-04-26T12:52:58.847Z</time></trkpt><trkpt lat="45.7805309" lon="11.7517856"><ele>135.6</ele><time>2026-04-26T12:52:59.849Z</time></trkpt><trkpt lat="45.7806056" lon="11.7516938"><ele>136.0</ele><time>2026-04-26T12:53:00.848Z</time></trkpt><trkpt lat="45.7806826" lon="11.751576"><ele>136.75</ele><time>2026-04-26T12:53:01.846Z</time></trkpt><trkpt lat="45.780766" lon="11.751461"><ele>137.5</ele><time>2026-04-26T12:53:02.845Z</time></trkpt><trkpt lat="45.7808564" lon="11.7513286"><ele>138.25</ele><time>2026-04-26T12:53:03.86Z</time></trkpt><trkpt lat="45.780945" lon="11.751187"><ele>139.0</ele><time>2026-04-26T12:53:04.837Z</time></trkpt><trkpt lat="45.7810367" lon="11.7510181"><ele>139.5</ele><time>2026-04-26T12:53:05.849Z</time></trkpt><trkpt lat="45.7811354" lon="11.7508484"><ele>140.0</ele><time>2026-04-26T12:53:06.837Z</time></trkpt><trkpt lat="45.7812362" lon="11.7506966"><ele>140.5</ele><time>2026-04-26T12:53:07.852Z</time></trkpt><trkpt lat="45.7813403" lon="11.7505443"><ele>141.0</ele><time>2026-04-26T12:53:08.863Z</time></trkpt><trkpt lat="45.781448" lon="11.750381"><ele>140.66666666666666</ele><time>2026-04-26T12:53:09.862Z</time></trkpt><trkpt lat="45.7815705" lon="11.7502023"><ele>140.33333333333331</ele><time>2026-04-26T12:53:10.867Z</time></trkpt><trkpt lat="45.7816769" lon="11.7500186"><ele>140.0</ele><time>2026-04-26T12:53:11.873Z</time></trkpt><trkpt lat="45.7817884" lon="11.7498264"><ele>140.33333333333331</ele><time>2026-04-26T12:53:12.865Z</time></trkpt><trkpt lat="45.7819075" lon="11.7496819"><ele>140.66666666666666</ele><time>2026-04-26T12:53:13.879Z</time></trkpt><trkpt lat="45.7820123" lon="11.7495193"><ele>141.0</ele><time>2026-04-26T12:53:14.873Z</time></trkpt><trkpt lat="45.7821145" lon="11.7493682"><ele>141.0</ele><time>2026-04-26T12:53:15.866Z</time></trkpt><trkpt lat="45.7822029" lon="11.7492246"><ele>141.0</ele><time>2026-04-26T12:53:16.87Z</time></trkpt><trkpt lat="45.7822846" lon="11.7491114"><ele>141.0</ele><time>2026-04-26T12:53:17.869Z</time></trkpt><trkpt lat="45.7823548" lon="11.7490222"><ele>141.0</ele><time>2026-04-26T12:53:18.865Z</time></trkpt><trkpt lat="45.7824121" lon="11.7489372"><ele>141.0</ele><time>2026-04-26T12:53:19.869Z</time></trkpt><trkpt lat="45.7824676" lon="11.7488631"><ele>141.0</ele><time>2026-04-26T12:53:20.864Z</time></trkpt><trkpt lat="45.7825772" lon="11.7488401"><ele>141.0</ele><time>2026-04-26T12:53:22.845Z</time></trkpt><trkpt lat="45.7826351" lon="11.7488796"><ele>141.0</ele><time>2026-04-26T12:53:23.844Z</time></trkpt><trkpt lat="45.7827081" lon="11.7489651"><ele>141.0</ele><time>2026-04-26T12:53:24.849Z</time></trkpt><trkpt lat="45.7827612" lon="11.74906"><ele>141.0</ele><time>2026-04-26T12:53:25.853Z</time></trkpt><trkpt lat="45.7828182" lon="11.7491674"><ele>141.0</ele><time>2026-04-26T12:53:26.84Z</time></trkpt><trkpt lat="45.7828721" lon="11.7492597"><ele>141.16666666666666</ele><time>2026-04-26T12:53:27.854Z</time></trkpt><trkpt lat="45.7829253" lon="11.7493448"><ele>141.33333333333334</ele><time>2026-04-26T12:53:28.842Z</time></trkpt><trkpt lat="45.7829722" lon="11.7494278"><ele>141.5</ele><time>2026-04-26T12:53:29.85Z</time></trkpt><trkpt lat="45.7830175" lon="11.7495068"><ele>141.66666666666669</ele><time>2026-04-26T12:53:30.847Z</time></trkpt><trkpt lat="45.7830636" lon="11.7495819"><ele>141.83333333333334</ele><time>2026-04-26T12:53:31.848Z</time></trkpt><trkpt lat="45.7831104" lon="11.7496529"><ele>142.0</ele><time>2026-04-26T12:53:32.86Z</time></trkpt><trkpt lat="45.7831807" lon="11.7497848"><ele>142.16666666666669</ele><time>2026-04-26T12:53:34.845Z</time></trkpt><trkpt lat="45.7832277" lon="11.7498552"><ele>142.33333333333334</ele><time>2026-04-26T12:53:35.856Z</time></trkpt><trkpt lat="45.7832692" lon="11.7499338"><ele>142.5</ele><time>2026-04-26T12:53:36.863Z</time></trkpt><trkpt lat="45.7833195" lon="11.7500143"><ele>142.66666666666666</ele><time>2026-04-26T12:53:37.857Z</time></trkpt><trkpt lat="45.783367" lon="11.7501134"><ele>142.83333333333331</ele><time>2026-04-26T12:53:38.856Z</time></trkpt><trkpt lat="45.783425" lon="11.7502086"><ele>143.0</ele><time>2026-04-26T12:53:39.858Z</time></trkpt><trkpt lat="45.7834804" lon="11.750306"><ele>143.0</ele><time>2026-04-26T12:53:40.856Z</time></trkpt><trkpt lat="45.7835398" lon="11.750405"><ele>143.0</ele><time>2026-04-26T12:53:41.852Z</time></trkpt><trkpt lat="45.7836088" lon="11.7505143"><ele>143.0</ele><time>2026-04-26T12:53:42.849Z</time></trkpt><trkpt lat="45.7836879" lon="11.7506267"><ele>143.0</ele><time>2026-04-26T12:53:43.858Z</time></trkpt><trkpt lat="45.783767" lon="11.7507514"><ele>143.0</ele><time>2026-04-26T12:53:44.862Z</time></trkpt><trkpt lat="45.7838484" lon="11.7508727"><ele>143.0</ele><time>2026-04-26T12:53:45.84Z</time></trkpt><trkpt lat="45.7839344" lon="11.7509939"><ele>143.0</ele><time>2026-04-26T12:53:46.861Z</time></trkpt><trkpt lat="45.7840201" lon="11.7511188"><ele>143.0</ele><time>2026-04-26T12:53:47.847Z</time></trkpt><trkpt lat="45.784108" lon="11.7512452"><ele>143.0</ele><time>2026-04-26T12:53:48.847Z</time></trkpt><trkpt lat="45.7842055" lon="11.7513646"><ele>142.75</ele><time>2026-04-26T12:53:49.834Z</time></trkpt><trkpt lat="45.7843058" lon="11.7514815"><ele>142.5</ele><time>2026-04-26T12:53:50.858Z</time></trkpt><trkpt lat="45.7844086" lon="11.7515962"><ele>142.25</ele><time>2026-04-26T12:53:51.835Z</time></trkpt><trkpt lat="45.7845152" lon="11.7517092"><ele>142.0</ele><time>2026-04-26T12:53:52.856Z</time></trkpt><trkpt lat="45.7846266" lon="11.7518164"><ele>141.75</ele><time>2026-04-26T12:53:53.841Z</time></trkpt><trkpt lat="45.7847407" lon="11.7519261"><ele>141.5</ele><time>2026-04-26T12:53:54.85Z</time></trkpt><trkpt lat="45.7848574" lon="11.7520442"><ele>141.25</ele><time>2026-04-26T12:53:55.839Z</time></trkpt><trkpt lat="45.7849809" lon="11.7521721"><ele>141.0</ele><time>2026-04-26T12:53:56.863Z</time></trkpt><trkpt lat="45.7851059" lon="11.752301"><ele>141.33333333333334</ele><time>2026-04-26T12:53:57.84Z</time></trkpt><trkpt lat="45.7852324" lon="11.7524286"><ele>141.66666666666669</ele><time>2026-04-26T12:53:58.838Z</time></trkpt><trkpt lat="45.7853587" lon="11.7525552"><ele>142.0</ele><time>2026-04-26T12:53:59.855Z</time></trkpt><trkpt lat="45.7854837" lon="11.752683"><ele>142.0</ele><time>2026-04-26T12:54:00.855Z</time></trkpt><trkpt lat="45.7856031" lon="11.7528077"><ele>142.0</ele><time>2026-04-26T12:54:01.853Z</time></trkpt><trkpt lat="45.7857147" lon="11.7529236"><ele>142.0</ele><time>2026-04-26T12:54:02.865Z</time></trkpt><trkpt lat="45.7858176" lon="11.7530321"><ele>142.0</ele><time>2026-04-26T12:54:03.847Z</time></trkpt><trkpt lat="45.7859142" lon="11.7531333"><ele>142.0</ele><time>2026-04-26T12:54:04.852Z</time></trkpt><trkpt lat="45.7860037" lon="11.7532291"><ele>142.0</ele><time>2026-04-26T12:54:05.861Z</time></trkpt><trkpt lat="45.7860948" lon="11.7533292"><ele>142.0</ele><time>2026-04-26T12:54:06.858Z</time></trkpt><trkpt lat="45.7861897" lon="11.7534365"><ele>142.0</ele><time>2026-04-26T12:54:07.838Z</time></trkpt><trkpt lat="45.7862833" lon="11.753548"><ele>143.75</ele><time>2026-04-26T12:54:08.856Z</time></trkpt><trkpt lat="45.7863739" lon="11.7536554"><ele>145.5</ele><time>2026-04-26T12:54:09.858Z</time></trkpt><trkpt lat="45.7864604" lon="11.7537614"><ele>147.25</ele><time>2026-04-26T12:54:10.847Z</time></trkpt><trkpt lat="45.7865498" lon="11.7538729"><ele>149.0</ele><time>2026-04-26T12:54:11.84Z</time></trkpt><trkpt lat="45.7866474" lon="11.7539882"><ele>149.0</ele><time>2026-04-26T12:54:12.848Z</time></trkpt><trkpt lat="45.7867542" lon="11.7540986"><ele>149.0</ele><time>2026-04-26T12:54:13.861Z</time></trkpt><trkpt lat="45.7868624" lon="11.7541992"><ele>149.0</ele><time>2026-04-26T12:54:14.838Z</time></trkpt><trkpt lat="45.786978" lon="11.7542931"><ele>149.0</ele><time>2026-04-26T12:54:15.844Z</time></trkpt><trkpt lat="45.7870962" lon="11.7543766"><ele>149.75</ele><time>2026-04-26T12:54:16.847Z</time></trkpt><trkpt lat="45.7872245" lon="11.7544497"><ele>150.5</ele><time>2026-04-26T12:54:17.852Z</time></trkpt><trkpt lat="45.7873596" lon="11.7545128"><ele>151.25</ele><time>2026-04-26T12:54:18.851Z</time></trkpt><trkpt lat="45.7874961" lon="11.754561"><ele>152.0</ele><time>2026-04-26T12:54:19.846Z</time></trkpt><trkpt lat="45.7876439" lon="11.7546041"><ele>151.66666666666666</ele><time>2026-04-26T12:54:20.845Z</time></trkpt><trkpt lat="45.7877966" lon="11.7546496"><ele>151.33333333333334</ele><time>2026-04-26T12:54:21.843Z</time></trkpt><trkpt lat="45.7879522" lon="11.7547061"><ele>151.0</ele><time>2026-04-26T12:54:22.85Z</time></trkpt><trkpt lat="45.7881152" lon="11.754752"><ele>151.0</ele><time>2026-04-26T12:54:23.848Z</time></trkpt><trkpt lat="45.7882683" lon="11.754806"><ele>151.0</ele><time>2026-04-26T12:54:24.854Z</time></trkpt><trkpt lat="45.788425" lon="11.7548498"><ele>151.0</ele><time>2026-04-26T12:54:25.845Z</time></trkpt><trkpt lat="45.7885758" lon="11.754891"><ele>152.0</ele><time>2026-04-26T12:54:26.841Z</time></trkpt><trkpt lat="45.7887275" lon="11.7549326"><ele>153.0</ele><time>2026-04-26T12:54:27.849Z</time></trkpt><trkpt lat="45.7889055" lon="11.7549879"><ele>154.0</ele><time>2026-04-26T12:54:28.836Z</time></trkpt><trkpt lat="45.7890759" lon="11.7550256"><ele>154.0</ele><time>2026-04-26T12:54:29.857Z</time></trkpt><trkpt lat="45.7892418" lon="11.7550648"><ele>154.0</ele><time>2026-04-26T12:54:30.854Z</time></trkpt><trkpt lat="45.7894054" lon="11.7550966"><ele>154.0</ele><time>2026-04-26T12:54:31.843Z</time></trkpt><trkpt lat="45.7895727" lon="11.755112"><ele>154.0</ele><time>2026-04-26T12:54:32.864Z</time></trkpt><trkpt lat="45.7897328" lon="11.7551335"><ele>154.0</ele><time>2026-04-26T12:54:33.868Z</time></trkpt><trkpt lat="45.789889" lon="11.7551565"><ele>154.0</ele><time>2026-04-26T12:54:34.86Z</time></trkpt><trkpt lat="45.790037" lon="11.7551703"><ele>154.66666666666669</ele><time>2026-04-26T12:54:35.848Z</time></trkpt><trkpt lat="45.7901869" lon="11.7552049"><ele>155.33333333333334</ele><time>2026-04-26T12:54:36.847Z</time></trkpt><trkpt lat="45.7903406" lon="11.7552578"><ele>156.0</ele><time>2026-04-26T12:54:37.859Z</time></trkpt><trkpt lat="45.7904923" lon="11.7553212"><ele>156.0</ele><time>2026-04-26T12:54:38.862Z</time></trkpt><trkpt lat="45.7906508" lon="11.7553859"><ele>156.0</ele><time>2026-04-26T12:54:39.838Z</time></trkpt><trkpt lat="45.7908092" lon="11.7554695"><ele>156.0</ele><time>2026-04-26T12:54:40.838Z</time></trkpt><trkpt lat="45.7909657" lon="11.7555545"><ele>156.0</ele><time>2026-04-26T12:54:41.852Z</time></trkpt><trkpt lat="45.7911361" lon="11.7556406"><ele>156.0</ele><time>2026-04-26T12:54:42.847Z</time></trkpt><trkpt lat="45.7912959" lon="11.7557274"><ele>156.0</ele><time>2026-04-26T12:54:43.856Z</time></trkpt><trkpt lat="45.7914584" lon="11.7558121"><ele>156.0</ele><time>2026-04-26T12:54:44.85Z</time></trkpt><trkpt lat="45.7916177" lon="11.7558948"><ele>156.0</ele><time>2026-04-26T12:54:45.857Z</time></trkpt><trkpt lat="45.7917792" lon="11.7559774"><ele>156.0</ele><time>2026-04-26T12:54:46.841Z</time></trkpt><trkpt lat="45.7919387" lon="11.7560623"><ele>157.0</ele><time>2026-04-26T12:54:47.838Z</time></trkpt><trkpt lat="45.7920919" lon="11.7561456"><ele>158.0</ele><time>2026-04-26T12:54:48.849Z</time></trkpt><trkpt lat="45.7922364" lon="11.756225"><ele>159.0</ele><time>2026-04-26T12:54:49.854Z</time></trkpt><trkpt lat="45.7923759" lon="11.7562953"><ele>159.0</ele><time>2026-04-26T12:54:50.852Z</time></trkpt><trkpt lat="45.7925139" lon="11.7563653"><ele>159.0</ele><time>2026-04-26T12:54:51.844Z</time></trkpt><trkpt lat="45.7926554" lon="11.7564353"><ele>159.0</ele><time>2026-04-26T12:54:52.861Z</time></trkpt><trkpt lat="45.7927996" lon="11.7565109"><ele>159.33333333333334</ele><time>2026-04-26T12:54:53.835Z</time></trkpt><trkpt lat="45.7929414" lon="11.756592"><ele>159.66666666666669</ele><time>2026-04-26T12:54:54.847Z</time></trkpt><trkpt lat="45.7930874" lon="11.7566712"><ele>160.0</ele><time>2026-04-26T12:54:55.846Z</time></trkpt><trkpt lat="45.793236" lon="11.7567527"><ele>160.0</ele><time>2026-04-26T12:54:56.845Z</time></trkpt><trkpt lat="45.793387" lon="11.7568322"><ele>160.0</ele><time>2026-04-26T12:54:57.852Z</time></trkpt><trkpt lat="45.7935417" lon="11.7569113"><ele>160.0</ele><time>2026-04-26T12:54:58.839Z</time></trkpt><trkpt lat="45.7936957" lon="11.756994"><ele>161.0</ele><time>2026-04-26T12:54:59.859Z</time></trkpt><trkpt lat="45.7938483" lon="11.7570769"><ele>162.0</ele><time>2026-04-26T12:55:00.837Z</time></trkpt><trkpt lat="45.7940018" lon="11.7571557"><ele>163.0</ele><time>2026-04-26T12:55:01.859Z</time></trkpt><trkpt lat="45.7941515" lon="11.7572323"><ele>163.0</ele><time>2026-04-26T12:55:02.864Z</time></trkpt><trkpt lat="45.7942942" lon="11.7573069"><ele>163.0</ele><time>2026-04-26T12:55:03.854Z</time></trkpt><trkpt lat="45.7944309" lon="11.7573768"><ele>163.0</ele><time>2026-04-26T12:55:04.847Z</time></trkpt><trkpt lat="45.7945606" lon="11.7574415"><ele>163.0</ele><time>2026-04-26T12:55:05.841Z</time></trkpt><trkpt lat="45.79468" lon="11.7575014"><ele>163.4</ele><time>2026-04-26T12:55:06.853Z</time></trkpt><trkpt lat="45.7947903" lon="11.7575568"><ele>163.8</ele><time>2026-04-26T12:55:07.837Z</time></trkpt><trkpt lat="45.7948937" lon="11.7576128"><ele>164.2</ele><time>2026-04-26T12:55:08.854Z</time></trkpt><trkpt lat="45.7949865" lon="11.7576667"><ele>164.6</ele><time>2026-04-26T12:55:09.84Z</time></trkpt><trkpt lat="45.7950681" lon="11.7577109"><ele>165.0</ele><time>2026-04-26T12:55:10.848Z</time></trkpt><trkpt lat="45.7951414" lon="11.7577474"><ele>165.5</ele><time>2026-04-26T12:55:11.841Z</time></trkpt><trkpt lat="45.7952062" lon="11.7577817"><ele>166.0</ele><time>2026-04-26T12:55:12.854Z</time></trkpt><trkpt lat="45.7953261" lon="11.7578505"><ele>166.5</ele><time>2026-04-26T12:55:14.841Z</time></trkpt><trkpt lat="45.7953939" lon="11.7578845"><ele>167.0</ele><time>2026-04-26T12:55:15.842Z</time></trkpt><trkpt lat="45.7954647" lon="11.7579192"><ele>167.5</ele><time>2026-04-26T12:55:16.857Z</time></trkpt><trkpt lat="45.7955382" lon="11.7579574"><ele>168.0</ele><time>2026-04-26T12:55:17.869Z</time></trkpt><trkpt lat="45.7956091" lon="11.7579983"><ele>168.0</ele><time>2026-04-26T12:55:18.855Z</time></trkpt><trkpt lat="45.7956701" lon="11.7580239"><ele>168.0</ele><time>2026-04-26T12:55:19.865Z</time></trkpt><trkpt lat="45.7957402" lon="11.7580546"><ele>168.0</ele><time>2026-04-26T12:55:20.855Z</time></trkpt><trkpt lat="45.7958136" lon="11.7580824"><ele>168.0</ele><time>2026-04-26T12:55:21.862Z</time></trkpt><trkpt lat="45.7958763" lon="11.7581104"><ele>168.0</ele><time>2026-04-26T12:55:22.851Z</time></trkpt><trkpt lat="45.7959357" lon="11.7581412"><ele>168.0</ele><time>2026-04-26T12:55:23.858Z</time></trkpt><trkpt lat="45.7960163" lon="11.7581535"><ele>168.0</ele><time>2026-04-26T12:55:24.87Z</time></trkpt><trkpt lat="45.7960917" lon="11.7581736"><ele>168.16666666666666</ele><time>2026-04-26T12:55:25.869Z</time></trkpt><trkpt lat="45.7961545" lon="11.7582438"><ele>168.33333333333334</ele><time>2026-04-26T12:55:27.845Z</time></trkpt><trkpt lat="45.7961858" lon="11.7583272"><ele>168.5</ele><time>2026-04-26T12:55:29.851Z</time></trkpt><trkpt lat="45.7961805" lon="11.7584204"><ele>168.66666666666669</ele><time>2026-04-26T12:55:31.851Z</time></trkpt><trkpt lat="45.7961883" lon="11.7585346"><ele>168.83333333333334</ele><time>2026-04-26T12:55:33.846Z</time></trkpt><trkpt lat="45.7962602" lon="11.7586052"><ele>169.0</ele><time>2026-04-26T12:55:39.859Z</time></trkpt><trkpt lat="45.7963899" lon="11.7586745"><ele>169.33333333333334</ele><time>2026-04-26T12:55:45.852Z</time></trkpt><trkpt lat="45.7964692" lon="11.7587646"><ele>169.66666666666669</ele><time>2026-04-26T12:55:47.847Z</time></trkpt><trkpt lat="45.7965584" lon="11.7588867"><ele>170.0</ele><time>2026-04-26T12:55:49.849Z</time></trkpt><trkpt lat="45.7966073" lon="11.7589675"><ele>170.33333333333334</ele><time>2026-04-26T12:55:50.848Z</time></trkpt><trkpt lat="45.79666" lon="11.7590467"><ele>170.66666666666666</ele><time>2026-04-26T12:55:51.832Z</time></trkpt><trkpt lat="45.7967081" lon="11.7591236"><ele>171.0</ele><time>2026-04-26T12:55:52.84Z</time></trkpt><trkpt lat="45.79676" lon="11.7592003"><ele>171.0</ele><time>2026-04-26T12:55:53.842Z</time></trkpt><trkpt lat="45.7968143" lon="11.7592792"><ele>171.0</ele><time>2026-04-26T12:55:54.875Z</time></trkpt><trkpt lat="45.7968701" lon="11.7593609"><ele>171.0</ele><time>2026-04-26T12:55:55.863Z</time></trkpt><trkpt lat="45.7969279" lon="11.759446"><ele>171.0</ele><time>2026-04-26T12:55:56.842Z</time></trkpt><trkpt lat="45.796986" lon="11.7595348"><ele>171.0</ele><time>2026-04-26T12:55:57.847Z</time></trkpt><trkpt lat="45.7970525" lon="11.7596244"><ele>171.0</ele><time>2026-04-26T12:55:58.852Z</time></trkpt><trkpt lat="45.7971188" lon="11.7597177"><ele>171.16666666666666</ele><time>2026-04-26T12:55:59.839Z</time></trkpt><trkpt lat="45.7971865" lon="11.7598136"><ele>171.33333333333334</ele><time>2026-04-26T12:56:00.843Z</time></trkpt><trkpt lat="45.7972515" lon="11.759913"><ele>171.5</ele><time>2026-04-26T12:56:01.849Z</time></trkpt><trkpt lat="45.7973128" lon="11.7600051"><ele>171.66666666666669</ele><time>2026-04-26T12:56:02.844Z</time></trkpt><trkpt lat="45.7973696" lon="11.7600904"><ele>171.83333333333334</ele><time>2026-04-26T12:56:03.845Z</time></trkpt><trkpt lat="45.797422" lon="11.7601748"><ele>172.0</ele><time>2026-04-26T12:56:04.852Z</time></trkpt><trkpt lat="45.7974664" lon="11.7602498"><ele>172.8</ele><time>2026-04-26T12:56:05.851Z</time></trkpt><trkpt lat="45.7975276" lon="11.7603428"><ele>173.6</ele><time>2026-04-26T12:56:07.854Z</time></trkpt><trkpt lat="45.7975894" lon="11.7604257"><ele>174.4</ele><time>2026-04-26T12:56:10.848Z</time></trkpt><trkpt lat="45.7976477" lon="11.7605211"><ele>175.20000000000002</ele><time>2026-04-26T12:56:13.845Z</time></trkpt><trkpt lat="45.7977109" lon="11.7606151"><ele>176.0</ele><time>2026-04-26T12:56:15.856Z</time></trkpt><trkpt lat="45.7977845" lon="11.7607233"><ele>176.0</ele><time>2026-04-26T12:56:17.848Z</time></trkpt><trkpt lat="45.7978767" lon="11.760857"><ele>176.0</ele><time>2026-04-26T12:56:19.855Z</time></trkpt><trkpt lat="45.7979284" lon="11.7609389"><ele>176.0</ele><time>2026-04-26T12:56:20.851Z</time></trkpt><trkpt lat="45.7979784" lon="11.7610139"><ele>176.0</ele><time>2026-04-26T12:56:21.837Z</time></trkpt><trkpt lat="45.7980362" lon="11.7610986"><ele>176.0</ele><time>2026-04-26T12:56:22.862Z</time></trkpt><trkpt lat="45.7980943" lon="11.761185"><ele>176.0</ele><time>2026-04-26T12:56:23.841Z</time></trkpt><trkpt lat="45.7981561" lon="11.7612771"><ele>176.60000000000002</ele><time>2026-04-26T12:56:24.854Z</time></trkpt><trkpt lat="45.7982222" lon="11.761374"><ele>177.2</ele><time>2026-04-26T12:56:25.852Z</time></trkpt><trkpt lat="45.7982908" lon="11.7614747"><ele>177.8</ele><time>2026-04-26T12:56:26.846Z</time></trkpt><trkpt lat="45.7983595" lon="11.7615784"><ele>178.39999999999998</ele><time>2026-04-26T12:56:27.861Z</time></trkpt><trkpt lat="45.7984314" lon="11.7616845"><ele>179.0</ele><time>2026-04-26T12:56:28.845Z</time></trkpt><trkpt lat="45.7985061" lon="11.7617939"><ele>180.0</ele><time>2026-04-26T12:56:29.846Z</time></trkpt><trkpt lat="45.7985845" lon="11.7618984"><ele>181.0</ele><time>2026-04-26T12:56:30.842Z</time></trkpt><trkpt lat="45.7986592" lon="11.762014"><ele>182.0</ele><time>2026-04-26T12:56:31.844Z</time></trkpt><trkpt lat="45.7987377" lon="11.7621257"><ele>183.0</ele><time>2026-04-26T12:56:32.847Z</time></trkpt><trkpt lat="45.798818" lon="11.7622408"><ele>184.0</ele><time>2026-04-26T12:56:33.855Z</time></trkpt><trkpt lat="45.7989121" lon="11.7623653"><ele>184.0</ele><time>2026-04-26T12:56:34.852Z</time></trkpt><trkpt lat="45.798997" lon="11.7624904"><ele>184.0</ele><time>2026-04-26T12:56:35.854Z</time></trkpt><trkpt lat="45.7990872" lon="11.7626072"><ele>184.0</ele><time>2026-04-26T12:56:36.852Z</time></trkpt><trkpt lat="45.7991759" lon="11.7627164"><ele>184.0</ele><time>2026-04-26T12:56:37.841Z</time></trkpt><trkpt lat="45.7992657" lon="11.7628076"><ele>185.2</ele><time>2026-04-26T12:56:38.854Z</time></trkpt><trkpt lat="45.7993589" lon="11.7628771"><ele>186.39999999999998</ele><time>2026-04-26T12:56:39.845Z</time></trkpt><trkpt lat="45.7994516" lon="11.7629312"><ele>187.6</ele><time>2026-04-26T12:56:40.848Z</time></trkpt><trkpt lat="45.799542" lon="11.7629797"><ele>188.8</ele><time>2026-04-26T12:56:41.841Z</time></trkpt><trkpt lat="45.7996322" lon="11.7630183"><ele>190.0</ele><time>2026-04-26T12:56:42.853Z</time></trkpt><trkpt lat="45.79974" lon="11.7630717"><ele>190.0</ele><time>2026-04-26T12:56:43.844Z</time></trkpt><trkpt lat="45.7998481" lon="11.7631247"><ele>190.0</ele><time>2026-04-26T12:56:44.848Z</time></trkpt><trkpt lat="45.799967" lon="11.7631781"><ele>190.0</ele><time>2026-04-26T12:56:45.859Z</time></trkpt><trkpt lat="45.8000832" lon="11.7632399"><ele>190.0</ele><time>2026-04-26T12:56:46.836Z</time></trkpt><trkpt lat="45.8001999" lon="11.7632852"><ele>189.5</ele><time>2026-04-26T12:56:47.846Z</time></trkpt><trkpt lat="45.8003232" lon="11.7633465"><ele>189.0</ele><time>2026-04-26T12:56:48.84Z</time></trkpt><trkpt lat="45.8004484" lon="11.7634064"><ele>188.5</ele><time>2026-04-26T12:56:49.848Z</time></trkpt><trkpt lat="45.8005722" lon="11.763471"><ele>188.0</ele><time>2026-04-26T12:56:50.844Z</time></trkpt><trkpt lat="45.8006822" lon="11.7635334"><ele>189.5</ele><time>2026-04-26T12:56:51.855Z</time></trkpt><trkpt lat="45.8008051" lon="11.7635954"><ele>191.0</ele><time>2026-04-26T12:56:52.849Z</time></trkpt><trkpt lat="45.8009244" lon="11.7636487"><ele>192.5</ele><time>2026-04-26T12:56:53.849Z</time></trkpt><trkpt lat="45.8010522" lon="11.7637056"><ele>194.0</ele><time>2026-04-26T12:56:54.851Z</time></trkpt><trkpt lat="45.8011758" lon="11.7637655"><ele>194.75</ele><time>2026-04-26T12:56:55.868Z</time></trkpt><trkpt lat="45.8012932" lon="11.7638348"><ele>195.5</ele><time>2026-04-26T12:56:56.869Z</time></trkpt><trkpt lat="45.801425" lon="11.7638987"><ele>196.25</ele><time>2026-04-26T12:56:57.869Z</time></trkpt><trkpt lat="45.8015535" lon="11.7639799"><ele>197.0</ele><time>2026-04-26T12:56:58.862Z</time></trkpt><trkpt lat="45.8016828" lon="11.7640623"><ele>197.0</ele><time>2026-04-26T12:56:59.863Z</time></trkpt><trkpt lat="45.8018121" lon="11.7641687"><ele>197.0</ele><time>2026-04-26T12:57:00.849Z</time></trkpt><trkpt lat="45.8019312" lon="11.7643012"><ele>197.0</ele><time>2026-04-26T12:57:01.85Z</time></trkpt><trkpt lat="45.8020411" lon="11.7644561"><ele>198.33333333333334</ele><time>2026-04-26T12:57:02.864Z</time></trkpt><trkpt lat="45.8021514" lon="11.7646241"><ele>199.66666666666669</ele><time>2026-04-26T12:57:03.858Z</time></trkpt><trkpt lat="45.8022579" lon="11.7647842"><ele>201.0</ele><time>2026-04-26T12:57:04.843Z</time></trkpt><trkpt lat="45.8023653" lon="11.7649601"><ele>201.0</ele><time>2026-04-26T12:57:05.851Z</time></trkpt><trkpt lat="45.8024726" lon="11.765134"><ele>201.0</ele><time>2026-04-26T12:57:06.85Z</time></trkpt><trkpt lat="45.8025715" lon="11.7652961"><ele>201.0</ele><time>2026-04-26T12:57:07.841Z</time></trkpt><trkpt lat="45.8026759" lon="11.7654513"><ele>199.0</ele><time>2026-04-26T12:57:08.854Z</time></trkpt><trkpt lat="45.8027617" lon="11.7656129"><ele>197.0</ele><time>2026-04-26T12:57:09.845Z</time></trkpt><trkpt lat="45.8028262" lon="11.7657877"><ele>195.0</ele><time>2026-04-26T12:57:10.851Z</time></trkpt><trkpt lat="45.8028867" lon="11.7659738"><ele>193.0</ele><time>2026-04-26T12:57:11.851Z</time></trkpt><trkpt lat="45.8029279" lon="11.7661723"><ele>192.5</ele><time>2026-04-26T12:57:12.851Z</time></trkpt><trkpt lat="45.8029586" lon="11.7663723"><ele>192.0</ele><time>2026-04-26T12:57:13.839Z</time></trkpt><trkpt lat="45.8029763" lon="11.7665696"><ele>191.5</ele><time>2026-04-26T12:57:14.86Z</time></trkpt><trkpt lat="45.8029938" lon="11.7667588"><ele>191.0</ele><time>2026-04-26T12:57:15.853Z</time></trkpt><trkpt lat="45.8030192" lon="11.7669423"><ele>190.75</ele><time>2026-04-26T12:57:16.85Z</time></trkpt><trkpt lat="45.8030534" lon="11.7671198"><ele>190.5</ele><time>2026-04-26T12:57:17.853Z</time></trkpt><trkpt lat="45.8030961" lon="11.7672862"><ele>190.25</ele><time>2026-04-26T12:57:18.846Z</time></trkpt><trkpt lat="45.8031518" lon="11.767445"><ele>190.0</ele><time>2026-04-26T12:57:19.848Z</time></trkpt><trkpt lat="45.8032203" lon="11.7676038"><ele>189.25</ele><time>2026-04-26T12:57:20.856Z</time></trkpt><trkpt lat="45.8032983" lon="11.7677686"><ele>188.5</ele><time>2026-04-26T12:57:21.843Z</time></trkpt><trkpt lat="45.8033785" lon="11.7679402"><ele>187.75</ele><time>2026-04-26T12:57:22.858Z</time></trkpt><trkpt lat="45.8034584" lon="11.7681191"><ele>187.0</ele><time>2026-04-26T12:57:23.838Z</time></trkpt><trkpt lat="45.8035422" lon="11.7683041"><ele>187.0</ele><time>2026-04-26T12:57:24.868Z</time></trkpt><trkpt lat="45.803628" lon="11.7684948"><ele>187.0</ele><time>2026-04-26T12:57:25.856Z</time></trkpt><trkpt lat="45.8037132" lon="11.7686707"><ele>187.0</ele><time>2026-04-26T12:57:26.86Z</time></trkpt><trkpt lat="45.8038058" lon="11.7688777"><ele>186.66666666666669</ele><time>2026-04-26T12:57:27.831Z</time></trkpt><trkpt lat="45.8039011" lon="11.7690871"><ele>186.33333333333334</ele><time>2026-04-26T12:57:28.849Z</time></trkpt><trkpt lat="45.8040006" lon="11.7693046"><ele>186.0</ele><time>2026-04-26T12:57:29.845Z</time></trkpt><trkpt lat="45.8041017" lon="11.7695352"><ele>185.33333333333334</ele><time>2026-04-26T12:57:30.833Z</time></trkpt><trkpt lat="45.8041998" lon="11.7697726"><ele>184.66666666666669</ele><time>2026-04-26T12:57:31.849Z</time></trkpt><trkpt lat="45.8042946" lon="11.7700232"><ele>184.0</ele><time>2026-04-26T12:57:32.843Z</time></trkpt><trkpt lat="45.8043858" lon="11.7702823"><ele>183.66666666666669</ele><time>2026-04-26T12:57:33.841Z</time></trkpt><trkpt lat="45.804478" lon="11.7705489"><ele>183.33333333333334</ele><time>2026-04-26T12:57:34.853Z</time></trkpt><trkpt lat="45.8045725" lon="11.7708204"><ele>183.0</ele><time>2026-04-26T12:57:35.843Z</time></trkpt><trkpt lat="45.8046703" lon="11.7710949"><ele>182.33333333333334</ele><time>2026-04-26T12:57:36.848Z</time></trkpt><trkpt lat="45.8047707" lon="11.7713688"><ele>181.66666666666669</ele><time>2026-04-26T12:57:37.858Z</time></trkpt><trkpt lat="45.80487" lon="11.7716362"><ele>181.0</ele><time>2026-04-26T12:57:38.836Z</time></trkpt><trkpt lat="45.8049718" lon="11.7719024"><ele>180.0</ele><time>2026-04-26T12:57:39.852Z</time></trkpt><trkpt lat="45.805069" lon="11.7721713"><ele>179.0</ele><time>2026-04-26T12:57:40.846Z</time></trkpt><trkpt lat="45.8051638" lon="11.772448"><ele>178.0</ele><time>2026-04-26T12:57:41.837Z</time></trkpt><trkpt lat="45.8052618" lon="11.7727163"><ele>177.33333333333334</ele><time>2026-04-26T12:57:42.851Z</time></trkpt><trkpt lat="45.8053582" lon="11.7729866"><ele>176.66666666666666</ele><time>2026-04-26T12:57:43.853Z</time></trkpt><trkpt lat="45.8054532" lon="11.7732536"><ele>176.0</ele><time>2026-04-26T12:57:44.854Z</time></trkpt><trkpt lat="45.8055452" lon="11.7735193"><ele>176.0</ele><time>2026-04-26T12:57:45.845Z</time></trkpt><trkpt lat="45.8056395" lon="11.7737845"><ele>176.0</ele><time>2026-04-26T12:57:46.846Z</time></trkpt><trkpt lat="45.805734" lon="11.774046"><ele>176.0</ele><time>2026-04-26T12:57:47.837Z</time></trkpt><trkpt lat="45.8058241" lon="11.7743041"><ele>176.0</ele><time>2026-04-26T12:57:48.851Z</time></trkpt><trkpt lat="45.8059128" lon="11.774559"><ele>176.0</ele><time>2026-04-26T12:57:49.833Z</time></trkpt><trkpt lat="45.8060001" lon="11.7748143"><ele>176.0</ele><time>2026-04-26T12:57:50.851Z</time></trkpt><trkpt lat="45.8060855" lon="11.7750716"><ele>175.66666666666666</ele><time>2026-04-26T12:57:51.853Z</time></trkpt><trkpt lat="45.8061682" lon="11.7753287"><ele>175.33333333333334</ele><time>2026-04-26T12:57:52.853Z</time></trkpt><trkpt lat="45.8062493" lon="11.7755847"><ele>175.0</ele><time>2026-04-26T12:57:53.838Z</time></trkpt><trkpt lat="45.8063324" lon="11.7758361"><ele>174.66666666666669</ele><time>2026-04-26T12:57:54.853Z</time></trkpt><trkpt lat="45.8064143" lon="11.7760903"><ele>174.33333333333334</ele><time>2026-04-26T12:57:55.864Z</time></trkpt><trkpt lat="45.8064953" lon="11.7763436"><ele>174.0</ele><time>2026-04-26T12:57:56.838Z</time></trkpt><trkpt lat="45.8065766" lon="11.7765973"><ele>174.0</ele><time>2026-04-26T12:57:57.847Z</time></trkpt><trkpt lat="45.8066584" lon="11.7768511"><ele>174.0</ele><time>2026-04-26T12:57:58.848Z</time></trkpt><trkpt lat="45.8067414" lon="11.7771044"><ele>174.0</ele><time>2026-04-26T12:57:59.851Z</time></trkpt><trkpt lat="45.8068239" lon="11.7773588"><ele>173.66666666666666</ele><time>2026-04-26T12:58:00.852Z</time></trkpt><trkpt lat="45.8069066" lon="11.7776134"><ele>173.33333333333331</ele><time>2026-04-26T12:58:01.846Z</time></trkpt><trkpt lat="45.8069883" lon="11.7778682"><ele>173.0</ele><time>2026-04-26T12:58:02.859Z</time></trkpt><trkpt lat="45.8070684" lon="11.7781223"><ele>173.0</ele><time>2026-04-26T12:58:03.856Z</time></trkpt><trkpt lat="45.8071478" lon="11.7783749"><ele>173.0</ele><time>2026-04-26T12:58:04.864Z</time></trkpt><trkpt lat="45.807229" lon="11.7786255"><ele>173.0</ele><time>2026-04-26T12:58:05.86Z</time></trkpt><trkpt lat="45.8073098" lon="11.7788759"><ele>172.33333333333331</ele><time>2026-04-26T12:58:06.854Z</time></trkpt><trkpt lat="45.8073917" lon="11.7791255"><ele>171.66666666666666</ele><time>2026-04-26T12:58:07.831Z</time></trkpt><trkpt lat="45.807473" lon="11.7793758"><ele>171.0</ele><time>2026-04-26T12:58:08.851Z</time></trkpt><trkpt lat="45.8075529" lon="11.7796258"><ele>171.0</ele><time>2026-04-26T12:58:09.853Z</time></trkpt><trkpt lat="45.8076326" lon="11.779875"><ele>171.0</ele><time>2026-04-26T12:58:10.839Z</time></trkpt><trkpt lat="45.8077112" lon="11.780121"><ele>171.0</ele><time>2026-04-26T12:58:11.857Z</time></trkpt><trkpt lat="45.8077892" lon="11.7803651"><ele>173.0</ele><time>2026-04-26T12:58:12.848Z</time></trkpt><trkpt lat="45.8078671" lon="11.7806053"><ele>175.0</ele><time>2026-04-26T12:58:13.857Z</time></trkpt><trkpt lat="45.8079439" lon="11.7808419"><ele>177.0</ele><time>2026-04-26T12:58:14.852Z</time></trkpt><trkpt lat="45.8080185" lon="11.7810774"><ele>177.0</ele><time>2026-04-26T12:58:15.844Z</time></trkpt><trkpt lat="45.8080905" lon="11.7813134"><ele>177.0</ele><time>2026-04-26T12:58:16.844Z</time></trkpt><trkpt lat="45.8081642" lon="11.7815512"><ele>177.0</ele><time>2026-04-26T12:58:17.841Z</time></trkpt><trkpt lat="45.8082401" lon="11.781789"><ele>176.66666666666666</ele><time>2026-04-26T12:58:18.843Z</time></trkpt><trkpt lat="45.8083189" lon="11.7820286"><ele>176.33333333333331</ele><time>2026-04-26T12:58:19.849Z</time></trkpt><trkpt lat="45.8083967" lon="11.7822704"><ele>176.0</ele><time>2026-04-26T12:58:20.839Z</time></trkpt><trkpt lat="45.8084735" lon="11.7825146"><ele>178.66666666666666</ele><time>2026-04-26T12:58:21.84Z</time></trkpt><trkpt lat="45.8085518" lon="11.782759"><ele>181.33333333333334</ele><time>2026-04-26T12:58:22.832Z</time></trkpt><trkpt lat="45.8086312" lon="11.7830049"><ele>184.0</ele><time>2026-04-26T12:58:23.839Z</time></trkpt><trkpt lat="45.8087105" lon="11.7832535"><ele>184.0</ele><time>2026-04-26T12:58:24.844Z</time></trkpt><trkpt lat="45.80879" lon="11.783505"><ele>184.0</ele><time>2026-04-26T12:58:25.845Z</time></trkpt><trkpt lat="45.8088704" lon="11.7837587"><ele>184.0</ele><time>2026-04-26T12:58:26.841Z</time></trkpt><trkpt lat="45.8089534" lon="11.7840132"><ele>182.66666666666669</ele><time>2026-04-26T12:58:27.849Z</time></trkpt><trkpt lat="45.809037" lon="11.7842697"><ele>181.33333333333334</ele><time>2026-04-26T12:58:28.848Z</time></trkpt><trkpt lat="45.8091193" lon="11.7845296"><ele>180.0</ele><time>2026-04-26T12:58:29.849Z</time></trkpt><trkpt lat="45.8092" lon="11.784789"><ele>179.33333333333334</ele><time>2026-04-26T12:58:30.842Z</time></trkpt><trkpt lat="45.8092811" lon="11.7850499"><ele>178.66666666666669</ele><time>2026-04-26T12:58:31.849Z</time></trkpt><trkpt lat="45.8093612" lon="11.7853035"><ele>178.0</ele><time>2026-04-26T12:58:32.847Z</time></trkpt><trkpt lat="45.8094441" lon="11.7855685"><ele>179.0</ele><time>2026-04-26T12:58:33.855Z</time></trkpt><trkpt lat="45.8095262" lon="11.7858333"><ele>180.0</ele><time>2026-04-26T12:58:34.84Z</time></trkpt><trkpt lat="45.809607" lon="11.7860856"><ele>181.0</ele><time>2026-04-26T12:58:35.845Z</time></trkpt><trkpt lat="45.809682" lon="11.7863246"><ele>181.0</ele><time>2026-04-26T12:58:36.842Z</time></trkpt><trkpt lat="45.8097576" lon="11.7865483"><ele>181.0</ele><time>2026-04-26T12:58:37.843Z</time></trkpt><trkpt lat="45.8098373" lon="11.7867687"><ele>181.0</ele><time>2026-04-26T12:58:38.848Z</time></trkpt><trkpt lat="45.8099321" lon="11.7869832"><ele>181.33333333333334</ele><time>2026-04-26T12:58:39.844Z</time></trkpt><trkpt lat="45.8100437" lon="11.7871884"><ele>181.66666666666666</ele><time>2026-04-26T12:58:40.856Z</time></trkpt><trkpt lat="45.810169" lon="11.7873776"><ele>182.0</ele><time>2026-04-26T12:58:41.849Z</time></trkpt><trkpt lat="45.8103083" lon="11.7875552"><ele>181.66666666666666</ele><time>2026-04-26T12:58:42.86Z</time></trkpt><trkpt lat="45.8104505" lon="11.7877226"><ele>181.33333333333334</ele><time>2026-04-26T12:58:43.844Z</time></trkpt><trkpt lat="45.8105815" lon="11.7878797"><ele>181.0</ele><time>2026-04-26T12:58:44.868Z</time></trkpt><trkpt lat="45.8107028" lon="11.7880253"><ele>181.0</ele><time>2026-04-26T12:58:45.86Z</time></trkpt><trkpt lat="45.8108242" lon="11.7881674"><ele>181.0</ele><time>2026-04-26T12:58:46.859Z</time></trkpt><trkpt lat="45.810948" lon="11.7883115"><ele>181.0</ele><time>2026-04-26T12:58:47.868Z</time></trkpt><trkpt lat="45.8110752" lon="11.7884585"><ele>182.0</ele><time>2026-04-26T12:58:48.873Z</time></trkpt><trkpt lat="45.8112027" lon="11.7886123"><ele>183.0</ele><time>2026-04-26T12:58:49.867Z</time></trkpt><trkpt lat="45.8113339" lon="11.7887691"><ele>184.0</ele><time>2026-04-26T12:58:50.871Z</time></trkpt><trkpt lat="45.8114674" lon="11.788927"><ele>184.0</ele><time>2026-04-26T12:58:51.845Z</time></trkpt><trkpt lat="45.8116026" lon="11.7890888"><ele>184.0</ele><time>2026-04-26T12:58:52.847Z</time></trkpt><trkpt lat="45.8117411" lon="11.7892509"><ele>184.0</ele><time>2026-04-26T12:58:53.852Z</time></trkpt><trkpt lat="45.8118822" lon="11.7894123"><ele>185.66666666666669</ele><time>2026-04-26T12:58:54.849Z</time></trkpt><trkpt lat="45.8120243" lon="11.7895759"><ele>187.33333333333334</ele><time>2026-04-26T12:58:55.837Z</time></trkpt><trkpt lat="45.8121672" lon="11.7897429"><ele>189.0</ele><time>2026-04-26T12:58:56.859Z</time></trkpt><trkpt lat="45.8123124" lon="11.7899119"><ele>189.0</ele><time>2026-04-26T12:58:57.869Z</time></trkpt><trkpt lat="45.8124572" lon="11.790076"><ele>189.0</ele><time>2026-04-26T12:58:58.863Z</time></trkpt><trkpt lat="45.8126005" lon="11.7902427"><ele>189.0</ele><time>2026-04-26T12:58:59.862Z</time></trkpt><trkpt lat="45.8127493" lon="11.7904129"><ele>189.33333333333334</ele><time>2026-04-26T12:59:00.862Z</time></trkpt><trkpt lat="45.8129002" lon="11.7905855"><ele>189.66666666666669</ele><time>2026-04-26T12:59:01.857Z</time></trkpt><trkpt lat="45.8130524" lon="11.7907599"><ele>190.0</ele><time>2026-04-26T12:59:02.842Z</time></trkpt><trkpt lat="45.8132067" lon="11.7909357"><ele>190.33333333333334</ele><time>2026-04-26T12:59:03.845Z</time></trkpt><trkpt lat="45.8133587" lon="11.7911178"><ele>190.66666666666666</ele><time>2026-04-26T12:59:04.842Z</time></trkpt><trkpt lat="45.8135152" lon="11.791296"><ele>191.0</ele><time>2026-04-26T12:59:05.844Z</time></trkpt><trkpt lat="45.8136726" lon="11.7914753"><ele>191.0</ele><time>2026-04-26T12:59:06.851Z</time></trkpt><trkpt lat="45.8138303" lon="11.7916573"><ele>191.0</ele><time>2026-04-26T12:59:07.852Z</time></trkpt><trkpt lat="45.813989" lon="11.7918362"><ele>191.0</ele><time>2026-04-26T12:59:08.851Z</time></trkpt><trkpt lat="45.8141515" lon="11.7920091"><ele>191.33333333333331</ele><time>2026-04-26T12:59:09.845Z</time></trkpt><trkpt lat="45.8143167" lon="11.7921646"><ele>191.66666666666666</ele><time>2026-04-26T12:59:10.842Z</time></trkpt><trkpt lat="45.8144832" lon="11.7923"><ele>192.0</ele><time>2026-04-26T12:59:11.836Z</time></trkpt><trkpt lat="45.8146434" lon="11.7924226"><ele>192.0</ele><time>2026-04-26T12:59:12.845Z</time></trkpt><trkpt lat="45.8147965" lon="11.7925437"><ele>192.0</ele><time>2026-04-26T12:59:13.86Z</time></trkpt><trkpt lat="45.8149403" lon="11.7926771"><ele>192.0</ele><time>2026-04-26T12:59:14.853Z</time></trkpt><trkpt lat="45.8150698" lon="11.7928393"><ele>191.33333333333334</ele><time>2026-04-26T12:59:15.837Z</time></trkpt><trkpt lat="45.8151787" lon="11.7930288"><ele>190.66666666666669</ele><time>2026-04-26T12:59:16.842Z</time></trkpt><trkpt lat="45.815272" lon="11.793239"><ele>190.0</ele><time>2026-04-26T12:59:17.85Z</time></trkpt><trkpt lat="45.8153422" lon="11.7934682"><ele>188.66666666666669</ele><time>2026-04-26T12:59:18.849Z</time></trkpt><trkpt lat="45.8153928" lon="11.7937031"><ele>187.33333333333334</ele><time>2026-04-26T12:59:19.851Z</time></trkpt><trkpt lat="45.8154276" lon="11.793932"><ele>186.0</ele><time>2026-04-26T12:59:20.86Z</time></trkpt><trkpt lat="45.8154491" lon="11.7941527"><ele>186.0</ele><time>2026-04-26T12:59:21.856Z</time></trkpt><trkpt lat="45.8154516" lon="11.794389"><ele>186.0</ele><time>2026-04-26T12:59:22.834Z</time></trkpt><trkpt lat="45.815449" lon="11.7946336"><ele>186.0</ele><time>2026-04-26T12:59:23.852Z</time></trkpt><trkpt lat="45.8154498" lon="11.7948875"><ele>186.0</ele><time>2026-04-26T12:59:24.846Z</time></trkpt><trkpt lat="45.8154492" lon="11.7951491"><ele>186.0</ele><time>2026-04-26T12:59:25.841Z</time></trkpt><trkpt lat="45.8154457" lon="11.7954183"><ele>186.0</ele><time>2026-04-26T12:59:26.851Z</time></trkpt><trkpt lat="45.815442" lon="11.7956939"><ele>185.33333333333334</ele><time>2026-04-26T12:59:27.834Z</time></trkpt><trkpt lat="45.8154377" lon="11.7959755"><ele>184.66666666666669</ele><time>2026-04-26T12:59:28.843Z</time></trkpt><trkpt lat="45.8154346" lon="11.7962603"><ele>184.0</ele><time>2026-04-26T12:59:29.848Z</time></trkpt><trkpt lat="45.8154329" lon="11.7965453"><ele>183.33333333333334</ele><time>2026-04-26T12:59:30.842Z</time></trkpt><trkpt lat="45.8154321" lon="11.7968301"><ele>182.66666666666666</ele><time>2026-04-26T12:59:31.841Z</time></trkpt><trkpt lat="45.8154298" lon="11.7971139"><ele>182.0</ele><time>2026-04-26T12:59:32.852Z</time></trkpt><trkpt lat="45.8154276" lon="11.7973947"><ele>184.66666666666666</ele><time>2026-04-26T12:59:33.844Z</time></trkpt><trkpt lat="45.8154273" lon="11.7976732"><ele>187.33333333333334</ele><time>2026-04-26T12:59:34.847Z</time></trkpt><trkpt lat="45.8154273" lon="11.797948"><ele>190.0</ele><time>2026-04-26T12:59:35.833Z</time></trkpt><trkpt lat="45.815425" lon="11.7982201"><ele>190.0</ele><time>2026-04-26T12:59:36.853Z</time></trkpt><trkpt lat="45.8154231" lon="11.7984896"><ele>190.0</ele><time>2026-04-26T12:59:37.833Z</time></trkpt><trkpt lat="45.81542" lon="11.7987569"><ele>190.0</ele><time>2026-04-26T12:59:38.858Z</time></trkpt><trkpt lat="45.8154187" lon="11.7990228"><ele>191.0</ele><time>2026-04-26T12:59:39.834Z</time></trkpt><trkpt lat="45.815418" lon="11.7992863"><ele>192.0</ele><time>2026-04-26T12:59:40.873Z</time></trkpt><trkpt lat="45.8154161" lon="11.7995467"><ele>193.0</ele><time>2026-04-26T12:59:41.85Z</time></trkpt><trkpt lat="45.8154136" lon="11.7998059"><ele>193.33333333333331</ele><time>2026-04-26T12:59:42.853Z</time></trkpt><trkpt lat="45.8154143" lon="11.8000632"><ele>193.66666666666669</ele><time>2026-04-26T12:59:43.84Z</time></trkpt><trkpt lat="45.8154237" lon="11.8003193"><ele>194.0</ele><time>2026-04-26T12:59:44.856Z</time></trkpt><trkpt lat="45.8154418" lon="11.8005746"><ele>195.0</ele><time>2026-04-26T12:59:45.845Z</time></trkpt><trkpt lat="45.8154641" lon="11.8008315"><ele>196.0</ele><time>2026-04-26T12:59:46.857Z</time></trkpt><trkpt lat="45.8154868" lon="11.8010894"><ele>197.0</ele><time>2026-04-26T12:59:47.866Z</time></trkpt><trkpt lat="45.815508" lon="11.801348"><ele>197.33333333333334</ele><time>2026-04-26T12:59:48.853Z</time></trkpt><trkpt lat="45.8155304" lon="11.8016084"><ele>197.66666666666669</ele><time>2026-04-26T12:59:49.839Z</time></trkpt><trkpt lat="45.8155555" lon="11.80187"><ele>198.0</ele><time>2026-04-26T12:59:50.88Z</time></trkpt><trkpt lat="45.8155839" lon="11.8021296"><ele>198.66666666666669</ele><time>2026-04-26T12:59:51.857Z</time></trkpt><trkpt lat="45.8156102" lon="11.8023882"><ele>199.33333333333334</ele><time>2026-04-26T12:59:52.872Z</time></trkpt><trkpt lat="45.8156344" lon="11.8026487"><ele>200.0</ele><time>2026-04-26T12:59:53.839Z</time></trkpt><trkpt lat="45.815658" lon="11.8029092"><ele>200.33333333333334</ele><time>2026-04-26T12:59:54.849Z</time></trkpt><trkpt lat="45.8156828" lon="11.8031701"><ele>200.66666666666669</ele><time>2026-04-26T12:59:55.853Z</time></trkpt><trkpt lat="45.8157083" lon="11.8034332"><ele>201.0</ele><time>2026-04-26T12:59:56.843Z</time></trkpt><trkpt lat="45.8157335" lon="11.8036996"><ele>200.0</ele><time>2026-04-26T12:59:57.859Z</time></trkpt><trkpt lat="45.8157602" lon="11.8039683"><ele>199.0</ele><time>2026-04-26T12:59:58.855Z</time></trkpt><trkpt lat="45.815787" lon="11.8042385"><ele>198.0</ele><time>2026-04-26T12:59:59.865Z</time></trkpt><trkpt lat="45.8158137" lon="11.8045089"><ele>198.0</ele><time>2026-04-26T13:00:00.873Z</time></trkpt><trkpt lat="45.8158399" lon="11.8047746"><ele>198.0</ele><time>2026-04-26T13:00:01.856Z</time></trkpt><trkpt lat="45.8158649" lon="11.8050258"><ele>198.0</ele><time>2026-04-26T13:00:02.86Z</time></trkpt><trkpt lat="45.8158877" lon="11.8052633"><ele>198.5</ele><time>2026-04-26T13:00:03.852Z</time></trkpt><trkpt lat="45.8159084" lon="11.8054872"><ele>199.0</ele><time>2026-04-26T13:00:04.86Z</time></trkpt><trkpt lat="45.8159288" lon="11.8056992"><ele>199.5</ele><time>2026-04-26T13:00:05.844Z</time></trkpt><trkpt lat="45.8159483" lon="11.8058942"><ele>200.0</ele><time>2026-04-26T13:00:06.839Z</time></trkpt><trkpt lat="45.815962" lon="11.8060683"><ele>200.66666666666669</ele><time>2026-04-26T13:00:07.855Z</time></trkpt><trkpt lat="45.8159651" lon="11.8062174"><ele>201.33333333333334</ele><time>2026-04-26T13:00:08.849Z</time></trkpt><trkpt lat="45.8159575" lon="11.8063472"><ele>202.0</ele><time>2026-04-26T13:00:09.843Z</time></trkpt><trkpt lat="45.81594" lon="11.8064652"><ele>202.66666666666669</ele><time>2026-04-26T13:00:10.844Z</time></trkpt><trkpt lat="45.8159286" lon="11.8065707"><ele>203.33333333333334</ele><time>2026-04-26T13:00:11.86Z</time></trkpt><trkpt lat="45.8159455" lon="11.8066765"><ele>204.0</ele><time>2026-04-26T13:00:12.836Z</time></trkpt><trkpt lat="45.8159708" lon="11.806771"><ele>205.25</ele><time>2026-04-26T13:00:13.844Z</time></trkpt><trkpt lat="45.8160452" lon="11.8068645"><ele>206.5</ele><time>2026-04-26T13:00:14.842Z</time></trkpt><trkpt lat="45.8161105" lon="11.8069976"><ele>207.75</ele><time>2026-04-26T13:00:15.852Z</time></trkpt><trkpt lat="45.8161563" lon="11.8071566"><ele>209.0</ele><time>2026-04-26T13:00:16.845Z</time></trkpt><trkpt lat="45.816204" lon="11.8073198"><ele>209.0</ele><time>2026-04-26T13:00:17.849Z</time></trkpt><trkpt lat="45.8162465" lon="11.80749"><ele>209.0</ele><time>2026-04-26T13:00:18.855Z</time></trkpt><trkpt lat="45.8162875" lon="11.8076671"><ele>209.0</ele><time>2026-04-26T13:00:19.855Z</time></trkpt><trkpt lat="45.8163272" lon="11.8078583"><ele>209.0</ele><time>2026-04-26T13:00:20.852Z</time></trkpt><trkpt lat="45.8163713" lon="11.8080495"><ele>208.75</ele><time>2026-04-26T13:00:21.853Z</time></trkpt><trkpt lat="45.8164144" lon="11.8082305"><ele>208.5</ele><time>2026-04-26T13:00:22.855Z</time></trkpt><trkpt lat="45.8164526" lon="11.8083987"><ele>208.25</ele><time>2026-04-26T13:00:23.846Z</time></trkpt><trkpt lat="45.8164896" lon="11.8085527"><ele>208.0</ele><time>2026-04-26T13:00:24.868Z</time></trkpt><trkpt lat="45.816523" lon="11.8086953"><ele>208.16666666666666</ele><time>2026-04-26T13:00:25.845Z</time></trkpt><trkpt lat="45.8165571" lon="11.808826"><ele>208.33333333333331</ele><time>2026-04-26T13:00:26.863Z</time></trkpt><trkpt lat="45.8165846" lon="11.8089505"><ele>208.5</ele><time>2026-04-26T13:00:27.863Z</time></trkpt><trkpt lat="45.8166087" lon="11.8090589"><ele>208.66666666666669</ele><time>2026-04-26T13:00:28.862Z</time></trkpt><trkpt lat="45.8166285" lon="11.8091458"><ele>208.83333333333334</ele><time>2026-04-26T13:00:29.87Z</time></trkpt><trkpt lat="45.8166567" lon="11.8092807"><ele>209.0</ele><time>2026-04-26T13:00:31.866Z</time></trkpt><trkpt lat="45.8166856" lon="11.8093979"><ele>209.0</ele><time>2026-04-26T13:00:33.86Z</time></trkpt><trkpt lat="45.8167328" lon="11.8095772"><ele>209.0</ele><time>2026-04-26T13:00:35.878Z</time></trkpt><trkpt lat="45.8167586" lon="11.8096871"><ele>209.0</ele><time>2026-04-26T13:00:36.863Z</time></trkpt><trkpt lat="45.8167826" lon="11.809804"><ele>209.0</ele><time>2026-04-26T13:00:37.864Z</time></trkpt><trkpt lat="45.8168097" lon="11.8099344"><ele>209.0</ele><time>2026-04-26T13:00:38.872Z</time></trkpt><trkpt lat="45.8168412" lon="11.8100791"><ele>210.5</ele><time>2026-04-26T13:00:39.863Z</time></trkpt><trkpt lat="45.8168756" lon="11.810226"><ele>212.0</ele><time>2026-04-26T13:00:40.863Z</time></trkpt><trkpt lat="45.8169133" lon="11.8103837"><ele>213.5</ele><time>2026-04-26T13:00:41.858Z</time></trkpt><trkpt lat="45.8169526" lon="11.8105542"><ele>215.0</ele><time>2026-04-26T13:00:42.864Z</time></trkpt><trkpt lat="45.8169952" lon="11.8107352"><ele>215.0</ele><time>2026-04-26T13:00:43.855Z</time></trkpt><trkpt lat="45.8170393" lon="11.8109246"><ele>215.0</ele><time>2026-04-26T13:00:44.841Z</time></trkpt><trkpt lat="45.8170836" lon="11.811114"><ele>215.0</ele><time>2026-04-26T13:00:45.84Z</time></trkpt><trkpt lat="45.8171278" lon="11.8113059"><ele>215.0</ele><time>2026-04-26T13:00:46.839Z</time></trkpt><trkpt lat="45.817172" lon="11.8115019"><ele>215.0</ele><time>2026-04-26T13:00:47.846Z</time></trkpt><trkpt lat="45.8172165" lon="11.8117019"><ele>215.0</ele><time>2026-04-26T13:00:48.837Z</time></trkpt><trkpt lat="45.8172612" lon="11.811904"><ele>215.0</ele><time>2026-04-26T13:00:49.855Z</time></trkpt><trkpt lat="45.817306" lon="11.812111"><ele>215.0</ele><time>2026-04-26T13:00:50.848Z</time></trkpt><trkpt lat="45.8173532" lon="11.8123214"><ele>214.66666666666669</ele><time>2026-04-26T13:00:51.862Z</time></trkpt><trkpt lat="45.8174074" lon="11.8125331"><ele>214.33333333333331</ele><time>2026-04-26T13:00:52.858Z</time></trkpt><trkpt lat="45.8174581" lon="11.8127489"><ele>214.0</ele><time>2026-04-26T13:00:53.858Z</time></trkpt><trkpt lat="45.8175087" lon="11.8129684"><ele>214.0</ele><time>2026-04-26T13:00:54.85Z</time></trkpt><trkpt lat="45.8175585" lon="11.8131871"><ele>214.0</ele><time>2026-04-26T13:00:55.847Z</time></trkpt><trkpt lat="45.8176072" lon="11.8133992"><ele>214.0</ele><time>2026-04-26T13:00:56.854Z</time></trkpt><trkpt lat="45.8176578" lon="11.8136099"><ele>216.66666666666666</ele><time>2026-04-26T13:00:57.85Z</time></trkpt><trkpt lat="45.817707" lon="11.8138207"><ele>219.33333333333331</ele><time>2026-04-26T13:00:58.847Z</time></trkpt><trkpt lat="45.817754" lon="11.8140357"><ele>222.0</ele><time>2026-04-26T13:00:59.847Z</time></trkpt><trkpt lat="45.8178063" lon="11.8142467"><ele>221.66666666666669</ele><time>2026-04-26T13:01:00.852Z</time></trkpt><trkpt lat="45.8178622" lon="11.8144603"><ele>221.33333333333334</ele><time>2026-04-26T13:01:01.854Z</time></trkpt><trkpt lat="45.8179141" lon="11.8146713"><ele>221.0</ele><time>2026-04-26T13:01:02.845Z</time></trkpt><trkpt lat="45.8179595" lon="11.8148709"><ele>221.0</ele><time>2026-04-26T13:01:03.857Z</time></trkpt><trkpt lat="45.8180045" lon="11.8150634"><ele>221.0</ele><time>2026-04-26T13:01:04.85Z</time></trkpt><trkpt lat="45.8180444" lon="11.815243"><ele>221.0</ele><time>2026-04-26T13:01:05.837Z</time></trkpt><trkpt lat="45.8180815" lon="11.8154153"><ele>221.0</ele><time>2026-04-26T13:01:06.834Z</time></trkpt><trkpt lat="45.8181218" lon="11.8155862"><ele>221.0</ele><time>2026-04-26T13:01:07.848Z</time></trkpt><trkpt lat="45.8181681" lon="11.8157609"><ele>221.0</ele><time>2026-04-26T13:01:08.847Z</time></trkpt><trkpt lat="45.8182197" lon="11.8159352"><ele>221.0</ele><time>2026-04-26T13:01:09.872Z</time></trkpt><trkpt lat="45.8182791" lon="11.8161035"><ele>221.0</ele><time>2026-04-26T13:01:10.85Z</time></trkpt><trkpt lat="45.8183417" lon="11.8162639"><ele>221.4</ele><time>2026-04-26T13:01:11.856Z</time></trkpt><trkpt lat="45.8184001" lon="11.816412"><ele>221.8</ele><time>2026-04-26T13:01:12.852Z</time></trkpt><trkpt lat="45.8184572" lon="11.816549"><ele>222.20000000000002</ele><time>2026-04-26T13:01:13.871Z</time></trkpt><trkpt lat="45.818516" lon="11.8166811"><ele>222.60000000000002</ele><time>2026-04-26T13:01:14.851Z</time></trkpt><trkpt lat="45.8185665" lon="11.8168178"><ele>223.0</ele><time>2026-04-26T13:01:15.865Z</time></trkpt><trkpt lat="45.8186222" lon="11.8169596"><ele>224.75</ele><time>2026-04-26T13:01:16.865Z</time></trkpt><trkpt lat="45.818684" lon="11.8171041"><ele>226.5</ele><time>2026-04-26T13:01:17.869Z</time></trkpt><trkpt lat="45.8187479" lon="11.8172482"><ele>228.25</ele><time>2026-04-26T13:01:18.871Z</time></trkpt><trkpt lat="45.818808" lon="11.8173976"><ele>230.0</ele><time>2026-04-26T13:01:19.862Z</time></trkpt><trkpt lat="45.8188686" lon="11.8175425"><ele>230.5</ele><time>2026-04-26T13:01:20.858Z</time></trkpt><trkpt lat="45.818931" lon="11.8176878"><ele>231.0</ele><time>2026-04-26T13:01:21.85Z</time></trkpt><trkpt lat="45.8189913" lon="11.8178347"><ele>231.5</ele><time>2026-04-26T13:01:22.846Z</time></trkpt><trkpt lat="45.8190479" lon="11.8179864"><ele>232.0</ele><time>2026-04-26T13:01:23.849Z</time></trkpt><trkpt lat="45.8191078" lon="11.8181359"><ele>232.0</ele><time>2026-04-26T13:01:24.843Z</time></trkpt><trkpt lat="45.8191703" lon="11.8182827"><ele>232.0</ele><time>2026-04-26T13:01:25.848Z</time></trkpt><trkpt lat="45.8192335" lon="11.8184319"><ele>232.0</ele><time>2026-04-26T13:01:26.839Z</time></trkpt><trkpt lat="45.8192945" lon="11.8185812"><ele>232.0</ele><time>2026-04-26T13:01:27.848Z</time></trkpt><trkpt lat="45.819356" lon="11.8187339"><ele>233.25</ele><time>2026-04-26T13:01:28.848Z</time></trkpt><trkpt lat="45.8194182" lon="11.8188857"><ele>234.5</ele><time>2026-04-26T13:01:29.874Z</time></trkpt><trkpt lat="45.8194855" lon="11.8190358"><ele>235.75</ele><time>2026-04-26T13:01:30.865Z</time></trkpt><trkpt lat="45.8195555" lon="11.819188"><ele>237.0</ele><time>2026-04-26T13:01:31.867Z</time></trkpt><trkpt lat="45.8196233" lon="11.8193472"><ele>237.75</ele><time>2026-04-26T13:01:32.876Z</time></trkpt><trkpt lat="45.8196867" lon="11.8195132"><ele>238.5</ele><time>2026-04-26T13:01:33.855Z</time></trkpt><trkpt lat="45.8197379" lon="11.8196889"><ele>239.25</ele><time>2026-04-26T13:01:34.857Z</time></trkpt><trkpt lat="45.8197796" lon="11.8198729"><ele>240.0</ele><time>2026-04-26T13:01:35.867Z</time></trkpt><trkpt lat="45.8198113" lon="11.8200625"><ele>240.75</ele><time>2026-04-26T13:01:36.87Z</time></trkpt><trkpt lat="45.8198388" lon="11.8202566"><ele>241.5</ele><time>2026-04-26T13:01:37.851Z</time></trkpt><trkpt lat="45.8198672" lon="11.8204537"><ele>242.25</ele><time>2026-04-26T13:01:38.86Z</time></trkpt><trkpt lat="45.8199003" lon="11.8206517"><ele>243.0</ele><time>2026-04-26T13:01:39.869Z</time></trkpt><trkpt lat="45.8199344" lon="11.82085"><ele>243.5</ele><time>2026-04-26T13:01:40.865Z</time></trkpt><trkpt lat="45.8199677" lon="11.821047"><ele>244.0</ele><time>2026-04-26T13:01:41.872Z</time></trkpt><trkpt lat="45.8200042" lon="11.8212378"><ele>244.5</ele><time>2026-04-26T13:01:42.862Z</time></trkpt><trkpt lat="45.8200335" lon="11.8214172"><ele>245.0</ele><time>2026-04-26T13:01:43.849Z</time></trkpt><trkpt lat="45.8200627" lon="11.8215831"><ele>245.0</ele><time>2026-04-26T13:01:44.844Z</time></trkpt><trkpt lat="45.8200935" lon="11.8217402"><ele>245.0</ele><time>2026-04-26T13:01:45.855Z</time></trkpt><trkpt lat="45.8201273" lon="11.8218988"><ele>245.0</ele><time>2026-04-26T13:01:46.846Z</time></trkpt><trkpt lat="45.8201604" lon="11.8220582"><ele>245.0</ele><time>2026-04-26T13:01:47.84Z</time></trkpt><trkpt lat="45.8201934" lon="11.8222168"><ele>246.0</ele><time>2026-04-26T13:01:48.843Z</time></trkpt><trkpt lat="45.8202282" lon="11.8223759"><ele>247.0</ele><time>2026-04-26T13:01:49.863Z</time></trkpt><trkpt lat="45.8202586" lon="11.8225537"><ele>248.0</ele><time>2026-04-26T13:01:50.847Z</time></trkpt><trkpt lat="45.8202948" lon="11.8227216"><ele>249.0</ele><time>2026-04-26T13:01:51.863Z</time></trkpt><trkpt lat="45.8203319" lon="11.8229074"><ele>249.25</ele><time>2026-04-26T13:01:52.852Z</time></trkpt><trkpt lat="45.8203679" lon="11.8230917"><ele>249.5</ele><time>2026-04-26T13:01:53.847Z</time></trkpt><trkpt lat="45.8204093" lon="11.8232779"><ele>249.75</ele><time>2026-04-26T13:01:54.852Z</time></trkpt><trkpt lat="45.8204503" lon="11.8234638"><ele>250.0</ele><time>2026-04-26T13:01:55.838Z</time></trkpt><trkpt lat="45.8204921" lon="11.8236487"><ele>250.0</ele><time>2026-04-26T13:01:56.834Z</time></trkpt><trkpt lat="45.8205366" lon="11.8238348"><ele>250.0</ele><time>2026-04-26T13:01:57.847Z</time></trkpt><trkpt lat="45.8205812" lon="11.8240209"><ele>250.0</ele><time>2026-04-26T13:01:58.863Z</time></trkpt><trkpt lat="45.8206231" lon="11.8242178"><ele>250.0</ele><time>2026-04-26T13:01:59.852Z</time></trkpt><trkpt lat="45.8206731" lon="11.8244251"><ele>249.66666666666666</ele><time>2026-04-26T13:02:00.836Z</time></trkpt><trkpt lat="45.8207293" lon="11.8246538"><ele>249.33333333333331</ele><time>2026-04-26T13:02:01.857Z</time></trkpt><trkpt lat="45.8207907" lon="11.8248957"><ele>249.0</ele><time>2026-04-26T13:02:02.872Z</time></trkpt><trkpt lat="45.82085" lon="11.8251524"><ele>250.0</ele><time>2026-04-26T13:02:03.852Z</time></trkpt><trkpt lat="45.8209056" lon="11.8254202"><ele>251.0</ele><time>2026-04-26T13:02:04.844Z</time></trkpt><trkpt lat="45.8209601" lon="11.8256957"><ele>252.0</ele><time>2026-04-26T13:02:05.848Z</time></trkpt><trkpt lat="45.8210166" lon="11.8259771"><ele>253.66666666666669</ele><time>2026-04-26T13:02:06.852Z</time></trkpt><trkpt lat="45.8210789" lon="11.8262578"><ele>255.33333333333334</ele><time>2026-04-26T13:02:07.862Z</time></trkpt><trkpt lat="45.8211459" lon="11.826531"><ele>257.0</ele><time>2026-04-26T13:02:08.842Z</time></trkpt><trkpt lat="45.8212121" lon="11.8267979"><ele>257.6666666666667</ele><time>2026-04-26T13:02:09.839Z</time></trkpt><trkpt lat="45.8212753" lon="11.8270555"><ele>258.3333333333333</ele><time>2026-04-26T13:02:10.842Z</time></trkpt><trkpt lat="45.8213389" lon="11.8273054"><ele>259.0</ele><time>2026-04-26T13:02:11.842Z</time></trkpt><trkpt lat="45.8214005" lon="11.8275475"><ele>259.3333333333333</ele><time>2026-04-26T13:02:12.842Z</time></trkpt><trkpt lat="45.8214587" lon="11.8277839"><ele>259.6666666666667</ele><time>2026-04-26T13:02:13.849Z</time></trkpt><trkpt lat="45.8215129" lon="11.8280051"><ele>260.0</ele><time>2026-04-26T13:02:14.848Z</time></trkpt><trkpt lat="45.8215656" lon="11.8282114"><ele>260.0</ele><time>2026-04-26T13:02:15.835Z</time></trkpt><trkpt lat="45.8216148" lon="11.8284041"><ele>260.0</ele><time>2026-04-26T13:02:16.851Z</time></trkpt><trkpt lat="45.8216614" lon="11.8285806"><ele>260.0</ele><time>2026-04-26T13:02:17.829Z</time></trkpt><trkpt lat="45.8217023" lon="11.8287431"><ele>260.0</ele><time>2026-04-26T13:02:18.837Z</time></trkpt><trkpt lat="45.8217334" lon="11.8288915"><ele>260.0</ele><time>2026-04-26T13:02:19.834Z</time></trkpt><trkpt lat="45.8217435" lon="11.8290301"><ele>260.0</ele><time>2026-04-26T13:02:20.846Z</time></trkpt><trkpt lat="45.8217305" lon="11.8291541"><ele>260.0</ele><time>2026-04-26T13:02:21.85Z</time></trkpt><trkpt lat="45.821691" lon="11.8292636"><ele>260.0</ele><time>2026-04-26T13:02:22.856Z</time></trkpt><trkpt lat="45.821648" lon="11.8293793"><ele>260.0</ele><time>2026-04-26T13:02:23.858Z</time></trkpt><trkpt lat="45.8216055" lon="11.8294933"><ele>260.2</ele><time>2026-04-26T13:02:24.84Z</time></trkpt><trkpt lat="45.8216135" lon="11.8296031"><ele>260.4</ele><time>2026-04-26T13:02:25.841Z</time></trkpt><trkpt lat="45.821663" lon="11.8296767"><ele>260.6</ele><time>2026-04-26T13:02:26.836Z</time></trkpt><trkpt lat="45.8217447" lon="11.8297192"><ele>260.8</ele><time>2026-04-26T13:02:27.86Z</time></trkpt><trkpt lat="45.8218449" lon="11.8297482"><ele>261.0</ele><time>2026-04-26T13:02:28.853Z</time></trkpt><trkpt lat="45.82195" lon="11.8298076"><ele>261.75</ele><time>2026-04-26T13:02:29.854Z</time></trkpt><trkpt lat="45.8220539" lon="11.8298949"><ele>262.5</ele><time>2026-04-26T13:02:30.846Z</time></trkpt><trkpt lat="45.8221464" lon="11.8300166"><ele>263.25</ele><time>2026-04-26T13:02:31.854Z</time></trkpt><trkpt lat="45.8222353" lon="11.8301643"><ele>264.0</ele><time>2026-04-26T13:02:32.862Z</time></trkpt><trkpt lat="45.8223245" lon="11.8303281"><ele>264.3333333333333</ele><time>2026-04-26T13:02:33.866Z</time></trkpt><trkpt lat="45.8224172" lon="11.8305079"><ele>264.66666666666663</ele><time>2026-04-26T13:02:34.869Z</time></trkpt><trkpt lat="45.8225141" lon="11.8306947"><ele>265.0</ele><time>2026-04-26T13:02:35.859Z</time></trkpt><trkpt lat="45.8226155" lon="11.8308815"><ele>266.66666666666663</ele><time>2026-04-26T13:02:36.859Z</time></trkpt><trkpt lat="45.8227199" lon="11.8310706"><ele>268.3333333333333</ele><time>2026-04-26T13:02:37.86Z</time></trkpt><trkpt lat="45.8228294" lon="11.8312599"><ele>270.0</ele><time>2026-04-26T13:02:38.864Z</time></trkpt><trkpt lat="45.8229446" lon="11.8314514"><ele>270.0</ele><time>2026-04-26T13:02:39.865Z</time></trkpt><trkpt lat="45.8230432" lon="11.8316504"><ele>270.0</ele><time>2026-04-26T13:02:40.866Z</time></trkpt><trkpt lat="45.8231462" lon="11.8318529"><ele>270.0</ele><time>2026-04-26T13:02:41.857Z</time></trkpt><trkpt lat="45.823255" lon="11.8320507"><ele>270.0</ele><time>2026-04-26T13:02:42.868Z</time></trkpt><trkpt lat="45.8233584" lon="11.8322478"><ele>270.0</ele><time>2026-04-26T13:02:43.884Z</time></trkpt><trkpt lat="45.8234669" lon="11.8324434"><ele>270.0</ele><time>2026-04-26T13:02:44.861Z</time></trkpt><trkpt lat="45.8235831" lon="11.8326309"><ele>271.0</ele><time>2026-04-26T13:02:45.866Z</time></trkpt><trkpt lat="45.8237038" lon="11.8328119"><ele>272.0</ele><time>2026-04-26T13:02:46.867Z</time></trkpt><trkpt lat="45.8238507" lon="11.8329674"><ele>273.0</ele><time>2026-04-26T13:02:47.868Z</time></trkpt><trkpt lat="45.8239975" lon="11.833129"><ele>273.0</ele><time>2026-04-26T13:02:48.854Z</time></trkpt><trkpt lat="45.8241482" lon="11.8332885"><ele>273.0</ele><time>2026-04-26T13:02:49.87Z</time></trkpt><trkpt lat="45.8243071" lon="11.8334509"><ele>273.0</ele><time>2026-04-26T13:02:50.852Z</time></trkpt><trkpt lat="45.8244634" lon="11.8336157"><ele>274.6666666666667</ele><time>2026-04-26T13:02:51.862Z</time></trkpt><trkpt lat="45.8246207" lon="11.8337837"><ele>276.33333333333337</ele><time>2026-04-26T13:02:52.858Z</time></trkpt><trkpt lat="45.8247791" lon="11.8339551"><ele>278.0</ele><time>2026-04-26T13:02:53.871Z</time></trkpt><trkpt lat="45.8249426" lon="11.8341243"><ele>278.0</ele><time>2026-04-26T13:02:54.862Z</time></trkpt><trkpt lat="45.8251028" lon="11.8342935"><ele>278.0</ele><time>2026-04-26T13:02:55.865Z</time></trkpt><trkpt lat="45.825262" lon="11.8344604"><ele>278.0</ele><time>2026-04-26T13:02:56.868Z</time></trkpt><trkpt lat="45.825417" lon="11.8346252"><ele>279.6666666666667</ele><time>2026-04-26T13:02:57.863Z</time></trkpt><trkpt lat="45.825568" lon="11.8347886"><ele>281.3333333333333</ele><time>2026-04-26T13:02:58.854Z</time></trkpt><trkpt lat="45.8257144" lon="11.8349462"><ele>283.0</ele><time>2026-04-26T13:02:59.856Z</time></trkpt><trkpt lat="45.8258583" lon="11.8350961"><ele>284.0</ele><time>2026-04-26T13:03:00.854Z</time></trkpt><trkpt lat="45.8259962" lon="11.835241"><ele>285.0</ele><time>2026-04-26T13:03:01.838Z</time></trkpt><trkpt lat="45.8261266" lon="11.8353803"><ele>286.0</ele><time>2026-04-26T13:03:02.849Z</time></trkpt><trkpt lat="45.826243" lon="11.8355172"><ele>286.0</ele><time>2026-04-26T13:03:03.861Z</time></trkpt><trkpt lat="45.8263492" lon="11.8356526"><ele>286.0</ele><time>2026-04-26T13:03:04.84Z</time></trkpt><trkpt lat="45.8264542" lon="11.8357756"><ele>286.0</ele><time>2026-04-26T13:03:05.848Z</time></trkpt><trkpt lat="45.826531" lon="11.8359301"><ele>286.0</ele><time>2026-04-26T13:03:06.837Z</time></trkpt><trkpt lat="45.8265864" lon="11.8361094"><ele>285.75</ele><time>2026-04-26T13:03:07.844Z</time></trkpt><trkpt lat="45.8266118" lon="11.8362989"><ele>285.5</ele><time>2026-04-26T13:03:08.846Z</time></trkpt><trkpt lat="45.8266354" lon="11.8364801"><ele>285.25</ele><time>2026-04-26T13:03:09.834Z</time></trkpt><trkpt lat="45.8266646" lon="11.8366528"><ele>285.0</ele><time>2026-04-26T13:03:10.85Z</time></trkpt><trkpt lat="45.8266911" lon="11.8368214"><ele>285.0</ele><time>2026-04-26T13:03:11.838Z</time></trkpt><trkpt lat="45.8267138" lon="11.8369759"><ele>285.0</ele><time>2026-04-26T13:03:12.854Z</time></trkpt><trkpt lat="45.8267459" lon="11.8371117"><ele>285.0</ele><time>2026-04-26T13:03:13.844Z</time></trkpt><trkpt lat="45.8267737" lon="11.8372407"><ele>285.0</ele><time>2026-04-26T13:03:14.865Z</time></trkpt><trkpt lat="45.8267932" lon="11.8373635"><ele>285.0</ele><time>2026-04-26T13:03:15.845Z</time></trkpt><trkpt lat="45.8268089" lon="11.8374664"><ele>286.1666666666667</ele><time>2026-04-26T13:03:16.866Z</time></trkpt><trkpt lat="45.8268287" lon="11.8375915"><ele>287.3333333333333</ele><time>2026-04-26T13:03:18.864Z</time></trkpt><trkpt lat="45.8268503" lon="11.8377123"><ele>288.5</ele><time>2026-04-26T13:04:05.847Z</time></trkpt><trkpt lat="45.8268767" lon="11.8378315"><ele>289.66666666666663</ele><time>2026-04-26T13:04:07.856Z</time></trkpt><trkpt lat="45.8269481" lon="11.837912"><ele>290.8333333333333</ele><time>2026-04-26T13:04:09.85Z</time></trkpt><trkpt lat="45.8270251" lon="11.8378605"><ele>292.0</ele><time>2026-04-26T13:04:10.844Z</time></trkpt><trkpt lat="45.8271245" lon="11.837789"><ele>292.0</ele><time>2026-04-26T13:04:11.843Z</time></trkpt><trkpt lat="45.8272257" lon="11.8377257"><ele>292.0</ele><time>2026-04-26T13:04:12.847Z</time></trkpt><trkpt lat="45.8273465" lon="11.8376841"><ele>292.0</ele><time>2026-04-26T13:04:13.842Z</time></trkpt><trkpt lat="45.8274501" lon="11.8376322"><ele>292.0</ele><time>2026-04-26T13:04:14.85Z</time></trkpt><trkpt lat="45.8275748" lon="11.8375714"><ele>293.0</ele><time>2026-04-26T13:04:15.857Z</time></trkpt><trkpt lat="45.8276919" lon="11.837503"><ele>294.0</ele><time>2026-04-26T13:04:16.851Z</time></trkpt><trkpt lat="45.8278094" lon="11.8374243"><ele>295.0</ele><time>2026-04-26T13:04:17.843Z</time></trkpt><trkpt lat="45.827927" lon="11.8373577"><ele>296.0</ele><time>2026-04-26T13:04:18.857Z</time></trkpt><trkpt lat="45.8280402" lon="11.8372913"><ele>296.0</ele><time>2026-04-26T13:04:19.844Z</time></trkpt><trkpt lat="45.8281578" lon="11.8372398"><ele>296.0</ele><time>2026-04-26T13:04:20.84Z</time></trkpt><trkpt lat="45.8282758" lon="11.8372051"><ele>296.0</ele><time>2026-04-26T13:04:21.855Z</time></trkpt><trkpt lat="45.8283861" lon="11.8371849"><ele>296.0</ele><time>2026-04-26T13:04:22.855Z</time></trkpt><trkpt lat="45.8284815" lon="11.8371696"><ele>297.0</ele><time>2026-04-26T13:04:23.849Z</time></trkpt><trkpt lat="45.8285726" lon="11.8371378"><ele>298.0</ele><time>2026-04-26T13:04:24.838Z</time></trkpt><trkpt lat="45.8286755" lon="11.8371178"><ele>299.0</ele><time>2026-04-26T13:04:25.826Z</time></trkpt><trkpt lat="45.828792" lon="11.8370805"><ele>300.0</ele><time>2026-04-26T13:04:26.844Z</time></trkpt><trkpt lat="45.8289126" lon="11.8370414"><ele>301.0</ele><time>2026-04-26T13:04:27.847Z</time></trkpt><trkpt lat="45.8290346" lon="11.8369892"><ele>301.0</ele><time>2026-04-26T13:04:28.86Z</time></trkpt><trkpt lat="45.8291514" lon="11.8369313"><ele>301.0</ele><time>2026-04-26T13:04:29.85Z</time></trkpt><trkpt lat="45.829268" lon="11.8368747"><ele>301.0</ele><time>2026-04-26T13:04:30.85Z</time></trkpt><trkpt lat="45.8293903" lon="11.836814"><ele>301.0</ele><time>2026-04-26T13:04:31.854Z</time></trkpt><trkpt lat="45.8295176" lon="11.8367534"><ele>302.75</ele><time>2026-04-26T13:04:32.845Z</time></trkpt><trkpt lat="45.8296429" lon="11.8366869"><ele>304.5</ele><time>2026-04-26T13:04:33.848Z</time></trkpt><trkpt lat="45.8297584" lon="11.8366364"><ele>306.25</ele><time>2026-04-26T13:04:34.851Z</time></trkpt><trkpt lat="45.8298692" lon="11.8365973"><ele>308.0</ele><time>2026-04-26T13:04:35.846Z</time></trkpt><trkpt lat="45.8299615" lon="11.8365606"><ele>308.0</ele><time>2026-04-26T13:04:36.846Z</time></trkpt><trkpt lat="45.8300356" lon="11.836522"><ele>308.0</ele><time>2026-04-26T13:04:37.853Z</time></trkpt><trkpt lat="45.8300991" lon="11.8364945"><ele>308.0</ele><time>2026-04-26T13:04:38.847Z</time></trkpt><trkpt lat="45.8301958" lon="11.8364814"><ele>308.0</ele><time>2026-04-26T13:04:40.845Z</time></trkpt><trkpt lat="45.8302372" lon="11.8366034"><ele>308.0</ele><time>2026-04-26T13:04:42.85Z</time></trkpt><trkpt lat="45.8302367" lon="11.8366963"><ele>308.0</ele><time>2026-04-26T13:04:43.848Z</time></trkpt><trkpt lat="45.8302526" lon="11.8368196"><ele>308.6666666666667</ele><time>2026-04-26T13:04:44.861Z</time></trkpt><trkpt lat="45.8302683" lon="11.8369472"><ele>309.33333333333337</ele><time>2026-04-26T13:04:45.868Z</time></trkpt><trkpt lat="45.8302832" lon="11.8370727"><ele>310.0</ele><time>2026-04-26T13:04:46.854Z</time></trkpt><trkpt lat="45.8302953" lon="11.8371932"><ele>310.6666666666667</ele><time>2026-04-26T13:04:47.862Z</time></trkpt><trkpt lat="45.8303165" lon="11.8373072"><ele>311.3333333333333</ele><time>2026-04-26T13:04:48.85Z</time></trkpt><trkpt lat="45.8303437" lon="11.8374193"><ele>312.0</ele><time>2026-04-26T13:04:49.84Z</time></trkpt><trkpt lat="45.8303586" lon="11.837527"><ele>311.0</ele><time>2026-04-26T13:04:50.848Z</time></trkpt><trkpt lat="45.8303643" lon="11.8376625"><ele>310.0</ele><time>2026-04-26T13:04:51.844Z</time></trkpt><trkpt lat="45.8303472" lon="11.8377791"><ele>309.0</ele><time>2026-04-26T13:04:52.845Z</time></trkpt><trkpt lat="45.8303074" lon="11.8378852"><ele>308.0</ele><time>2026-04-26T13:04:53.845Z</time></trkpt><trkpt lat="45.8302574" lon="11.8379698"><ele>307.0</ele><time>2026-04-26T13:04:54.851Z</time></trkpt><trkpt lat="45.8302147" lon="11.8380424"><ele>306.0</ele><time>2026-04-26T13:04:55.847Z</time></trkpt><trkpt lat="45.8301779" lon="11.838119"><ele>306.0</ele><time>2026-04-26T13:04:56.843Z</time></trkpt><trkpt lat="45.8301961" lon="11.8382386"><ele>306.0</ele><time>2026-04-26T13:04:58.849Z</time></trkpt><trkpt lat="45.8303126" lon="11.838255"><ele>306.0</ele><time>2026-04-26T13:05:01.857Z</time></trkpt><trkpt lat="45.8303765" lon="11.8382493"><ele>306.0</ele><time>2026-04-26T13:05:02.84Z</time></trkpt><trkpt lat="45.8304532" lon="11.8382699"><ele>306.0</ele><time>2026-04-26T13:05:03.845Z</time></trkpt><trkpt lat="45.8305386" lon="11.8383316"><ele>306.0</ele><time>2026-04-26T13:05:04.846Z</time></trkpt><trkpt lat="45.8306126" lon="11.8384162"><ele>305.5</ele><time>2026-04-26T13:05:05.841Z</time></trkpt><trkpt lat="45.8306915" lon="11.8385305"><ele>305.0</ele><time>2026-04-26T13:05:06.84Z</time></trkpt><trkpt lat="45.8307767" lon="11.838663"><ele>304.5</ele><time>2026-04-26T13:05:07.852Z</time></trkpt><trkpt lat="45.8308687" lon="11.8388153"><ele>304.0</ele><time>2026-04-26T13:05:08.844Z</time></trkpt><trkpt lat="45.830967" lon="11.8389796"><ele>305.66666666666663</ele><time>2026-04-26T13:05:09.846Z</time></trkpt><trkpt lat="45.8310685" lon="11.8391461"><ele>307.3333333333333</ele><time>2026-04-26T13:05:10.843Z</time></trkpt><trkpt lat="45.8311699" lon="11.8393176"><ele>309.0</ele><time>2026-04-26T13:05:11.841Z</time></trkpt><trkpt lat="45.8312751" lon="11.8394991"><ele>309.0</ele><time>2026-04-26T13:05:12.841Z</time></trkpt><trkpt lat="45.8313801" lon="11.8396922"><ele>309.0</ele><time>2026-04-26T13:05:13.853Z</time></trkpt><trkpt lat="45.8314687" lon="11.8398975"><ele>309.0</ele><time>2026-04-26T13:05:14.859Z</time></trkpt><trkpt lat="45.8315493" lon="11.8401057"><ele>308.0</ele><time>2026-04-26T13:05:15.859Z</time></trkpt><trkpt lat="45.8316222" lon="11.840318"><ele>307.0</ele><time>2026-04-26T13:05:16.845Z</time></trkpt><trkpt lat="45.8316843" lon="11.8405197"><ele>306.0</ele><time>2026-04-26T13:05:17.852Z</time></trkpt><trkpt lat="45.8317417" lon="11.8407054"><ele>306.0</ele><time>2026-04-26T13:05:18.85Z</time></trkpt><trkpt lat="45.8317962" lon="11.8408714"><ele>306.0</ele><time>2026-04-26T13:05:19.842Z</time></trkpt><trkpt lat="45.8318412" lon="11.8410185"><ele>306.0</ele><time>2026-04-26T13:05:20.878Z</time></trkpt><trkpt lat="45.8318847" lon="11.8411514"><ele>306.0</ele><time>2026-04-26T13:05:21.87Z</time></trkpt><trkpt lat="45.831924" lon="11.8412755"><ele>306.0</ele><time>2026-04-26T13:05:22.843Z</time></trkpt><trkpt lat="45.8319598" lon="11.8413947"><ele>306.40000000000003</ele><time>2026-04-26T13:05:23.865Z</time></trkpt><trkpt lat="45.8319954" lon="11.8415136"><ele>306.8</ele><time>2026-04-26T13:05:24.865Z</time></trkpt><trkpt lat="45.8320352" lon="11.8416341"><ele>307.20000000000005</ele><time>2026-04-26T13:05:25.862Z</time></trkpt><trkpt lat="45.8320836" lon="11.8417518"><ele>307.6</ele><time>2026-04-26T13:05:26.858Z</time></trkpt><trkpt lat="45.8321516" lon="11.8418531"><ele>308.0</ele><time>2026-04-26T13:05:27.857Z</time></trkpt><trkpt lat="45.8322413" lon="11.8419278"><ele>308.0</ele><time>2026-04-26T13:05:28.845Z</time></trkpt><trkpt lat="45.8323491" lon="11.8419824"><ele>308.0</ele><time>2026-04-26T13:05:29.832Z</time></trkpt><trkpt lat="45.8324657" lon="11.8420344"><ele>308.0</ele><time>2026-04-26T13:05:30.871Z</time></trkpt><trkpt lat="45.8325858" lon="11.8420861"><ele>308.0</ele><time>2026-04-26T13:05:31.849Z</time></trkpt><trkpt lat="45.8327051" lon="11.8421382"><ele>310.2</ele><time>2026-04-26T13:05:32.853Z</time></trkpt><trkpt lat="45.8328199" lon="11.8421879"><ele>312.4</ele><time>2026-04-26T13:05:33.861Z</time></trkpt><trkpt lat="45.8329254" lon="11.8422355"><ele>314.59999999999997</ele><time>2026-04-26T13:05:34.859Z</time></trkpt><trkpt lat="45.8330176" lon="11.8422736"><ele>316.8</ele><time>2026-04-26T13:05:35.862Z</time></trkpt><trkpt lat="45.8330995" lon="11.842308"><ele>319.0</ele><time>2026-04-26T13:05:36.854Z</time></trkpt><trkpt lat="45.8331748" lon="11.8423373"><ele>319.0</ele><time>2026-04-26T13:05:37.861Z</time></trkpt><trkpt lat="45.833243" lon="11.8423625"><ele>319.0</ele><time>2026-04-26T13:05:38.857Z</time></trkpt><trkpt lat="45.8333098" lon="11.842388"><ele>319.0</ele><time>2026-04-26T13:05:39.878Z</time></trkpt><trkpt lat="45.8333773" lon="11.8424156"><ele>319.0</ele><time>2026-04-26T13:05:40.863Z</time></trkpt><trkpt lat="45.8334919" lon="11.8424685"><ele>319.0</ele><time>2026-04-26T13:05:42.848Z</time></trkpt><trkpt lat="45.8336026" lon="11.8425278"><ele>319.0</ele><time>2026-04-26T13:05:44.851Z</time></trkpt><trkpt lat="45.8336856" lon="11.8426528"><ele>320.0</ele><time>2026-04-26T13:05:46.839Z</time></trkpt><trkpt lat="45.8337132" lon="11.8427988"><ele>321.0</ele><time>2026-04-26T13:05:48.839Z</time></trkpt><trkpt lat="45.8336704" lon="11.8429608"><ele>322.0</ele><time>2026-04-26T13:05:50.844Z</time></trkpt><trkpt lat="45.8336346" lon="11.8430476"><ele>323.0</ele><time>2026-04-26T13:05:51.85Z</time></trkpt><trkpt lat="45.8335943" lon="11.8431383"><ele>324.0</ele><time>2026-04-26T13:05:52.852Z</time></trkpt><trkpt lat="45.8335545" lon="11.8432494"><ele>324.0</ele><time>2026-04-26T13:05:53.844Z</time></trkpt><trkpt lat="45.8335073" lon="11.8433822"><ele>324.0</ele><time>2026-04-26T13:05:54.845Z</time></trkpt><trkpt lat="45.8334374" lon="11.8435223"><ele>324.0</ele><time>2026-04-26T13:05:55.866Z</time></trkpt><trkpt lat="45.833364" lon="11.8436887"><ele>324.0</ele><time>2026-04-26T13:05:56.841Z</time></trkpt><trkpt lat="45.8332901" lon="11.8438649"><ele>322.6666666666667</ele><time>2026-04-26T13:05:57.845Z</time></trkpt><trkpt lat="45.8332081" lon="11.844043"><ele>321.33333333333337</ele><time>2026-04-26T13:05:58.83Z</time></trkpt><trkpt lat="45.8331254" lon="11.8442381"><ele>320.0</ele><time>2026-04-26T13:05:59.844Z</time></trkpt><trkpt lat="45.8330141" lon="11.8444633"><ele>320.0</ele><time>2026-04-26T13:06:00.835Z</time></trkpt><trkpt lat="45.8328978" lon="11.8447056"><ele>320.0</ele><time>2026-04-26T13:06:01.841Z</time></trkpt><trkpt lat="45.8327926" lon="11.8449535"><ele>320.0</ele><time>2026-04-26T13:06:02.85Z</time></trkpt><trkpt lat="45.8327258" lon="11.8452006"><ele>320.6666666666667</ele><time>2026-04-26T13:06:03.836Z</time></trkpt><trkpt lat="45.8326841" lon="11.845437"><ele>321.3333333333333</ele><time>2026-04-26T13:06:04.878Z</time></trkpt><trkpt lat="45.8326763" lon="11.8456622"><ele>322.0</ele><time>2026-04-26T13:06:05.859Z</time></trkpt><trkpt lat="45.8327054" lon="11.8458673"><ele>323.0</ele><time>2026-04-26T13:06:06.854Z</time></trkpt><trkpt lat="45.8327664" lon="11.8460473"><ele>324.0</ele><time>2026-04-26T13:06:07.866Z</time></trkpt><trkpt lat="45.8328622" lon="11.8462157"><ele>325.0</ele><time>2026-04-26T13:06:08.865Z</time></trkpt><trkpt lat="45.8329759" lon="11.8463809"><ele>325.0</ele><time>2026-04-26T13:06:09.844Z</time></trkpt><trkpt lat="45.8331013" lon="11.8465517"><ele>325.0</ele><time>2026-04-26T13:06:10.841Z</time></trkpt><trkpt lat="45.8332355" lon="11.8467226"><ele>325.0</ele><time>2026-04-26T13:06:11.852Z</time></trkpt><trkpt lat="45.833375" lon="11.8469103"><ele>327.3333333333333</ele><time>2026-04-26T13:06:12.846Z</time></trkpt><trkpt lat="45.8335125" lon="11.8470958"><ele>329.6666666666667</ele><time>2026-04-26T13:06:13.868Z</time></trkpt><trkpt lat="45.8336645" lon="11.8472773"><ele>332.0</ele><time>2026-04-26T13:06:14.856Z</time></trkpt><trkpt lat="45.8338212" lon="11.8474591"><ele>332.0</ele><time>2026-04-26T13:06:15.847Z</time></trkpt><trkpt lat="45.8339852" lon="11.8476223"><ele>332.0</ele><time>2026-04-26T13:06:16.847Z</time></trkpt><trkpt lat="45.8341795" lon="11.8477668"><ele>332.0</ele><time>2026-04-26T13:06:17.846Z</time></trkpt><trkpt lat="45.8343669" lon="11.8479046"><ele>332.6666666666667</ele><time>2026-04-26T13:06:18.858Z</time></trkpt><trkpt lat="45.8345541" lon="11.8480349"><ele>333.3333333333333</ele><time>2026-04-26T13:06:19.848Z</time></trkpt><trkpt lat="45.8347318" lon="11.8481697"><ele>334.0</ele><time>2026-04-26T13:06:20.852Z</time></trkpt><trkpt lat="45.8348893" lon="11.8483159"><ele>334.3333333333333</ele><time>2026-04-26T13:06:21.862Z</time></trkpt><trkpt lat="45.8350266" lon="11.8484898"><ele>334.6666666666667</ele><time>2026-04-26T13:06:22.833Z</time></trkpt><trkpt lat="45.8351493" lon="11.8486974"><ele>335.0</ele><time>2026-04-26T13:06:23.832Z</time></trkpt><trkpt lat="45.8352487" lon="11.8489349"><ele>336.33333333333337</ele><time>2026-04-26T13:06:24.839Z</time></trkpt><trkpt lat="45.835331" lon="11.849195"><ele>337.6666666666667</ele><time>2026-04-26T13:06:25.836Z</time></trkpt><trkpt lat="45.8353922" lon="11.8494728"><ele>339.0</ele><time>2026-04-26T13:06:26.836Z</time></trkpt><trkpt lat="45.835441" lon="11.8497641"><ele>339.0</ele><time>2026-04-26T13:06:27.838Z</time></trkpt><trkpt lat="45.8354863" lon="11.8500613"><ele>339.0</ele><time>2026-04-26T13:06:28.845Z</time></trkpt><trkpt lat="45.8355369" lon="11.8503569"><ele>339.0</ele><time>2026-04-26T13:06:29.849Z</time></trkpt><trkpt lat="45.835588" lon="11.8506595"><ele>338.3333333333333</ele><time>2026-04-26T13:06:30.838Z</time></trkpt><trkpt lat="45.8356406" lon="11.8509644"><ele>337.66666666666663</ele><time>2026-04-26T13:06:31.854Z</time></trkpt><trkpt lat="45.8356878" lon="11.8512649"><ele>337.0</ele><time>2026-04-26T13:06:32.852Z</time></trkpt><trkpt lat="45.8357362" lon="11.8515631"><ele>337.0</ele><time>2026-04-26T13:06:33.845Z</time></trkpt><trkpt lat="45.8357901" lon="11.8518521"><ele>337.0</ele><time>2026-04-26T13:06:34.845Z</time></trkpt><trkpt lat="45.8358532" lon="11.852119"><ele>337.0</ele><time>2026-04-26T13:06:35.847Z</time></trkpt><trkpt lat="45.8359212" lon="11.8523778"><ele>338.3333333333333</ele><time>2026-04-26T13:06:36.837Z</time></trkpt><trkpt lat="45.835992" lon="11.8526367"><ele>339.6666666666667</ele><time>2026-04-26T13:06:37.848Z</time></trkpt><trkpt lat="45.8360673" lon="11.8528892"><ele>341.0</ele><time>2026-04-26T13:06:38.846Z</time></trkpt><trkpt lat="45.8361475" lon="11.8531321"><ele>341.0</ele><time>2026-04-26T13:06:39.848Z</time></trkpt><trkpt lat="45.836219" lon="11.8533731"><ele>341.0</ele><time>2026-04-26T13:06:40.845Z</time></trkpt><trkpt lat="45.836291" lon="11.8536038"><ele>341.0</ele><time>2026-04-26T13:06:41.844Z</time></trkpt><trkpt lat="45.8363628" lon="11.8538282"><ele>340.6666666666667</ele><time>2026-04-26T13:06:42.841Z</time></trkpt><trkpt lat="45.8364344" lon="11.8540417"><ele>340.3333333333333</ele><time>2026-04-26T13:06:43.858Z</time></trkpt><trkpt lat="45.8365" lon="11.8542459"><ele>340.0</ele><time>2026-04-26T13:06:44.862Z</time></trkpt><trkpt lat="45.8365684" lon="11.8544466"><ele>338.3333333333333</ele><time>2026-04-26T13:06:45.86Z</time></trkpt><trkpt lat="45.8366388" lon="11.8546459"><ele>336.6666666666667</ele><time>2026-04-26T13:06:46.863Z</time></trkpt><trkpt lat="45.8367097" lon="11.8548444"><ele>335.0</ele><time>2026-04-26T13:06:47.862Z</time></trkpt><trkpt lat="45.8367816" lon="11.8550772"><ele>336.0</ele><time>2026-04-26T13:06:48.856Z</time></trkpt><trkpt lat="45.8368489" lon="11.8553094"><ele>337.0</ele><time>2026-04-26T13:06:49.87Z</time></trkpt><trkpt lat="45.8369236" lon="11.8555485"><ele>338.0</ele><time>2026-04-26T13:06:50.859Z</time></trkpt><trkpt lat="45.837003" lon="11.8557818"><ele>337.0</ele><time>2026-04-26T13:06:51.854Z</time></trkpt><trkpt lat="45.8370824" lon="11.8560198"><ele>336.0</ele><time>2026-04-26T13:06:52.873Z</time></trkpt><trkpt lat="45.8371705" lon="11.8562517"><ele>335.0</ele><time>2026-04-26T13:06:53.857Z</time></trkpt><trkpt lat="45.837275" lon="11.8564737"><ele>335.0</ele><time>2026-04-26T13:06:54.87Z</time></trkpt><trkpt lat="45.8373974" lon="11.8566822"><ele>335.0</ele><time>2026-04-26T13:06:55.861Z</time></trkpt><trkpt lat="45.8375318" lon="11.8568744"><ele>335.0</ele><time>2026-04-26T13:06:56.873Z</time></trkpt><trkpt lat="45.8376782" lon="11.8570465"><ele>335.0</ele><time>2026-04-26T13:06:57.865Z</time></trkpt><trkpt lat="45.8378311" lon="11.8571925"><ele>335.0</ele><time>2026-04-26T13:06:58.861Z</time></trkpt><trkpt lat="45.8380041" lon="11.857325"><ele>335.0</ele><time>2026-04-26T13:06:59.863Z</time></trkpt><trkpt lat="45.8381867" lon="11.8574264"><ele>335.0</ele><time>2026-04-26T13:07:00.843Z</time></trkpt><trkpt lat="45.8383718" lon="11.8575275"><ele>335.0</ele><time>2026-04-26T13:07:01.85Z</time></trkpt><trkpt lat="45.8385519" lon="11.8576345"><ele>335.0</ele><time>2026-04-26T13:07:02.86Z</time></trkpt><trkpt lat="45.8387315" lon="11.8577285"><ele>335.33333333333337</ele><time>2026-04-26T13:07:03.876Z</time></trkpt><trkpt lat="45.8389164" lon="11.8578367"><ele>335.6666666666667</ele><time>2026-04-26T13:07:04.855Z</time></trkpt><trkpt lat="45.839096" lon="11.8579422"><ele>336.0</ele><time>2026-04-26T13:07:05.872Z</time></trkpt><trkpt lat="45.8392775" lon="11.8580424"><ele>336.3333333333333</ele><time>2026-04-26T13:07:06.865Z</time></trkpt><trkpt lat="45.8394596" lon="11.8581386"><ele>336.66666666666663</ele><time>2026-04-26T13:07:07.871Z</time></trkpt><trkpt lat="45.8396398" lon="11.8582377"><ele>337.0</ele><time>2026-04-26T13:07:08.871Z</time></trkpt><trkpt lat="45.8398182" lon="11.8583464"><ele>337.0</ele><time>2026-04-26T13:07:09.856Z</time></trkpt><trkpt lat="45.8399941" lon="11.8584633"><ele>337.0</ele><time>2026-04-26T13:07:10.857Z</time></trkpt><trkpt lat="45.840168" lon="11.858579"><ele>337.0</ele><time>2026-04-26T13:07:11.87Z</time></trkpt><trkpt lat="45.840346" lon="11.8586875"><ele>337.0</ele><time>2026-04-26T13:07:12.848Z</time></trkpt><trkpt lat="45.8405237" lon="11.8587835"><ele>337.0</ele><time>2026-04-26T13:07:13.862Z</time></trkpt><trkpt lat="45.8406968" lon="11.8588816"><ele>337.0</ele><time>2026-04-26T13:07:14.868Z</time></trkpt><trkpt lat="45.8408631" lon="11.8589831"><ele>337.0</ele><time>2026-04-26T13:07:15.881Z</time></trkpt><trkpt lat="45.8410239" lon="11.8590709"><ele>337.0</ele><time>2026-04-26T13:07:16.833Z</time></trkpt><trkpt lat="45.8411811" lon="11.8591395"><ele>337.0</ele><time>2026-04-26T13:07:17.865Z</time></trkpt><trkpt lat="45.8413399" lon="11.8591793"><ele>337.0</ele><time>2026-04-26T13:07:18.859Z</time></trkpt><trkpt lat="45.8415023" lon="11.8591833"><ele>337.0</ele><time>2026-04-26T13:07:19.856Z</time></trkpt><trkpt lat="45.8416584" lon="11.8591494"><ele>337.0</ele><time>2026-04-26T13:07:20.865Z</time></trkpt><trkpt lat="45.8418101" lon="11.8590994"><ele>336.0</ele><time>2026-04-26T13:07:21.83Z</time></trkpt><trkpt lat="45.8419365" lon="11.8590124"><ele>335.0</ele><time>2026-04-26T13:07:22.848Z</time></trkpt><trkpt lat="45.8420627" lon="11.8589402"><ele>334.0</ele><time>2026-04-26T13:07:23.846Z</time></trkpt><trkpt lat="45.8421964" lon="11.8589003"><ele>333.0</ele><time>2026-04-26T13:07:24.836Z</time></trkpt><trkpt lat="45.8423019" lon="11.8589099"><ele>333.0</ele><time>2026-04-26T13:07:25.854Z</time></trkpt><trkpt lat="45.8423862" lon="11.8589828"><ele>333.0</ele><time>2026-04-26T13:07:26.858Z</time></trkpt><trkpt lat="45.8424502" lon="11.8591006"><ele>333.0</ele><time>2026-04-26T13:07:27.848Z</time></trkpt><trkpt lat="45.8425093" lon="11.8592486"><ele>333.0</ele><time>2026-04-26T13:07:28.845Z</time></trkpt><trkpt lat="45.8425746" lon="11.8594052"><ele>333.0</ele><time>2026-04-26T13:07:29.844Z</time></trkpt><trkpt lat="45.8426482" lon="11.859573"><ele>334.0</ele><time>2026-04-26T13:07:30.835Z</time></trkpt><trkpt lat="45.8427272" lon="11.8597517"><ele>335.0</ele><time>2026-04-26T13:07:31.858Z</time></trkpt><trkpt lat="45.842808" lon="11.8599432"><ele>336.0</ele><time>2026-04-26T13:07:32.842Z</time></trkpt><trkpt lat="45.842886" lon="11.8601398"><ele>333.3333333333333</ele><time>2026-04-26T13:07:33.862Z</time></trkpt><trkpt lat="45.842973" lon="11.8603358"><ele>330.66666666666663</ele><time>2026-04-26T13:07:34.854Z</time></trkpt><trkpt lat="45.8430561" lon="11.8605363"><ele>328.0</ele><time>2026-04-26T13:07:35.856Z</time></trkpt><trkpt lat="45.8431352" lon="11.8607323"><ele>328.0</ele><time>2026-04-26T13:07:36.847Z</time></trkpt><trkpt lat="45.843214" lon="11.8609167"><ele>328.0</ele><time>2026-04-26T13:07:37.851Z</time></trkpt><trkpt lat="45.8433014" lon="11.8610723"><ele>328.0</ele><time>2026-04-26T13:07:38.847Z</time></trkpt><trkpt lat="45.8433972" lon="11.8611891"><ele>328.0</ele><time>2026-04-26T13:07:39.857Z</time></trkpt><trkpt lat="45.8435027" lon="11.8612665"><ele>325.2</ele><time>2026-04-26T13:07:40.853Z</time></trkpt><trkpt lat="45.8436115" lon="11.8613014"><ele>322.4</ele><time>2026-04-26T13:07:41.851Z</time></trkpt><trkpt lat="45.8437173" lon="11.8612984"><ele>319.59999999999997</ele><time>2026-04-26T13:07:42.853Z</time></trkpt><trkpt lat="45.8438133" lon="11.8612665"><ele>316.79999999999995</ele><time>2026-04-26T13:07:43.848Z</time></trkpt><trkpt lat="45.8438972" lon="11.8612128"><ele>314.0</ele><time>2026-04-26T13:07:44.853Z</time></trkpt><trkpt lat="45.8439683" lon="11.8611397"><ele>314.0</ele><time>2026-04-26T13:07:45.85Z</time></trkpt><trkpt lat="45.8440261" lon="11.8610505"><ele>314.0</ele><time>2026-04-26T13:07:46.859Z</time></trkpt><trkpt lat="45.8440692" lon="11.8609536"><ele>314.0</ele><time>2026-04-26T13:07:47.836Z</time></trkpt><trkpt lat="45.8441008" lon="11.8608445"><ele>314.0</ele><time>2026-04-26T13:07:48.849Z</time></trkpt><trkpt lat="45.8441173" lon="11.8607203"><ele>314.0</ele><time>2026-04-26T13:07:49.84Z</time></trkpt><trkpt lat="45.844113" lon="11.8605834"><ele>314.0</ele><time>2026-04-26T13:07:50.853Z</time></trkpt><trkpt lat="45.8440976" lon="11.8604456"><ele>315.1666666666667</ele><time>2026-04-26T13:07:51.845Z</time></trkpt><trkpt lat="45.8440775" lon="11.860316"><ele>316.33333333333337</ele><time>2026-04-26T13:07:52.839Z</time></trkpt><trkpt lat="45.8440575" lon="11.8601912"><ele>317.5</ele><time>2026-04-26T13:07:53.84Z</time></trkpt><trkpt lat="45.8440406" lon="11.8600711"><ele>318.6666666666667</ele><time>2026-04-26T13:07:54.846Z</time></trkpt><trkpt lat="45.8440284" lon="11.859953"><ele>319.8333333333333</ele><time>2026-04-26T13:07:55.85Z</time></trkpt><trkpt lat="45.8440327" lon="11.8598325"><ele>321.0</ele><time>2026-04-26T13:07:56.851Z</time></trkpt><trkpt lat="45.8440644" lon="11.8597095"><ele>321.4</ele><time>2026-04-26T13:07:57.848Z</time></trkpt><trkpt lat="45.8441094" lon="11.8595851"><ele>321.8</ele><time>2026-04-26T13:07:58.842Z</time></trkpt><trkpt lat="45.8441598" lon="11.8594542"><ele>322.2</ele><time>2026-04-26T13:07:59.856Z</time></trkpt><trkpt lat="45.8442085" lon="11.8593259"><ele>322.59999999999997</ele><time>2026-04-26T13:08:00.841Z</time></trkpt><trkpt lat="45.8442799" lon="11.8592303"><ele>323.0</ele><time>2026-04-26T13:08:01.838Z</time></trkpt><trkpt lat="45.8443614" lon="11.8591724"><ele>324.2</ele><time>2026-04-26T13:08:02.852Z</time></trkpt><trkpt lat="45.8444495" lon="11.8591597"><ele>325.4</ele><time>2026-04-26T13:08:03.845Z</time></trkpt><trkpt lat="45.8445346" lon="11.8591838"><ele>326.59999999999997</ele><time>2026-04-26T13:08:04.84Z</time></trkpt><trkpt lat="45.8446137" lon="11.8592318"><ele>327.79999999999995</ele><time>2026-04-26T13:08:05.843Z</time></trkpt><trkpt lat="45.8446968" lon="11.8592911"><ele>329.0</ele><time>2026-04-26T13:08:06.845Z</time></trkpt><trkpt lat="45.844785" lon="11.8593592"><ele>329.5</ele><time>2026-04-26T13:08:07.853Z</time></trkpt><trkpt lat="45.8448806" lon="11.8594358"><ele>330.0</ele><time>2026-04-26T13:08:08.856Z</time></trkpt><trkpt lat="45.8449812" lon="11.8595188"><ele>330.5</ele><time>2026-04-26T13:08:09.862Z</time></trkpt><trkpt lat="45.845083" lon="11.8596082"><ele>331.0</ele><time>2026-04-26T13:08:10.85Z</time></trkpt><trkpt lat="45.8451908" lon="11.8596991"><ele>331.0</ele><time>2026-04-26T13:08:11.853Z</time></trkpt><trkpt lat="45.8452838" lon="11.8597801"><ele>331.0</ele><time>2026-04-26T13:08:12.849Z</time></trkpt><trkpt lat="45.8453603" lon="11.8598902"><ele>331.0</ele><time>2026-04-26T13:08:13.854Z</time></trkpt><trkpt lat="45.8454089" lon="11.8600178"><ele>331.0</ele><time>2026-04-26T13:08:14.848Z</time></trkpt><trkpt lat="45.8454193" lon="11.8601558"><ele>331.0</ele><time>2026-04-26T13:08:15.845Z</time></trkpt><trkpt lat="45.8454029" lon="11.8602887"><ele>330.8</ele><time>2026-04-26T13:08:16.853Z</time></trkpt><trkpt lat="45.8453593" lon="11.8604231"><ele>330.6</ele><time>2026-04-26T13:08:17.845Z</time></trkpt><trkpt lat="45.8452974" lon="11.8605597"><ele>330.4</ele><time>2026-04-26T13:08:18.85Z</time></trkpt><trkpt lat="45.8452226" lon="11.8606904"><ele>330.2</ele><time>2026-04-26T13:08:19.847Z</time></trkpt><trkpt lat="45.8451527" lon="11.8608198"><ele>330.0</ele><time>2026-04-26T13:08:20.845Z</time></trkpt><trkpt lat="45.8450866" lon="11.8609473"><ele>325.2</ele><time>2026-04-26T13:08:21.852Z</time></trkpt><trkpt lat="45.8450232" lon="11.8610806"><ele>320.4</ele><time>2026-04-26T13:08:22.835Z</time></trkpt><trkpt lat="45.8449731" lon="11.8612179"><ele>315.6</ele><time>2026-04-26T13:08:23.837Z</time></trkpt><trkpt lat="45.844941" lon="11.8613703"><ele>310.8</ele><time>2026-04-26T13:08:24.848Z</time></trkpt><trkpt lat="45.8449227" lon="11.8615328"><ele>306.0</ele><time>2026-04-26T13:08:25.847Z</time></trkpt><trkpt lat="45.8449105" lon="11.8617019"><ele>305.5</ele><time>2026-04-26T13:08:26.85Z</time></trkpt><trkpt lat="45.8448996" lon="11.8618795"><ele>305.0</ele><time>2026-04-26T13:08:27.853Z</time></trkpt><trkpt lat="45.8448943" lon="11.8620651"><ele>304.5</ele><time>2026-04-26T13:08:28.851Z</time></trkpt><trkpt lat="45.8448953" lon="11.862256"><ele>304.0</ele><time>2026-04-26T13:08:29.843Z</time></trkpt><trkpt lat="45.8448999" lon="11.8624466"><ele>301.25</ele><time>2026-04-26T13:08:30.833Z</time></trkpt><trkpt lat="45.8449113" lon="11.8626313"><ele>298.5</ele><time>2026-04-26T13:08:31.847Z</time></trkpt><trkpt lat="45.8449249" lon="11.8628077"><ele>295.75</ele><time>2026-04-26T13:08:32.861Z</time></trkpt><trkpt lat="45.8449483" lon="11.8629882"><ele>293.0</ele><time>2026-04-26T13:08:33.862Z</time></trkpt><trkpt lat="45.8449669" lon="11.863162"><ele>293.0</ele><time>2026-04-26T13:08:34.853Z</time></trkpt><trkpt lat="45.8449926" lon="11.8633317"><ele>293.0</ele><time>2026-04-26T13:08:35.853Z</time></trkpt><trkpt lat="45.8450148" lon="11.863511"><ele>293.0</ele><time>2026-04-26T13:08:36.853Z</time></trkpt><trkpt lat="45.8450324" lon="11.8636941"><ele>293.0</ele><time>2026-04-26T13:08:37.871Z</time></trkpt><trkpt lat="45.8450529" lon="11.8638784"><ele>291.25</ele><time>2026-04-26T13:08:38.869Z</time></trkpt><trkpt lat="45.8450708" lon="11.8640501"><ele>289.5</ele><time>2026-04-26T13:08:39.873Z</time></trkpt><trkpt lat="45.8450889" lon="11.8642304"><ele>287.75</ele><time>2026-04-26T13:08:40.861Z</time></trkpt><trkpt lat="45.8451011" lon="11.8644109"><ele>286.0</ele><time>2026-04-26T13:08:41.859Z</time></trkpt><trkpt lat="45.8451212" lon="11.8645849"><ele>282.25</ele><time>2026-04-26T13:08:42.848Z</time></trkpt><trkpt lat="45.8451428" lon="11.8647623"><ele>278.5</ele><time>2026-04-26T13:08:43.848Z</time></trkpt><trkpt lat="45.8451546" lon="11.8649514"><ele>274.75</ele><time>2026-04-26T13:08:44.843Z</time></trkpt><trkpt lat="45.8451759" lon="11.8651418"><ele>271.0</ele><time>2026-04-26T13:08:45.85Z</time></trkpt><trkpt lat="45.8451992" lon="11.8653601"><ele>270.66666666666663</ele><time>2026-04-26T13:08:46.857Z</time></trkpt><trkpt lat="45.8452163" lon="11.8655733"><ele>270.3333333333333</ele><time>2026-04-26T13:08:47.836Z</time></trkpt><trkpt lat="45.8452342" lon="11.8657861"><ele>270.0</ele><time>2026-04-26T13:08:48.844Z</time></trkpt><trkpt lat="45.8452584" lon="11.8660025"><ele>270.0</ele><time>2026-04-26T13:08:49.841Z</time></trkpt><trkpt lat="45.8452758" lon="11.866217"><ele>270.0</ele><time>2026-04-26T13:08:50.85Z</time></trkpt><trkpt lat="45.8453015" lon="11.866431"><ele>270.0</ele><time>2026-04-26T13:08:51.851Z</time></trkpt><trkpt lat="45.8453367" lon="11.8666302"><ele>270.0</ele><time>2026-04-26T13:08:52.85Z</time></trkpt><trkpt lat="45.8453656" lon="11.866808"><ele>269.0</ele><time>2026-04-26T13:08:53.845Z</time></trkpt><trkpt lat="45.8454079" lon="11.8669728"><ele>268.0</ele><time>2026-04-26T13:08:54.869Z</time></trkpt><trkpt lat="45.8454714" lon="11.8671247"><ele>267.0</ele><time>2026-04-26T13:08:55.849Z</time></trkpt><trkpt lat="45.8455343" lon="11.8672622"><ele>266.0</ele><time>2026-04-26T13:08:56.852Z</time></trkpt><trkpt lat="45.8455977" lon="11.8674001"><ele>266.0</ele><time>2026-04-26T13:08:57.855Z</time></trkpt><trkpt lat="45.8456687" lon="11.8675157"><ele>266.0</ele><time>2026-04-26T13:08:58.863Z</time></trkpt><trkpt lat="45.845741" lon="11.8676315"><ele>266.0</ele><time>2026-04-26T13:08:59.863Z</time></trkpt><trkpt lat="45.8458289" lon="11.8677404"><ele>266.0</ele><time>2026-04-26T13:09:00.853Z</time></trkpt><trkpt lat="45.8459395" lon="11.8678527"><ele>265.75</ele><time>2026-04-26T13:09:01.862Z</time></trkpt><trkpt lat="45.8460536" lon="11.8679562"><ele>265.5</ele><time>2026-04-26T13:09:02.836Z</time></trkpt><trkpt lat="45.8461659" lon="11.8680533"><ele>265.25</ele><time>2026-04-26T13:09:03.847Z</time></trkpt><trkpt lat="45.8462839" lon="11.8681372"><ele>265.0</ele><time>2026-04-26T13:09:04.844Z</time></trkpt><trkpt lat="45.8463928" lon="11.8682338"><ele>265.0</ele><time>2026-04-26T13:09:05.851Z</time></trkpt><trkpt lat="45.8465055" lon="11.8683316"><ele>265.0</ele><time>2026-04-26T13:09:06.857Z</time></trkpt><trkpt lat="45.8466244" lon="11.8684296"><ele>265.0</ele><time>2026-04-26T13:09:07.849Z</time></trkpt><trkpt lat="45.8467526" lon="11.8685405"><ele>265.0</ele><time>2026-04-26T13:09:08.845Z</time></trkpt><trkpt lat="45.8468896" lon="11.8686581"><ele>264.3333333333333</ele><time>2026-04-26T13:09:09.853Z</time></trkpt><trkpt lat="45.8470292" lon="11.8687878"><ele>263.6666666666667</ele><time>2026-04-26T13:09:10.852Z</time></trkpt><trkpt lat="45.8471642" lon="11.8689186"><ele>263.0</ele><time>2026-04-26T13:09:11.857Z</time></trkpt><trkpt lat="45.8472945" lon="11.8690449"><ele>263.0</ele><time>2026-04-26T13:09:12.857Z</time></trkpt><trkpt lat="45.8474185" lon="11.8691614"><ele>263.0</ele><time>2026-04-26T13:09:13.87Z</time></trkpt><trkpt lat="45.8475395" lon="11.8692694"><ele>263.0</ele><time>2026-04-26T13:09:14.846Z</time></trkpt><trkpt lat="45.8476563" lon="11.8693737"><ele>263.0</ele><time>2026-04-26T13:09:15.847Z</time></trkpt><trkpt lat="45.8477705" lon="11.8694743"><ele>261.75</ele><time>2026-04-26T13:09:16.85Z</time></trkpt><trkpt lat="45.8478818" lon="11.8695736"><ele>260.5</ele><time>2026-04-26T13:09:17.846Z</time></trkpt><trkpt lat="45.8479999" lon="11.8696752"><ele>259.25</ele><time>2026-04-26T13:09:18.852Z</time></trkpt><trkpt lat="45.8481223" lon="11.8697796"><ele>258.0</ele><time>2026-04-26T13:09:19.849Z</time></trkpt><trkpt lat="45.8482547" lon="11.8698903"><ele>258.0</ele><time>2026-04-26T13:09:20.84Z</time></trkpt><trkpt lat="45.8484028" lon="11.8700105"><ele>258.0</ele><time>2026-04-26T13:09:21.848Z</time></trkpt><trkpt lat="45.8485606" lon="11.8701434"><ele>258.0</ele><time>2026-04-26T13:09:22.843Z</time></trkpt><trkpt lat="45.8487197" lon="11.8702871"><ele>259.6666666666667</ele><time>2026-04-26T13:09:23.849Z</time></trkpt><trkpt lat="45.8488735" lon="11.8704333"><ele>261.33333333333337</ele><time>2026-04-26T13:09:24.859Z</time></trkpt><trkpt lat="45.8490338" lon="11.8705724"><ele>263.0</ele><time>2026-04-26T13:09:25.846Z</time></trkpt><trkpt lat="45.8492072" lon="11.8707227"><ele>263.6666666666667</ele><time>2026-04-26T13:09:26.86Z</time></trkpt><trkpt lat="45.84938" lon="11.8708866"><ele>264.3333333333333</ele><time>2026-04-26T13:09:27.853Z</time></trkpt><trkpt lat="45.8495397" lon="11.8710362"><ele>265.0</ele><time>2026-04-26T13:09:28.845Z</time></trkpt><trkpt lat="45.8496883" lon="11.8711846"><ele>265.3333333333333</ele><time>2026-04-26T13:09:29.831Z</time></trkpt><trkpt lat="45.8498321" lon="11.871321"><ele>265.6666666666667</ele><time>2026-04-26T13:09:30.838Z</time></trkpt><trkpt lat="45.8499696" lon="11.8714456"><ele>266.0</ele><time>2026-04-26T13:09:31.855Z</time></trkpt><trkpt lat="45.8500973" lon="11.8715647"><ele>266.0</ele><time>2026-04-26T13:09:32.846Z</time></trkpt><trkpt lat="45.8502168" lon="11.8716652"><ele>266.0</ele><time>2026-04-26T13:09:33.863Z</time></trkpt><trkpt lat="45.8503246" lon="11.8717657"><ele>266.0</ele><time>2026-04-26T13:09:34.855Z</time></trkpt><trkpt lat="45.8504252" lon="11.8718818"><ele>266.0</ele><time>2026-04-26T13:09:35.851Z</time></trkpt><trkpt lat="45.8505237" lon="11.872009"><ele>266.0</ele><time>2026-04-26T13:09:36.857Z</time></trkpt><trkpt lat="45.8506174" lon="11.8721472"><ele>266.0</ele><time>2026-04-26T13:09:37.851Z</time></trkpt><trkpt lat="45.8507016" lon="11.8722903"><ele>266.0</ele><time>2026-04-26T13:09:38.852Z</time></trkpt><trkpt lat="45.8507791" lon="11.8724334"><ele>266.0</ele><time>2026-04-26T13:09:39.844Z</time></trkpt><trkpt lat="45.850842" lon="11.8725781"><ele>266.0</ele><time>2026-04-26T13:09:40.858Z</time></trkpt><trkpt lat="45.8509007" lon="11.8727133"><ele>266.0</ele><time>2026-04-26T13:09:41.847Z</time></trkpt><trkpt lat="45.8509597" lon="11.8728382"><ele>266.0</ele><time>2026-04-26T13:09:42.847Z</time></trkpt><trkpt lat="45.8510141" lon="11.8729564"><ele>266.0</ele><time>2026-04-26T13:09:43.844Z</time></trkpt><trkpt lat="45.8510651" lon="11.8730751"><ele>266.0</ele><time>2026-04-26T13:09:44.848Z</time></trkpt><trkpt lat="45.8511141" lon="11.8731902"><ele>266.8</ele><time>2026-04-26T13:09:45.848Z</time></trkpt><trkpt lat="45.8511561" lon="11.8732957"><ele>267.6</ele><time>2026-04-26T13:09:46.85Z</time></trkpt><trkpt lat="45.8511927" lon="11.8733908"><ele>268.4</ele><time>2026-04-26T13:09:47.854Z</time></trkpt><trkpt lat="45.8512193" lon="11.8734807"><ele>269.2</ele><time>2026-04-26T13:09:48.854Z</time></trkpt><trkpt lat="45.8512468" lon="11.8736446"><ele>270.0</ele><time>2026-04-26T13:09:50.831Z</time></trkpt><trkpt lat="45.8512428" lon="11.8738162"><ele>270.0</ele><time>2026-04-26T13:09:52.834Z</time></trkpt><trkpt lat="45.8512256" lon="11.8739037"><ele>270.0</ele><time>2026-04-26T13:09:53.847Z</time></trkpt><trkpt lat="45.8511957" lon="11.8740141"><ele>270.0</ele><time>2026-04-26T13:09:54.864Z</time></trkpt><trkpt lat="45.851157" lon="11.8741391"><ele>270.0</ele><time>2026-04-26T13:09:55.855Z</time></trkpt><trkpt lat="45.8510722" lon="11.874284"><ele>270.0</ele><time>2026-04-26T13:09:56.846Z</time></trkpt><trkpt lat="45.8509723" lon="11.8744596"><ele>267.6666666666667</ele><time>2026-04-26T13:09:57.848Z</time></trkpt><trkpt lat="45.850864" lon="11.8746295"><ele>265.33333333333337</ele><time>2026-04-26T13:09:58.861Z</time></trkpt><trkpt lat="45.8507485" lon="11.8748197"><ele>263.0</ele><time>2026-04-26T13:09:59.857Z</time></trkpt><trkpt lat="45.850621" lon="11.8750196"><ele>262.33333333333337</ele><time>2026-04-26T13:10:00.858Z</time></trkpt><trkpt lat="45.8504746" lon="11.8752062"><ele>261.6666666666667</ele><time>2026-04-26T13:10:01.847Z</time></trkpt><trkpt lat="45.8503157" lon="11.8753754"><ele>261.0</ele><time>2026-04-26T13:10:02.868Z</time></trkpt><trkpt lat="45.8501398" lon="11.8755385"><ele>260.0</ele><time>2026-04-26T13:10:03.843Z</time></trkpt><trkpt lat="45.8499607" lon="11.875698"><ele>259.0</ele><time>2026-04-26T13:10:04.837Z</time></trkpt><trkpt lat="45.8497877" lon="11.8758548"><ele>258.0</ele><time>2026-04-26T13:10:05.839Z</time></trkpt><trkpt lat="45.849604" lon="11.8760003"><ele>257.3333333333333</ele><time>2026-04-26T13:10:06.852Z</time></trkpt><trkpt lat="45.8494302" lon="11.8761338"><ele>256.66666666666663</ele><time>2026-04-26T13:10:07.859Z</time></trkpt><trkpt lat="45.8492558" lon="11.8762641"><ele>256.0</ele><time>2026-04-26T13:10:08.869Z</time></trkpt><trkpt lat="45.8490994" lon="11.8763972"><ele>254.33333333333331</ele><time>2026-04-26T13:10:09.854Z</time></trkpt><trkpt lat="45.8489469" lon="11.8765174"><ele>252.66666666666669</ele><time>2026-04-26T13:10:10.881Z</time></trkpt><trkpt lat="45.8488036" lon="11.8766405"><ele>251.0</ele><time>2026-04-26T13:10:11.859Z</time></trkpt><trkpt lat="45.8486687" lon="11.8767588"><ele>251.0</ele><time>2026-04-26T13:10:12.851Z</time></trkpt><trkpt lat="45.848536" lon="11.8768644"><ele>251.0</ele><time>2026-04-26T13:10:13.864Z</time></trkpt><trkpt lat="45.8484152" lon="11.876989"><ele>251.0</ele><time>2026-04-26T13:10:14.864Z</time></trkpt><trkpt lat="45.8483121" lon="11.8771268"><ele>251.0</ele><time>2026-04-26T13:10:15.868Z</time></trkpt><trkpt lat="45.8482245" lon="11.8772844"><ele>251.0</ele><time>2026-04-26T13:10:16.86Z</time></trkpt><trkpt lat="45.84816" lon="11.8774596"><ele>251.0</ele><time>2026-04-26T13:10:17.852Z</time></trkpt><trkpt lat="45.8481261" lon="11.8776568"><ele>251.0</ele><time>2026-04-26T13:10:18.86Z</time></trkpt><trkpt lat="45.848122" lon="11.8778779"><ele>251.0</ele><time>2026-04-26T13:10:19.834Z</time></trkpt><trkpt lat="45.8481415" lon="11.8781154"><ele>250.33333333333334</ele><time>2026-04-26T13:10:20.85Z</time></trkpt><trkpt lat="45.8481688" lon="11.8783656"><ele>249.66666666666669</ele><time>2026-04-26T13:10:21.846Z</time></trkpt><trkpt lat="45.8481962" lon="11.8786169"><ele>249.0</ele><time>2026-04-26T13:10:22.848Z</time></trkpt><trkpt lat="45.8482223" lon="11.8788682"><ele>248.0</ele><time>2026-04-26T13:10:23.848Z</time></trkpt><trkpt lat="45.8482505" lon="11.879123"><ele>247.0</ele><time>2026-04-26T13:10:24.845Z</time></trkpt><trkpt lat="45.8482785" lon="11.8793874"><ele>246.0</ele><time>2026-04-26T13:10:25.842Z</time></trkpt><trkpt lat="45.8483077" lon="11.879661"><ele>245.33333333333331</ele><time>2026-04-26T13:10:26.849Z</time></trkpt><trkpt lat="45.8483364" lon="11.879945"><ele>244.66666666666666</ele><time>2026-04-26T13:10:27.851Z</time></trkpt><trkpt lat="45.8483616" lon="11.8802352"><ele>244.0</ele><time>2026-04-26T13:10:28.839Z</time></trkpt><trkpt lat="45.8483903" lon="11.8805183"><ele>243.0</ele><time>2026-04-26T13:10:29.844Z</time></trkpt><trkpt lat="45.84842" lon="11.8807914"><ele>242.0</ele><time>2026-04-26T13:10:30.83Z</time></trkpt><trkpt lat="45.848449" lon="11.8810556"><ele>241.0</ele><time>2026-04-26T13:10:31.848Z</time></trkpt><trkpt lat="45.8484767" lon="11.8813107"><ele>240.66666666666666</ele><time>2026-04-26T13:10:32.858Z</time></trkpt><trkpt lat="45.8485027" lon="11.8815569"><ele>240.33333333333331</ele><time>2026-04-26T13:10:33.838Z</time></trkpt><trkpt lat="45.8485262" lon="11.8818003"><ele>240.0</ele><time>2026-04-26T13:10:34.838Z</time></trkpt><trkpt lat="45.8485502" lon="11.8820392"><ele>239.33333333333331</ele><time>2026-04-26T13:10:35.848Z</time></trkpt><trkpt lat="45.8485742" lon="11.8822687"><ele>238.66666666666666</ele><time>2026-04-26T13:10:36.863Z</time></trkpt><trkpt lat="45.8485997" lon="11.8824914"><ele>238.0</ele><time>2026-04-26T13:10:37.846Z</time></trkpt><trkpt lat="45.8486256" lon="11.8827078"><ele>238.0</ele><time>2026-04-26T13:10:38.843Z</time></trkpt><trkpt lat="45.8486487" lon="11.8829206"><ele>238.0</ele><time>2026-04-26T13:10:39.861Z</time></trkpt><trkpt lat="45.8486696" lon="11.8831396"><ele>238.0</ele><time>2026-04-26T13:10:40.856Z</time></trkpt><trkpt lat="45.8486893" lon="11.8833712"><ele>237.0</ele><time>2026-04-26T13:10:41.839Z</time></trkpt><trkpt lat="45.8487119" lon="11.883621"><ele>236.0</ele><time>2026-04-26T13:10:42.858Z</time></trkpt><trkpt lat="45.8487435" lon="11.883888"><ele>235.0</ele><time>2026-04-26T13:10:43.853Z</time></trkpt><trkpt lat="45.8487903" lon="11.8841657"><ele>234.66666666666666</ele><time>2026-04-26T13:10:44.842Z</time></trkpt><trkpt lat="45.8488463" lon="11.8844501"><ele>234.33333333333331</ele><time>2026-04-26T13:10:45.85Z</time></trkpt><trkpt lat="45.8489048" lon="11.8847415"><ele>234.0</ele><time>2026-04-26T13:10:46.848Z</time></trkpt><trkpt lat="45.8489652" lon="11.885039"><ele>234.0</ele><time>2026-04-26T13:10:47.854Z</time></trkpt><trkpt lat="45.8490291" lon="11.8853377"><ele>234.0</ele><time>2026-04-26T13:10:48.845Z</time></trkpt><trkpt lat="45.8490952" lon="11.8856272"><ele>234.0</ele><time>2026-04-26T13:10:49.849Z</time></trkpt><trkpt lat="45.8491612" lon="11.885903"><ele>233.66666666666669</ele><time>2026-04-26T13:10:50.852Z</time></trkpt><trkpt lat="45.8492243" lon="11.8861663"><ele>233.33333333333334</ele><time>2026-04-26T13:10:51.845Z</time></trkpt><trkpt lat="45.8492849" lon="11.8864141"><ele>233.0</ele><time>2026-04-26T13:10:52.86Z</time></trkpt><trkpt lat="45.8493403" lon="11.8866478"><ele>232.0</ele><time>2026-04-26T13:10:53.848Z</time></trkpt><trkpt lat="45.8493859" lon="11.886873"><ele>231.0</ele><time>2026-04-26T13:10:54.853Z</time></trkpt><trkpt lat="45.8494189" lon="11.8870921"><ele>230.0</ele><time>2026-04-26T13:10:55.854Z</time></trkpt><trkpt lat="45.8494366" lon="11.8873038"><ele>230.0</ele><time>2026-04-26T13:10:56.854Z</time></trkpt><trkpt lat="45.849437" lon="11.8875049"><ele>230.0</ele><time>2026-04-26T13:10:57.85Z</time></trkpt><trkpt lat="45.8494222" lon="11.8876924"><ele>230.0</ele><time>2026-04-26T13:10:58.854Z</time></trkpt><trkpt lat="45.8493972" lon="11.8878659"><ele>230.0</ele><time>2026-04-26T13:10:59.844Z</time></trkpt><trkpt lat="45.8493712" lon="11.8880191"><ele>229.6</ele><time>2026-04-26T13:11:00.839Z</time></trkpt><trkpt lat="45.8493576" lon="11.8881588"><ele>229.2</ele><time>2026-04-26T13:11:01.854Z</time></trkpt><trkpt lat="45.8493714" lon="11.8882852"><ele>228.8</ele><time>2026-04-26T13:11:02.846Z</time></trkpt><trkpt lat="45.8494192" lon="11.8883877"><ele>228.4</ele><time>2026-04-26T13:11:03.851Z</time></trkpt><trkpt lat="45.8494986" lon="11.888459"><ele>228.0</ele><time>2026-04-26T13:11:04.84Z</time></trkpt><trkpt lat="45.8495999" lon="11.8885179"><ele>227.75</ele><time>2026-04-26T13:11:05.854Z</time></trkpt><trkpt lat="45.8497093" lon="11.8885875"><ele>227.5</ele><time>2026-04-26T13:11:06.847Z</time></trkpt><trkpt lat="45.8498199" lon="11.8886674"><ele>227.25</ele><time>2026-04-26T13:11:07.856Z</time></trkpt><trkpt lat="45.8499337" lon="11.8887701"><ele>227.0</ele><time>2026-04-26T13:11:08.864Z</time></trkpt><trkpt lat="45.8500458" lon="11.8889029"><ele>227.33333333333334</ele><time>2026-04-26T13:11:09.853Z</time></trkpt><trkpt lat="45.8501499" lon="11.8890593"><ele>227.66666666666669</ele><time>2026-04-26T13:11:10.854Z</time></trkpt><trkpt lat="45.8502488" lon="11.8892309"><ele>228.0</ele><time>2026-04-26T13:11:11.85Z</time></trkpt><trkpt lat="45.85035" lon="11.8894155"><ele>227.0</ele><time>2026-04-26T13:11:12.853Z</time></trkpt><trkpt lat="45.8504539" lon="11.8896116"><ele>226.0</ele><time>2026-04-26T13:11:13.846Z</time></trkpt><trkpt lat="45.8505629" lon="11.8898156"><ele>225.0</ele><time>2026-04-26T13:11:14.831Z</time></trkpt><trkpt lat="45.8506721" lon="11.8900247"><ele>224.66666666666669</ele><time>2026-04-26T13:11:15.846Z</time></trkpt><trkpt lat="45.8507827" lon="11.8902384"><ele>224.33333333333334</ele><time>2026-04-26T13:11:16.853Z</time></trkpt><trkpt lat="45.8508941" lon="11.8904551"><ele>224.0</ele><time>2026-04-26T13:11:17.865Z</time></trkpt><trkpt lat="45.8510069" lon="11.89067"><ele>222.66666666666669</ele><time>2026-04-26T13:11:18.86Z</time></trkpt><trkpt lat="45.8511188" lon="11.8908792"><ele>221.33333333333331</ele><time>2026-04-26T13:11:19.847Z</time></trkpt><trkpt lat="45.8512264" lon="11.8910823"><ele>220.0</ele><time>2026-04-26T13:11:20.853Z</time></trkpt><trkpt lat="45.8513315" lon="11.8912795"><ele>220.0</ele><time>2026-04-26T13:11:21.862Z</time></trkpt><trkpt lat="45.8514323" lon="11.8914748"><ele>220.0</ele><time>2026-04-26T13:11:22.858Z</time></trkpt><trkpt lat="45.8515303" lon="11.8916699"><ele>220.0</ele><time>2026-04-26T13:11:23.861Z</time></trkpt><trkpt lat="45.8516245" lon="11.8918681"><ele>220.33333333333331</ele><time>2026-04-26T13:11:24.858Z</time></trkpt><trkpt lat="45.8517145" lon="11.892071"><ele>220.66666666666669</ele><time>2026-04-26T13:11:25.844Z</time></trkpt><trkpt lat="45.8518016" lon="11.8922782"><ele>221.0</ele><time>2026-04-26T13:11:26.883Z</time></trkpt><trkpt lat="45.8518853" lon="11.8924884"><ele>220.0</ele><time>2026-04-26T13:11:27.855Z</time></trkpt><trkpt lat="45.8519613" lon="11.8927044"><ele>219.0</ele><time>2026-04-26T13:11:28.844Z</time></trkpt><trkpt lat="45.8520297" lon="11.8929224"><ele>218.0</ele><time>2026-04-26T13:11:29.858Z</time></trkpt><trkpt lat="45.8520903" lon="11.8931362"><ele>218.0</ele><time>2026-04-26T13:11:30.848Z</time></trkpt><trkpt lat="45.8521419" lon="11.8933403"><ele>218.0</ele><time>2026-04-26T13:11:31.849Z</time></trkpt><trkpt lat="45.8521877" lon="11.8935316"><ele>218.0</ele><time>2026-04-26T13:11:32.85Z</time></trkpt><trkpt lat="45.8522309" lon="11.8937159"><ele>218.0</ele><time>2026-04-26T13:11:33.868Z</time></trkpt><trkpt lat="45.8522737" lon="11.8938926"><ele>218.25</ele><time>2026-04-26T13:11:34.846Z</time></trkpt><trkpt lat="45.8523165" lon="11.8940647"><ele>218.5</ele><time>2026-04-26T13:11:35.843Z</time></trkpt><trkpt lat="45.8523573" lon="11.8942298"><ele>218.75</ele><time>2026-04-26T13:11:36.849Z</time></trkpt><trkpt lat="45.8523967" lon="11.8943884"><ele>219.0</ele><time>2026-04-26T13:11:37.843Z</time></trkpt><trkpt lat="45.8524345" lon="11.8945466"><ele>219.0</ele><time>2026-04-26T13:11:38.857Z</time></trkpt><trkpt lat="45.8524727" lon="11.8947095"><ele>219.0</ele><time>2026-04-26T13:11:39.844Z</time></trkpt><trkpt lat="45.8525101" lon="11.8948773"><ele>219.0</ele><time>2026-04-26T13:11:40.845Z</time></trkpt><trkpt lat="45.8525485" lon="11.8950494"><ele>219.0</ele><time>2026-04-26T13:11:41.855Z</time></trkpt><trkpt lat="45.8525872" lon="11.8952259"><ele>218.75</ele><time>2026-04-26T13:11:42.861Z</time></trkpt><trkpt lat="45.852627" lon="11.895407"><ele>218.5</ele><time>2026-04-26T13:11:43.846Z</time></trkpt><trkpt lat="45.8526678" lon="11.8955942"><ele>218.25</ele><time>2026-04-26T13:11:44.848Z</time></trkpt><trkpt lat="45.8527102" lon="11.8957847"><ele>218.0</ele><time>2026-04-26T13:11:45.846Z</time></trkpt><trkpt lat="45.8527547" lon="11.8959794"><ele>218.0</ele><time>2026-04-26T13:11:46.848Z</time></trkpt><trkpt lat="45.8527999" lon="11.8961795"><ele>218.0</ele><time>2026-04-26T13:11:47.849Z</time></trkpt><trkpt lat="45.8528456" lon="11.8963845"><ele>218.0</ele><time>2026-04-26T13:11:48.851Z</time></trkpt><trkpt lat="45.8528933" lon="11.8965935"><ele>218.0</ele><time>2026-04-26T13:11:49.845Z</time></trkpt><trkpt lat="45.8529423" lon="11.8968065"><ele>218.0</ele><time>2026-04-26T13:11:50.854Z</time></trkpt><trkpt lat="45.8529924" lon="11.8970232"><ele>218.0</ele><time>2026-04-26T13:11:51.855Z</time></trkpt><trkpt lat="45.8530416" lon="11.8972443"><ele>218.0</ele><time>2026-04-26T13:11:52.875Z</time></trkpt><trkpt lat="45.8530878" lon="11.8974708"><ele>218.0</ele><time>2026-04-26T13:11:53.846Z</time></trkpt><trkpt lat="45.8531306" lon="11.8977029"><ele>218.0</ele><time>2026-04-26T13:11:54.846Z</time></trkpt><trkpt lat="45.8531743" lon="11.8979385"><ele>217.0</ele><time>2026-04-26T13:11:55.867Z</time></trkpt><trkpt lat="45.8532211" lon="11.8981756"><ele>216.0</ele><time>2026-04-26T13:11:56.856Z</time></trkpt><trkpt lat="45.8532731" lon="11.8984135"><ele>215.0</ele><time>2026-04-26T13:11:57.854Z</time></trkpt><trkpt lat="45.8533277" lon="11.8986535"><ele>214.66666666666669</ele><time>2026-04-26T13:11:58.854Z</time></trkpt><trkpt lat="45.8533821" lon="11.8988967"><ele>214.33333333333331</ele><time>2026-04-26T13:11:59.847Z</time></trkpt><trkpt lat="45.8534354" lon="11.8991432"><ele>214.0</ele><time>2026-04-26T13:12:00.831Z</time></trkpt><trkpt lat="45.8534859" lon="11.8993938"><ele>214.66666666666666</ele><time>2026-04-26T13:12:01.848Z</time></trkpt><trkpt lat="45.8535321" lon="11.8996488"><ele>215.33333333333331</ele><time>2026-04-26T13:12:02.851Z</time></trkpt><trkpt lat="45.8535728" lon="11.8999078"><ele>216.0</ele><time>2026-04-26T13:12:03.865Z</time></trkpt><trkpt lat="45.8536045" lon="11.9001708"><ele>216.0</ele><time>2026-04-26T13:12:04.859Z</time></trkpt><trkpt lat="45.8536263" lon="11.9004355"><ele>216.0</ele><time>2026-04-26T13:12:05.844Z</time></trkpt><trkpt lat="45.8536427" lon="11.9007008"><ele>216.0</ele><time>2026-04-26T13:12:06.851Z</time></trkpt><trkpt lat="45.8536523" lon="11.9009684"><ele>215.33333333333331</ele><time>2026-04-26T13:12:07.856Z</time></trkpt><trkpt lat="45.8536511" lon="11.9012338"><ele>214.66666666666666</ele><time>2026-04-26T13:12:08.854Z</time></trkpt><trkpt lat="45.853639" lon="11.9014986"><ele>214.0</ele><time>2026-04-26T13:12:09.846Z</time></trkpt><trkpt lat="45.853618" lon="11.9017644"><ele>213.66666666666666</ele><time>2026-04-26T13:12:10.854Z</time></trkpt><trkpt lat="45.8535995" lon="11.9020183"><ele>213.33333333333331</ele><time>2026-04-26T13:12:11.859Z</time></trkpt><trkpt lat="45.8535706" lon="11.9022857"><ele>213.0</ele><time>2026-04-26T13:12:12.854Z</time></trkpt><trkpt lat="45.8535452" lon="11.9025465"><ele>213.0</ele><time>2026-04-26T13:12:13.837Z</time></trkpt><trkpt lat="45.8535191" lon="11.9028059"><ele>213.0</ele><time>2026-04-26T13:12:14.852Z</time></trkpt><trkpt lat="45.8534951" lon="11.9030633"><ele>213.0</ele><time>2026-04-26T13:12:15.861Z</time></trkpt><trkpt lat="45.8534753" lon="11.9033065"><ele>212.33333333333331</ele><time>2026-04-26T13:12:16.85Z</time></trkpt><trkpt lat="45.8534584" lon="11.9035429"><ele>211.66666666666666</ele><time>2026-04-26T13:12:17.833Z</time></trkpt><trkpt lat="45.8534511" lon="11.9037751"><ele>211.0</ele><time>2026-04-26T13:12:18.857Z</time></trkpt><trkpt lat="45.8534551" lon="11.9040115"><ele>210.33333333333331</ele><time>2026-04-26T13:12:19.837Z</time></trkpt><trkpt lat="45.8534718" lon="11.9042518"><ele>209.66666666666669</ele><time>2026-04-26T13:12:20.847Z</time></trkpt><trkpt lat="45.8534934" lon="11.9044973"><ele>209.0</ele><time>2026-04-26T13:12:21.841Z</time></trkpt><trkpt lat="45.8535246" lon="11.9047468"><ele>209.0</ele><time>2026-04-26T13:12:22.86Z</time></trkpt><trkpt lat="45.8535612" lon="11.9050001"><ele>209.0</ele><time>2026-04-26T13:12:23.843Z</time></trkpt><trkpt lat="45.853599" lon="11.905254"><ele>209.0</ele><time>2026-04-26T13:12:24.846Z</time></trkpt><trkpt lat="45.8536387" lon="11.9055144"><ele>208.66666666666669</ele><time>2026-04-26T13:12:25.86Z</time></trkpt><trkpt lat="45.8536783" lon="11.9057773"><ele>208.33333333333331</ele><time>2026-04-26T13:12:26.859Z</time></trkpt><trkpt lat="45.8537174" lon="11.9060437"><ele>208.0</ele><time>2026-04-26T13:12:27.844Z</time></trkpt><trkpt lat="45.8537559" lon="11.9063125"><ele>208.0</ele><time>2026-04-26T13:12:28.846Z</time></trkpt><trkpt lat="45.8537947" lon="11.9065817"><ele>208.0</ele><time>2026-04-26T13:12:29.852Z</time></trkpt><trkpt lat="45.853834" lon="11.9068535"><ele>208.0</ele><time>2026-04-26T13:12:30.841Z</time></trkpt><trkpt lat="45.8538727" lon="11.9071253"><ele>208.0</ele><time>2026-04-26T13:12:31.847Z</time></trkpt><trkpt lat="45.8539113" lon="11.907398"><ele>208.0</ele><time>2026-04-26T13:12:32.845Z</time></trkpt><trkpt lat="45.8539444" lon="11.9076736"><ele>208.0</ele><time>2026-04-26T13:12:33.834Z</time></trkpt><trkpt lat="45.8539707" lon="11.9079495"><ele>207.66666666666666</ele><time>2026-04-26T13:12:34.849Z</time></trkpt><trkpt lat="45.8539875" lon="11.9082287"><ele>207.33333333333331</ele><time>2026-04-26T13:12:35.847Z</time></trkpt><trkpt lat="45.8539967" lon="11.9085089"><ele>207.0</ele><time>2026-04-26T13:12:36.847Z</time></trkpt><trkpt lat="45.8539975" lon="11.9087885"><ele>206.66666666666669</ele><time>2026-04-26T13:12:37.845Z</time></trkpt><trkpt lat="45.8539868" lon="11.9090683"><ele>206.33333333333334</ele><time>2026-04-26T13:12:38.845Z</time></trkpt><trkpt lat="45.8539666" lon="11.9093442"><ele>206.0</ele><time>2026-04-26T13:12:39.85Z</time></trkpt><trkpt lat="45.8539401" lon="11.9096069"><ele>205.33333333333334</ele><time>2026-04-26T13:12:40.85Z</time></trkpt><trkpt lat="45.8539104" lon="11.9098621"><ele>204.66666666666669</ele><time>2026-04-26T13:12:41.853Z</time></trkpt><trkpt lat="45.8538834" lon="11.9101162"><ele>204.0</ele><time>2026-04-26T13:12:42.853Z</time></trkpt><trkpt lat="45.8538572" lon="11.9103707"><ele>204.0</ele><time>2026-04-26T13:12:43.848Z</time></trkpt><trkpt lat="45.8538274" lon="11.910624"><ele>204.0</ele><time>2026-04-26T13:12:44.849Z</time></trkpt><trkpt lat="45.8537967" lon="11.9108767"><ele>204.0</ele><time>2026-04-26T13:12:45.857Z</time></trkpt><trkpt lat="45.8537679" lon="11.9111302"><ele>203.66666666666669</ele><time>2026-04-26T13:12:46.84Z</time></trkpt><trkpt lat="45.8537399" lon="11.9113844"><ele>203.33333333333334</ele><time>2026-04-26T13:12:47.846Z</time></trkpt><trkpt lat="45.8537114" lon="11.9116388"><ele>203.0</ele><time>2026-04-26T13:12:48.848Z</time></trkpt><trkpt lat="45.8536825" lon="11.9118974"><ele>203.0</ele><time>2026-04-26T13:12:49.851Z</time></trkpt><trkpt lat="45.8536534" lon="11.9121588"><ele>203.0</ele><time>2026-04-26T13:12:50.846Z</time></trkpt><trkpt lat="45.8536232" lon="11.9124235"><ele>203.0</ele><time>2026-04-26T13:12:51.847Z</time></trkpt><trkpt lat="45.8535929" lon="11.9126916"><ele>202.66666666666669</ele><time>2026-04-26T13:12:52.848Z</time></trkpt><trkpt lat="45.8535636" lon="11.9129626"><ele>202.33333333333331</ele><time>2026-04-26T13:12:53.845Z</time></trkpt><trkpt lat="45.8535404" lon="11.9132378"><ele>202.0</ele><time>2026-04-26T13:12:54.84Z</time></trkpt><trkpt lat="45.8535232" lon="11.9135144"><ele>202.0</ele><time>2026-04-26T13:12:55.838Z</time></trkpt><trkpt lat="45.8535157" lon="11.9137923"><ele>202.0</ele><time>2026-04-26T13:12:56.843Z</time></trkpt><trkpt lat="45.8535207" lon="11.9140748"><ele>202.0</ele><time>2026-04-26T13:12:57.845Z</time></trkpt><trkpt lat="45.8535377" lon="11.9143581"><ele>202.0</ele><time>2026-04-26T13:12:58.849Z</time></trkpt><trkpt lat="45.8535641" lon="11.9146383"><ele>202.0</ele><time>2026-04-26T13:12:59.853Z</time></trkpt><trkpt lat="45.8535999" lon="11.9149162"><ele>202.0</ele><time>2026-04-26T13:13:00.844Z</time></trkpt><trkpt lat="45.8536428" lon="11.9151924"><ele>201.33333333333331</ele><time>2026-04-26T13:13:01.861Z</time></trkpt><trkpt lat="45.8536951" lon="11.9154659"><ele>200.66666666666669</ele><time>2026-04-26T13:13:02.866Z</time></trkpt><trkpt lat="45.8537599" lon="11.9157351"><ele>200.0</ele><time>2026-04-26T13:13:03.852Z</time></trkpt><trkpt lat="45.8538333" lon="11.9160016"><ele>200.0</ele><time>2026-04-26T13:13:04.856Z</time></trkpt><trkpt lat="45.8539091" lon="11.9162683"><ele>200.0</ele><time>2026-04-26T13:13:05.868Z</time></trkpt><trkpt lat="45.8539837" lon="11.9165345"><ele>200.0</ele><time>2026-04-26T13:13:06.862Z</time></trkpt><trkpt lat="45.8540561" lon="11.916796"><ele>199.33333333333334</ele><time>2026-04-26T13:13:07.866Z</time></trkpt><trkpt lat="45.8541345" lon="11.9170349"><ele>198.66666666666669</ele><time>2026-04-26T13:13:08.865Z</time></trkpt><trkpt lat="45.8542081" lon="11.9172741"><ele>198.0</ele><time>2026-04-26T13:13:09.869Z</time></trkpt><trkpt lat="45.8542788" lon="11.9175214"><ele>198.33333333333331</ele><time>2026-04-26T13:13:10.849Z</time></trkpt><trkpt lat="45.8543511" lon="11.9177692"><ele>198.66666666666666</ele><time>2026-04-26T13:13:11.851Z</time></trkpt><trkpt lat="45.8544246" lon="11.9180207"><ele>199.0</ele><time>2026-04-26T13:13:12.845Z</time></trkpt><trkpt lat="45.8545063" lon="11.9182788"><ele>199.33333333333331</ele><time>2026-04-26T13:13:13.862Z</time></trkpt><trkpt lat="45.854588" lon="11.9185518"><ele>199.66666666666669</ele><time>2026-04-26T13:13:14.852Z</time></trkpt><trkpt lat="45.8546716" lon="11.9188433"><ele>200.0</ele><time>2026-04-26T13:13:15.861Z</time></trkpt><trkpt lat="45.8547682" lon="11.919153"><ele>199.5</ele><time>2026-04-26T13:13:16.855Z</time></trkpt><trkpt lat="45.8548726" lon="11.9194812"><ele>199.0</ele><time>2026-04-26T13:13:17.846Z</time></trkpt><trkpt lat="45.8549765" lon="11.9198193"><ele>199.5</ele><time>2026-04-26T13:13:18.84Z</time></trkpt><trkpt lat="45.8550792" lon="11.9202012"><ele>200.0</ele><time>2026-04-26T13:13:19.847Z</time></trkpt><trkpt lat="45.855177" lon="11.9205865"><ele>199.0</ele><time>2026-04-26T13:13:20.846Z</time></trkpt><trkpt lat="45.8552716" lon="11.9209615"><ele>198.0</ele><time>2026-04-26T13:13:21.853Z</time></trkpt><trkpt lat="45.8553651" lon="11.9213147"><ele>198.0</ele><time>2026-04-26T13:13:22.845Z</time></trkpt><trkpt lat="45.8554575" lon="11.9216571"><ele>198.0</ele><time>2026-04-26T13:13:23.835Z</time></trkpt><trkpt lat="45.8555501" lon="11.9219826"><ele>197.0</ele><time>2026-04-26T13:13:24.854Z</time></trkpt><trkpt lat="45.8556399" lon="11.9223008"><ele>196.0</ele><time>2026-04-26T13:13:25.856Z</time></trkpt><trkpt lat="45.8557295" lon="11.9226121"><ele>194.5</ele><time>2026-04-26T13:13:26.852Z</time></trkpt><trkpt lat="45.8558196" lon="11.9229166"><ele>193.0</ele><time>2026-04-26T13:13:27.862Z</time></trkpt><trkpt lat="45.8559048" lon="11.9232152"><ele>194.66666666666666</ele><time>2026-04-26T13:13:28.846Z</time></trkpt><trkpt lat="45.8559915" lon="11.9235067"><ele>196.33333333333331</ele><time>2026-04-26T13:13:29.835Z</time></trkpt><trkpt lat="45.8560719" lon="11.9237873"><ele>198.0</ele><time>2026-04-26T13:13:30.847Z</time></trkpt><trkpt lat="45.8561522" lon="11.9240571"><ele>196.66666666666669</ele><time>2026-04-26T13:13:31.846Z</time></trkpt><trkpt lat="45.8562271" lon="11.9243198"><ele>195.33333333333334</ele><time>2026-04-26T13:13:32.862Z</time></trkpt><trkpt lat="45.8562983" lon="11.9245751"><ele>194.0</ele><time>2026-04-26T13:13:33.846Z</time></trkpt><trkpt lat="45.8563673" lon="11.9248287"><ele>193.0</ele><time>2026-04-26T13:13:34.854Z</time></trkpt><trkpt lat="45.8564383" lon="11.9250812"><ele>192.0</ele><time>2026-04-26T13:13:35.852Z</time></trkpt><trkpt lat="45.8565088" lon="11.9253322"><ele>191.0</ele><time>2026-04-26T13:13:36.844Z</time></trkpt><trkpt lat="45.8565775" lon="11.9255765"><ele>191.0</ele><time>2026-04-26T13:13:37.854Z</time></trkpt><trkpt lat="45.8566418" lon="11.9258125"><ele>191.0</ele><time>2026-04-26T13:13:38.85Z</time></trkpt><trkpt lat="45.8567027" lon="11.9260394"><ele>191.0</ele><time>2026-04-26T13:13:39.849Z</time></trkpt><trkpt lat="45.8567625" lon="11.926262"><ele>191.66666666666666</ele><time>2026-04-26T13:13:40.844Z</time></trkpt><trkpt lat="45.8568205" lon="11.926487"><ele>192.33333333333331</ele><time>2026-04-26T13:13:41.874Z</time></trkpt><trkpt lat="45.8568759" lon="11.9267126"><ele>193.0</ele><time>2026-04-26T13:13:42.842Z</time></trkpt><trkpt lat="45.8569273" lon="11.9269341"><ele>193.33333333333331</ele><time>2026-04-26T13:13:43.853Z</time></trkpt><trkpt lat="45.8569798" lon="11.9271516"><ele>193.66666666666669</ele><time>2026-04-26T13:13:44.864Z</time></trkpt><trkpt lat="45.8570348" lon="11.9273639"><ele>194.0</ele><time>2026-04-26T13:13:45.871Z</time></trkpt><trkpt lat="45.8570875" lon="11.927575"><ele>195.0</ele><time>2026-04-26T13:13:46.85Z</time></trkpt><trkpt lat="45.8571391" lon="11.9277805"><ele>196.0</ele><time>2026-04-26T13:13:47.861Z</time></trkpt><trkpt lat="45.8571877" lon="11.9279844"><ele>197.0</ele><time>2026-04-26T13:13:48.876Z</time></trkpt><trkpt lat="45.857237" lon="11.9281927"><ele>195.66666666666669</ele><time>2026-04-26T13:13:49.848Z</time></trkpt><trkpt lat="45.8572875" lon="11.9284009"><ele>194.33333333333331</ele><time>2026-04-26T13:13:50.855Z</time></trkpt><trkpt lat="45.8573406" lon="11.9286102"><ele>193.0</ele><time>2026-04-26T13:13:51.878Z</time></trkpt><trkpt lat="45.8573949" lon="11.9288231"><ele>193.0</ele><time>2026-04-26T13:13:52.864Z</time></trkpt><trkpt lat="45.8574497" lon="11.9290383"><ele>193.0</ele><time>2026-04-26T13:13:53.875Z</time></trkpt><trkpt lat="45.8575039" lon="11.929257"><ele>193.0</ele><time>2026-04-26T13:13:54.871Z</time></trkpt><trkpt lat="45.8575577" lon="11.9294787"><ele>192.0</ele><time>2026-04-26T13:13:55.877Z</time></trkpt><trkpt lat="45.8576146" lon="11.9297015"><ele>191.0</ele><time>2026-04-26T13:13:56.849Z</time></trkpt><trkpt lat="45.8576711" lon="11.9299258"><ele>190.0</ele><time>2026-04-26T13:13:57.88Z</time></trkpt><trkpt lat="45.8577263" lon="11.9301538"><ele>190.0</ele><time>2026-04-26T13:13:58.877Z</time></trkpt><trkpt lat="45.8577822" lon="11.9303826"><ele>190.0</ele><time>2026-04-26T13:13:59.846Z</time></trkpt><trkpt lat="45.8578368" lon="11.9306129"><ele>190.0</ele><time>2026-04-26T13:14:00.857Z</time></trkpt><trkpt lat="45.8578938" lon="11.930845"><ele>189.33333333333334</ele><time>2026-04-26T13:14:01.841Z</time></trkpt><trkpt lat="45.8579516" lon="11.9310749"><ele>188.66666666666666</ele><time>2026-04-26T13:14:02.849Z</time></trkpt><trkpt lat="45.8580072" lon="11.9312955"><ele>188.0</ele><time>2026-04-26T13:14:03.847Z</time></trkpt><trkpt lat="45.8580616" lon="11.9315076"><ele>188.0</ele><time>2026-04-26T13:14:04.844Z</time></trkpt><trkpt lat="45.858115" lon="11.9317152"><ele>188.0</ele><time>2026-04-26T13:14:05.853Z</time></trkpt><trkpt lat="45.8581692" lon="11.9319214"><ele>188.0</ele><time>2026-04-26T13:14:06.834Z</time></trkpt><trkpt lat="45.8582241" lon="11.9321296"><ele>188.0</ele><time>2026-04-26T13:14:07.866Z</time></trkpt><trkpt lat="45.8582785" lon="11.9323471"><ele>188.0</ele><time>2026-04-26T13:14:08.841Z</time></trkpt><trkpt lat="45.8583337" lon="11.9325725"><ele>188.0</ele><time>2026-04-26T13:14:09.856Z</time></trkpt><trkpt lat="45.85839" lon="11.9328041"><ele>188.0</ele><time>2026-04-26T13:14:10.857Z</time></trkpt><trkpt lat="45.8584472" lon="11.9330389"><ele>188.0</ele><time>2026-04-26T13:14:11.855Z</time></trkpt><trkpt lat="45.8585054" lon="11.9332741"><ele>188.0</ele><time>2026-04-26T13:14:12.849Z</time></trkpt><trkpt lat="45.8585624" lon="11.9335073"><ele>187.66666666666666</ele><time>2026-04-26T13:14:13.861Z</time></trkpt><trkpt lat="45.8586176" lon="11.9337387"><ele>187.33333333333334</ele><time>2026-04-26T13:14:14.862Z</time></trkpt><trkpt lat="45.8586745" lon="11.9339691"><ele>187.0</ele><time>2026-04-26T13:14:15.863Z</time></trkpt><trkpt lat="45.8587327" lon="11.9341994"><ele>187.0</ele><time>2026-04-26T13:14:16.859Z</time></trkpt><trkpt lat="45.8587904" lon="11.9344298"><ele>187.0</ele><time>2026-04-26T13:14:17.85Z</time></trkpt><trkpt lat="45.8588463" lon="11.9346604"><ele>187.0</ele><time>2026-04-26T13:14:18.863Z</time></trkpt><trkpt lat="45.8588995" lon="11.9348861"><ele>186.66666666666669</ele><time>2026-04-26T13:14:19.839Z</time></trkpt><trkpt lat="45.8589531" lon="11.9351053"><ele>186.33333333333334</ele><time>2026-04-26T13:14:20.852Z</time></trkpt><trkpt lat="45.8590064" lon="11.9353217"><ele>186.0</ele><time>2026-04-26T13:14:21.859Z</time></trkpt><trkpt lat="45.859058" lon="11.9355282"><ele>186.0</ele><time>2026-04-26T13:14:22.865Z</time></trkpt><trkpt lat="45.8591115" lon="11.9357384"><ele>186.0</ele><time>2026-04-26T13:14:23.853Z</time></trkpt><trkpt lat="45.8591672" lon="11.9359506"><ele>186.0</ele><time>2026-04-26T13:14:24.858Z</time></trkpt><trkpt lat="45.8592244" lon="11.9361689"><ele>185.66666666666666</ele><time>2026-04-26T13:14:25.852Z</time></trkpt><trkpt lat="45.8592794" lon="11.9363881"><ele>185.33333333333331</ele><time>2026-04-26T13:14:26.841Z</time></trkpt><trkpt lat="45.8593335" lon="11.9366072"><ele>185.0</ele><time>2026-04-26T13:14:27.846Z</time></trkpt><trkpt lat="45.8593925" lon="11.9368302"><ele>187.0</ele><time>2026-04-26T13:14:28.859Z</time></trkpt><trkpt lat="45.8594476" lon="11.9370572"><ele>189.0</ele><time>2026-04-26T13:14:29.83Z</time></trkpt><trkpt lat="45.8595059" lon="11.937287"><ele>191.0</ele><time>2026-04-26T13:14:30.86Z</time></trkpt><trkpt lat="45.8595656" lon="11.9375183"><ele>189.33333333333331</ele><time>2026-04-26T13:14:31.848Z</time></trkpt><trkpt lat="45.8596228" lon="11.9377519"><ele>187.66666666666666</ele><time>2026-04-26T13:14:32.843Z</time></trkpt><trkpt lat="45.8596782" lon="11.9379892"><ele>186.0</ele><time>2026-04-26T13:14:33.848Z</time></trkpt><trkpt lat="45.8597348" lon="11.9382279"><ele>185.66666666666666</ele><time>2026-04-26T13:14:34.865Z</time></trkpt><trkpt lat="45.8597929" lon="11.9384695"><ele>185.33333333333331</ele><time>2026-04-26T13:14:35.85Z</time></trkpt><trkpt lat="45.8598521" lon="11.9387132"><ele>185.0</ele><time>2026-04-26T13:14:36.862Z</time></trkpt><trkpt lat="45.8599141" lon="11.9389595"><ele>185.0</ele><time>2026-04-26T13:14:37.844Z</time></trkpt><trkpt lat="45.8599757" lon="11.9392085"><ele>185.0</ele><time>2026-04-26T13:14:38.859Z</time></trkpt><trkpt lat="45.8600388" lon="11.9394591"><ele>185.0</ele><time>2026-04-26T13:14:39.854Z</time></trkpt><trkpt lat="45.8601037" lon="11.9397115"><ele>185.66666666666666</ele><time>2026-04-26T13:14:40.85Z</time></trkpt><trkpt lat="45.8601674" lon="11.9399659"><ele>186.33333333333334</ele><time>2026-04-26T13:14:41.88Z</time></trkpt><trkpt lat="45.8602312" lon="11.9402223"><ele>187.0</ele><time>2026-04-26T13:14:42.863Z</time></trkpt><trkpt lat="45.8602927" lon="11.9404795"><ele>187.0</ele><time>2026-04-26T13:14:43.877Z</time></trkpt><trkpt lat="45.8603572" lon="11.9407379"><ele>187.0</ele><time>2026-04-26T13:14:44.848Z</time></trkpt><trkpt lat="45.8604267" lon="11.9409943"><ele>187.0</ele><time>2026-04-26T13:14:45.845Z</time></trkpt><trkpt lat="45.8604991" lon="11.9412497"><ele>186.66666666666669</ele><time>2026-04-26T13:14:46.868Z</time></trkpt><trkpt lat="45.8605737" lon="11.9415035"><ele>186.33333333333334</ele><time>2026-04-26T13:14:47.864Z</time></trkpt><trkpt lat="45.8606503" lon="11.9417533"><ele>186.0</ele><time>2026-04-26T13:14:48.861Z</time></trkpt><trkpt lat="45.8607287" lon="11.9419976"><ele>186.0</ele><time>2026-04-26T13:14:49.873Z</time></trkpt><trkpt lat="45.8608092" lon="11.9422348"><ele>186.0</ele><time>2026-04-26T13:14:50.875Z</time></trkpt><trkpt lat="45.8608923" lon="11.9424641"><ele>186.0</ele><time>2026-04-26T13:14:51.858Z</time></trkpt><trkpt lat="45.8609783" lon="11.9426883"><ele>186.33333333333334</ele><time>2026-04-26T13:14:52.873Z</time></trkpt><trkpt lat="45.8610684" lon="11.942909"><ele>186.66666666666669</ele><time>2026-04-26T13:14:53.869Z</time></trkpt><trkpt lat="45.8611613" lon="11.9431252"><ele>187.0</ele><time>2026-04-26T13:14:54.874Z</time></trkpt><trkpt lat="45.8612573" lon="11.9433403"><ele>187.0</ele><time>2026-04-26T13:14:55.857Z</time></trkpt><trkpt lat="45.8613538" lon="11.9435529"><ele>187.0</ele><time>2026-04-26T13:14:56.862Z</time></trkpt><trkpt lat="45.8614523" lon="11.9437643"><ele>187.0</ele><time>2026-04-26T13:14:57.874Z</time></trkpt><trkpt lat="45.861555" lon="11.9439741"><ele>187.0</ele><time>2026-04-26T13:14:58.859Z</time></trkpt><trkpt lat="45.8616642" lon="11.9441855"><ele>187.0</ele><time>2026-04-26T13:14:59.868Z</time></trkpt><trkpt lat="45.8617842" lon="11.9444046"><ele>187.0</ele><time>2026-04-26T13:15:00.847Z</time></trkpt><trkpt lat="45.8619156" lon="11.9446349"><ele>187.0</ele><time>2026-04-26T13:15:01.858Z</time></trkpt><trkpt lat="45.8620637" lon="11.9448736"><ele>187.0</ele><time>2026-04-26T13:15:02.85Z</time></trkpt><trkpt lat="45.8622277" lon="11.9451221"><ele>188.0</ele><time>2026-04-26T13:15:03.873Z</time></trkpt><trkpt lat="45.8623976" lon="11.9453874"><ele>189.0</ele><time>2026-04-26T13:15:04.869Z</time></trkpt><trkpt lat="45.8625726" lon="11.9456706"><ele>189.0</ele><time>2026-04-26T13:15:05.845Z</time></trkpt><trkpt lat="45.862756" lon="11.9459701"><ele>189.0</ele><time>2026-04-26T13:15:06.839Z</time></trkpt><trkpt lat="45.8629441" lon="11.9462878"><ele>189.0</ele><time>2026-04-26T13:15:07.865Z</time></trkpt><trkpt lat="45.8631352" lon="11.9466252"><ele>189.0</ele><time>2026-04-26T13:15:08.863Z</time></trkpt><trkpt lat="45.8633353" lon="11.9469624"><ele>189.0</ele><time>2026-04-26T13:15:09.869Z</time></trkpt><trkpt lat="45.8635501" lon="11.9473149"><ele>189.0</ele><time>2026-04-26T13:15:10.855Z</time></trkpt><trkpt lat="45.8637537" lon="11.9476458"><ele>189.0</ele><time>2026-04-26T13:15:11.867Z</time></trkpt><trkpt lat="45.8639483" lon="11.9479605"><ele>189.0</ele><time>2026-04-26T13:15:12.86Z</time></trkpt><trkpt lat="45.8641298" lon="11.9482599"><ele>189.5</ele><time>2026-04-26T13:15:13.871Z</time></trkpt><trkpt lat="45.8643051" lon="11.9485438"><ele>190.0</ele><time>2026-04-26T13:15:14.874Z</time></trkpt><trkpt lat="45.8644761" lon="11.9488254"><ele>190.0</ele><time>2026-04-26T13:15:15.859Z</time></trkpt><trkpt lat="45.8646423" lon="11.949099"><ele>190.0</ele><time>2026-04-26T13:15:16.879Z</time></trkpt><trkpt lat="45.864809" lon="11.9493681"><ele>190.5</ele><time>2026-04-26T13:15:17.856Z</time></trkpt><trkpt lat="45.8649742" lon="11.9496312"><ele>191.0</ele><time>2026-04-26T13:15:18.854Z</time></trkpt><trkpt lat="45.8651378" lon="11.9498946"><ele>191.5</ele><time>2026-04-26T13:15:19.849Z</time></trkpt><trkpt lat="45.8652987" lon="11.9501553"><ele>192.0</ele><time>2026-04-26T13:15:20.847Z</time></trkpt><trkpt lat="45.8654581" lon="11.9504124"><ele>192.0</ele><time>2026-04-26T13:15:21.849Z</time></trkpt><trkpt lat="45.8656162" lon="11.9506658"><ele>192.0</ele><time>2026-04-26T13:15:22.857Z</time></trkpt><trkpt lat="45.8657699" lon="11.9509137"><ele>192.0</ele><time>2026-04-26T13:15:23.851Z</time></trkpt><trkpt lat="45.8659155" lon="11.95115"><ele>192.0</ele><time>2026-04-26T13:15:24.872Z</time></trkpt><trkpt lat="45.8660534" lon="11.9513733"><ele>192.0</ele><time>2026-04-26T13:15:25.86Z</time></trkpt><trkpt lat="45.8661863" lon="11.9515824"><ele>192.0</ele><time>2026-04-26T13:15:26.862Z</time></trkpt><trkpt lat="45.8663116" lon="11.9517776"><ele>192.0</ele><time>2026-04-26T13:15:27.849Z</time></trkpt><trkpt lat="45.8664243" lon="11.9519604"><ele>192.0</ele><time>2026-04-26T13:15:28.859Z</time></trkpt><trkpt lat="45.866527" lon="11.9521283"><ele>192.0</ele><time>2026-04-26T13:15:29.859Z</time></trkpt><trkpt lat="45.8666184" lon="11.9522807"><ele>192.0</ele><time>2026-04-26T13:15:30.874Z</time></trkpt><trkpt lat="45.8666955" lon="11.9524208"><ele>192.0</ele><time>2026-04-26T13:15:31.866Z</time></trkpt><trkpt lat="45.8667612" lon="11.9525585"><ele>192.0</ele><time>2026-04-26T13:15:32.872Z</time></trkpt><trkpt lat="45.8668191" lon="11.9527004"><ele>192.25</ele><time>2026-04-26T13:15:33.871Z</time></trkpt><trkpt lat="45.8668606" lon="11.9528572"><ele>192.5</ele><time>2026-04-26T13:15:34.86Z</time></trkpt><trkpt lat="45.8668972" lon="11.9530136"><ele>192.75</ele><time>2026-04-26T13:15:35.854Z</time></trkpt><trkpt lat="45.8669523" lon="11.9531498"><ele>193.0</ele><time>2026-04-26T13:15:36.849Z</time></trkpt><trkpt lat="45.8670349" lon="11.9532597"><ele>193.0</ele><time>2026-04-26T13:15:37.875Z</time></trkpt><trkpt lat="45.8671436" lon="11.9533527"><ele>193.0</ele><time>2026-04-26T13:15:38.867Z</time></trkpt><trkpt lat="45.8672649" lon="11.9534543"><ele>193.0</ele><time>2026-04-26T13:15:39.867Z</time></trkpt><trkpt lat="45.8673876" lon="11.9535884"><ele>193.0</ele><time>2026-04-26T13:15:40.862Z</time></trkpt><trkpt lat="45.8675066" lon="11.9537495"><ele>193.0</ele><time>2026-04-26T13:15:41.87Z</time></trkpt><trkpt lat="45.8676139" lon="11.9539223"><ele>193.0</ele><time>2026-04-26T13:15:42.87Z</time></trkpt><trkpt lat="45.8677232" lon="11.9541051"><ele>193.0</ele><time>2026-04-26T13:15:43.862Z</time></trkpt><trkpt lat="45.867839" lon="11.9542987"><ele>192.66666666666666</ele><time>2026-04-26T13:15:44.853Z</time></trkpt><trkpt lat="45.8679607" lon="11.9545006"><ele>192.33333333333331</ele><time>2026-04-26T13:15:45.864Z</time></trkpt><trkpt lat="45.8680876" lon="11.95471"><ele>192.0</ele><time>2026-04-26T13:15:46.863Z</time></trkpt><trkpt lat="45.8682194" lon="11.9549246"><ele>192.33333333333331</ele><time>2026-04-26T13:15:47.866Z</time></trkpt><trkpt lat="45.8683483" lon="11.9551332"><ele>192.66666666666666</ele><time>2026-04-26T13:15:48.859Z</time></trkpt><trkpt lat="45.8684767" lon="11.9553391"><ele>193.0</ele><time>2026-04-26T13:15:49.869Z</time></trkpt><trkpt lat="45.8686033" lon="11.9555449"><ele>193.33333333333331</ele><time>2026-04-26T13:15:50.875Z</time></trkpt><trkpt lat="45.8687278" lon="11.9557519"><ele>193.66666666666669</ele><time>2026-04-26T13:15:51.849Z</time></trkpt><trkpt lat="45.8688534" lon="11.9559581"><ele>194.0</ele><time>2026-04-26T13:15:52.84Z</time></trkpt><trkpt lat="45.868981" lon="11.9561644"><ele>194.66666666666669</ele><time>2026-04-26T13:15:53.852Z</time></trkpt><trkpt lat="45.8691095" lon="11.9563717"><ele>195.33333333333331</ele><time>2026-04-26T13:15:54.857Z</time></trkpt><trkpt lat="45.8692386" lon="11.9565822"><ele>196.0</ele><time>2026-04-26T13:15:55.858Z</time></trkpt><trkpt lat="45.869366" lon="11.9567987"><ele>196.66666666666666</ele><time>2026-04-26T13:15:56.85Z</time></trkpt><trkpt lat="45.8694917" lon="11.9570218"><ele>197.33333333333331</ele><time>2026-04-26T13:15:57.854Z</time></trkpt><trkpt lat="45.8696146" lon="11.957252"><ele>198.0</ele><time>2026-04-26T13:15:58.862Z</time></trkpt><trkpt lat="45.8697364" lon="11.9574877"><ele>198.0</ele><time>2026-04-26T13:15:59.867Z</time></trkpt><trkpt lat="45.8698567" lon="11.9577305"><ele>198.0</ele><time>2026-04-26T13:16:00.842Z</time></trkpt><trkpt lat="45.8699739" lon="11.9579781"><ele>198.0</ele><time>2026-04-26T13:16:01.848Z</time></trkpt><trkpt lat="45.8700891" lon="11.958231"><ele>197.33333333333331</ele><time>2026-04-26T13:16:02.854Z</time></trkpt><trkpt lat="45.8702015" lon="11.9584901"><ele>196.66666666666666</ele><time>2026-04-26T13:16:03.848Z</time></trkpt><trkpt lat="45.8703082" lon="11.9587567"><ele>196.0</ele><time>2026-04-26T13:16:04.863Z</time></trkpt><trkpt lat="45.8704118" lon="11.9590289"><ele>196.0</ele><time>2026-04-26T13:16:05.856Z</time></trkpt><trkpt lat="45.870514" lon="11.959303"><ele>196.0</ele><time>2026-04-26T13:16:06.856Z</time></trkpt><trkpt lat="45.8706167" lon="11.9595794"><ele>196.0</ele><time>2026-04-26T13:16:07.859Z</time></trkpt><trkpt lat="45.8707198" lon="11.9598575"><ele>196.66666666666666</ele><time>2026-04-26T13:16:08.857Z</time></trkpt><trkpt lat="45.8708241" lon="11.9601381"><ele>197.33333333333331</ele><time>2026-04-26T13:16:09.853Z</time></trkpt><trkpt lat="45.8709285" lon="11.9604207"><ele>198.0</ele><time>2026-04-26T13:16:10.847Z</time></trkpt><trkpt lat="45.8710314" lon="11.9607059"><ele>195.5</ele><time>2026-04-26T13:16:11.851Z</time></trkpt><trkpt lat="45.8711355" lon="11.9609939"><ele>193.0</ele><time>2026-04-26T13:16:12.85Z</time></trkpt><trkpt lat="45.8712408" lon="11.9612837"><ele>193.0</ele><time>2026-04-26T13:16:13.855Z</time></trkpt><trkpt lat="45.8713458" lon="11.9615685"><ele>193.0</ele><time>2026-04-26T13:16:14.865Z</time></trkpt><trkpt lat="45.8714419" lon="11.9618354"><ele>193.0</ele><time>2026-04-26T13:16:15.851Z</time></trkpt><trkpt lat="45.8715338" lon="11.9620968"><ele>191.66666666666666</ele><time>2026-04-26T13:16:16.856Z</time></trkpt><trkpt lat="45.871621" lon="11.9623534"><ele>190.33333333333331</ele><time>2026-04-26T13:16:17.861Z</time></trkpt><trkpt lat="45.8717181" lon="11.962598"><ele>189.0</ele><time>2026-04-26T13:16:18.854Z</time></trkpt><trkpt lat="45.8718043" lon="11.9628316"><ele>189.0</ele><time>2026-04-26T13:16:19.857Z</time></trkpt><trkpt lat="45.8718885" lon="11.9630582"><ele>189.0</ele><time>2026-04-26T13:16:20.855Z</time></trkpt><trkpt lat="45.871969" lon="11.9632766"><ele>189.0</ele><time>2026-04-26T13:16:21.854Z</time></trkpt><trkpt lat="45.8720498" lon="11.9634926"><ele>187.66666666666666</ele><time>2026-04-26T13:16:22.851Z</time></trkpt><trkpt lat="45.8721309" lon="11.9637117"><ele>186.33333333333331</ele><time>2026-04-26T13:16:23.859Z</time></trkpt><trkpt lat="45.8722184" lon="11.9639377"><ele>185.0</ele><time>2026-04-26T13:16:24.868Z</time></trkpt><trkpt lat="45.8723135" lon="11.9641653"><ele>185.0</ele><time>2026-04-26T13:16:25.855Z</time></trkpt><trkpt lat="45.8724207" lon="11.9643912"><ele>185.0</ele><time>2026-04-26T13:16:26.857Z</time></trkpt><trkpt lat="45.8725404" lon="11.9646079"><ele>185.0</ele><time>2026-04-26T13:16:27.845Z</time></trkpt><trkpt lat="45.8726647" lon="11.9648114"><ele>184.66666666666666</ele><time>2026-04-26T13:16:28.856Z</time></trkpt><trkpt lat="45.8727907" lon="11.9650012"><ele>184.33333333333334</ele><time>2026-04-26T13:16:29.848Z</time></trkpt><trkpt lat="45.8729214" lon="11.9651743"><ele>184.0</ele><time>2026-04-26T13:16:30.852Z</time></trkpt><trkpt lat="45.8730589" lon="11.9653291"><ele>181.0</ele><time>2026-04-26T13:16:31.868Z</time></trkpt><trkpt lat="45.873201" lon="11.9654559"><ele>178.0</ele><time>2026-04-26T13:16:32.85Z</time></trkpt><trkpt lat="45.8733546" lon="11.965595"><ele>175.0</ele><time>2026-04-26T13:16:33.855Z</time></trkpt><trkpt lat="45.8735081" lon="11.9657286"><ele>174.0</ele><time>2026-04-26T13:16:34.851Z</time></trkpt><trkpt lat="45.8736591" lon="11.9658314"><ele>173.0</ele><time>2026-04-26T13:16:35.846Z</time></trkpt><trkpt lat="45.8738125" lon="11.9658975"><ele>172.0</ele><time>2026-04-26T13:16:36.853Z</time></trkpt><trkpt lat="45.8739685" lon="11.9659154"><ele>172.0</ele><time>2026-04-26T13:16:37.849Z</time></trkpt><trkpt lat="45.8741128" lon="11.9658807"><ele>172.0</ele><time>2026-04-26T13:16:38.858Z</time></trkpt><trkpt lat="45.8742452" lon="11.9658129"><ele>172.0</ele><time>2026-04-26T13:16:39.849Z</time></trkpt><trkpt lat="45.874358" lon="11.9657233"><ele>172.0</ele><time>2026-04-26T13:16:40.843Z</time></trkpt><trkpt lat="45.8744561" lon="11.9656086"><ele>172.25</ele><time>2026-04-26T13:16:41.858Z</time></trkpt><trkpt lat="45.8745353" lon="11.9654708"><ele>172.5</ele><time>2026-04-26T13:16:42.857Z</time></trkpt><trkpt lat="45.8745961" lon="11.9653145"><ele>172.75</ele><time>2026-04-26T13:16:43.877Z</time></trkpt><trkpt lat="45.8746397" lon="11.9651418"><ele>173.0</ele><time>2026-04-26T13:16:44.876Z</time></trkpt><trkpt lat="45.8746664" lon="11.9649566"><ele>173.0</ele><time>2026-04-26T13:16:45.864Z</time></trkpt><trkpt lat="45.8746937" lon="11.9647807"><ele>173.0</ele><time>2026-04-26T13:16:46.87Z</time></trkpt><trkpt lat="45.8747349" lon="11.9646229"><ele>173.0</ele><time>2026-04-26T13:16:47.87Z</time></trkpt><trkpt lat="45.8747984" lon="11.9644827"><ele>173.0</ele><time>2026-04-26T13:16:48.864Z</time></trkpt><trkpt lat="45.8748805" lon="11.9643623"><ele>173.0</ele><time>2026-04-26T13:16:49.862Z</time></trkpt><trkpt lat="45.8749721" lon="11.9642388"><ele>173.0</ele><time>2026-04-26T13:16:50.862Z</time></trkpt><trkpt lat="45.8750932" lon="11.9641576"><ele>173.0</ele><time>2026-04-26T13:16:51.855Z</time></trkpt><trkpt lat="45.8752109" lon="11.9640602"><ele>173.0</ele><time>2026-04-26T13:16:52.86Z</time></trkpt><trkpt lat="45.8753481" lon="11.9639793"><ele>174.75</ele><time>2026-04-26T13:16:53.862Z</time></trkpt><trkpt lat="45.8754725" lon="11.9639111"><ele>176.5</ele><time>2026-04-26T13:16:54.874Z</time></trkpt><trkpt lat="45.8755961" lon="11.9638286"><ele>178.25</ele><time>2026-04-26T13:16:55.877Z</time></trkpt><trkpt lat="45.8757274" lon="11.9637311"><ele>180.0</ele><time>2026-04-26T13:16:56.867Z</time></trkpt><trkpt lat="45.8758562" lon="11.9636225"><ele>177.33333333333334</ele><time>2026-04-26T13:16:57.853Z</time></trkpt><trkpt lat="45.8760048" lon="11.9635429"><ele>174.66666666666669</ele><time>2026-04-26T13:16:58.863Z</time></trkpt><trkpt lat="45.8761574" lon="11.9634756"><ele>172.0</ele><time>2026-04-26T13:16:59.866Z</time></trkpt><trkpt lat="45.8763183" lon="11.9634156"><ele>172.0</ele><time>2026-04-26T13:17:00.863Z</time></trkpt><trkpt lat="45.8764763" lon="11.9633725"><ele>172.0</ele><time>2026-04-26T13:17:01.856Z</time></trkpt><trkpt lat="45.8766344" lon="11.9633385"><ele>172.0</ele><time>2026-04-26T13:17:02.864Z</time></trkpt><trkpt lat="45.8767858" lon="11.9633141"><ele>173.75</ele><time>2026-04-26T13:17:03.886Z</time></trkpt><trkpt lat="45.8769327" lon="11.9632901"><ele>175.5</ele><time>2026-04-26T13:17:04.87Z</time></trkpt><trkpt lat="45.8770807" lon="11.963265"><ele>177.25</ele><time>2026-04-26T13:17:05.863Z</time></trkpt><trkpt lat="45.8772273" lon="11.9632369"><ele>179.0</ele><time>2026-04-26T13:17:06.864Z</time></trkpt><trkpt lat="45.8773745" lon="11.9632097"><ele>179.0</ele><time>2026-04-26T13:17:07.843Z</time></trkpt><trkpt lat="45.8775273" lon="11.9631805"><ele>179.0</ele><time>2026-04-26T13:17:08.863Z</time></trkpt><trkpt lat="45.8776864" lon="11.9631491"><ele>179.0</ele><time>2026-04-26T13:17:09.87Z</time></trkpt><trkpt lat="45.87785" lon="11.9631182"><ele>178.66666666666666</ele><time>2026-04-26T13:17:10.86Z</time></trkpt><trkpt lat="45.8780172" lon="11.9630889"><ele>178.33333333333334</ele><time>2026-04-26T13:17:11.861Z</time></trkpt><trkpt lat="45.8781772" lon="11.9630576"><ele>178.0</ele><time>2026-04-26T13:17:12.854Z</time></trkpt><trkpt lat="45.8783301" lon="11.9630243"><ele>175.5</ele><time>2026-04-26T13:17:13.87Z</time></trkpt><trkpt lat="45.8784775" lon="11.9629908"><ele>173.0</ele><time>2026-04-26T13:17:14.849Z</time></trkpt><trkpt lat="45.8786172" lon="11.9629575"><ele>170.5</ele><time>2026-04-26T13:17:15.858Z</time></trkpt><trkpt lat="45.8787521" lon="11.9629235"><ele>168.0</ele><time>2026-04-26T13:17:16.865Z</time></trkpt><trkpt lat="45.8788812" lon="11.9628866"><ele>168.0</ele><time>2026-04-26T13:17:17.852Z</time></trkpt><trkpt lat="45.8790079" lon="11.9628494"><ele>168.0</ele><time>2026-04-26T13:17:18.853Z</time></trkpt><trkpt lat="45.8791369" lon="11.9628108"><ele>168.0</ele><time>2026-04-26T13:17:19.862Z</time></trkpt><trkpt lat="45.8792616" lon="11.9627632"><ele>168.0</ele><time>2026-04-26T13:17:20.845Z</time></trkpt><trkpt lat="45.8793841" lon="11.9627013"><ele>167.5</ele><time>2026-04-26T13:17:21.866Z</time></trkpt><trkpt lat="45.8794998" lon="11.9626142"><ele>167.0</ele><time>2026-04-26T13:17:22.871Z</time></trkpt><trkpt lat="45.8796185" lon="11.962512"><ele>166.5</ele><time>2026-04-26T13:17:23.856Z</time></trkpt><trkpt lat="45.8797154" lon="11.9623737"><ele>166.0</ele><time>2026-04-26T13:17:24.863Z</time></trkpt><trkpt lat="45.8798107" lon="11.9622422"><ele>166.75</ele><time>2026-04-26T13:17:25.852Z</time></trkpt><trkpt lat="45.8799208" lon="11.9621219"><ele>167.5</ele><time>2026-04-26T13:17:26.865Z</time></trkpt><trkpt lat="45.8800136" lon="11.9619952"><ele>168.25</ele><time>2026-04-26T13:17:27.862Z</time></trkpt><trkpt lat="45.8801018" lon="11.9618854"><ele>169.0</ele><time>2026-04-26T13:17:28.839Z</time></trkpt><trkpt lat="45.8801918" lon="11.9617788"><ele>169.0</ele><time>2026-04-26T13:17:29.868Z</time></trkpt><trkpt lat="45.8802729" lon="11.9616913"><ele>169.0</ele><time>2026-04-26T13:17:30.849Z</time></trkpt><trkpt lat="45.8803471" lon="11.9616066"><ele>169.0</ele><time>2026-04-26T13:17:31.848Z</time></trkpt><trkpt lat="45.880408" lon="11.9615601"><ele>169.0</ele><time>2026-04-26T13:17:32.854Z</time></trkpt><trkpt lat="45.8805038" lon="11.9615514"><ele>169.0</ele><time>2026-04-26T13:17:34.86Z</time></trkpt><trkpt lat="45.8805702" lon="11.9616207"><ele>169.0</ele><time>2026-04-26T13:17:36.85Z</time></trkpt><trkpt lat="45.8805783" lon="11.9617648"><ele>169.0</ele><time>2026-04-26T13:18:01.85Z</time></trkpt><trkpt lat="45.8805796" lon="11.961906"><ele>169.0</ele><time>2026-04-26T13:18:03.856Z</time></trkpt><trkpt lat="45.880525" lon="11.9620385"><ele>169.0</ele><time>2026-04-26T13:18:05.856Z</time></trkpt><trkpt lat="45.8804536" lon="11.962157"><ele>169.0</ele><time>2026-04-26T13:18:07.849Z</time></trkpt><trkpt lat="45.8803842" lon="11.9622915"><ele>169.0</ele><time>2026-04-26T13:18:09.856Z</time></trkpt><trkpt lat="45.8803258" lon="11.9624406"><ele>168.0</ele><time>2026-04-26T13:18:11.837Z</time></trkpt><trkpt lat="45.8802747" lon="11.9625916"><ele>167.0</ele><time>2026-04-26T13:18:13.839Z</time></trkpt><trkpt lat="45.8802195" lon="11.9627409"><ele>166.0</ele><time>2026-04-26T13:18:15.83Z</time></trkpt><trkpt lat="45.8801743" lon="11.9628818"><ele>165.0</ele><time>2026-04-26T13:18:17.844Z</time></trkpt><trkpt lat="45.8801441" lon="11.9630042"><ele>164.0</ele><time>2026-04-26T13:18:19.86Z</time></trkpt><trkpt lat="45.8801243" lon="11.9630937"><ele>164.0</ele><time>2026-04-26T13:18:21.869Z</time></trkpt><trkpt lat="45.8801116" lon="11.9632489"><ele>164.0</ele><time>2026-04-26T13:18:26.825Z</time></trkpt><trkpt lat="45.8801387" lon="11.9633623"><ele>164.0</ele><time>2026-04-26T13:18:30.836Z</time></trkpt><trkpt lat="45.8801215" lon="11.9634706"><ele>164.0</ele><time>2026-04-26T13:18:33.838Z</time></trkpt><trkpt lat="45.8800905" lon="11.9635927"><ele>164.0</ele><time>2026-04-26T13:18:36.833Z</time></trkpt><trkpt lat="45.8800567" lon="11.9637047"><ele>164.0</ele><time>2026-04-26T13:18:39.853Z</time></trkpt><trkpt lat="45.8800542" lon="11.9638315"><ele>163.79999999999998</ele><time>2026-04-26T13:19:32.853Z</time></trkpt><trkpt lat="45.8800257" lon="11.9639259"><ele>163.6</ele><time>2026-04-26T13:19:34.857Z</time></trkpt><trkpt lat="45.8799857" lon="11.9640438"><ele>163.4</ele><time>2026-04-26T13:19:36.851Z</time></trkpt><trkpt lat="45.8799487" lon="11.964181"><ele>163.2</ele><time>2026-04-26T13:19:38.841Z</time></trkpt><trkpt lat="45.8799127" lon="11.9643217"><ele>163.0</ele><time>2026-04-26T13:19:40.839Z</time></trkpt><trkpt lat="45.8798705" lon="11.9644591"><ele>162.60000000000002</ele><time>2026-04-26T13:19:42.851Z</time></trkpt><trkpt lat="45.879831" lon="11.9645987"><ele>162.20000000000002</ele><time>2026-04-26T13:19:44.863Z</time></trkpt><trkpt lat="45.8797979" lon="11.9647334"><ele>161.8</ele><time>2026-04-26T13:19:46.832Z</time></trkpt><trkpt lat="45.8797777" lon="11.9648677"><ele>161.4</ele><time>2026-04-26T13:19:48.843Z</time></trkpt><trkpt lat="45.879756" lon="11.9650005"><ele>161.0</ele><time>2026-04-26T13:19:50.852Z</time></trkpt><trkpt lat="45.8797282" lon="11.9651169"><ele>161.0</ele><time>2026-04-26T13:19:52.836Z</time></trkpt><trkpt lat="45.8797579" lon="11.9650069"><ele>161.0</ele><time>2026-04-26T13:20:02.848Z</time></trkpt><trkpt lat="45.8797582" lon="11.9648715"><ele>161.0</ele><time>2026-04-26T13:20:04.853Z</time></trkpt><trkpt lat="45.879781" lon="11.9647112"><ele>161.0</ele><time>2026-04-26T13:20:06.851Z</time></trkpt><trkpt lat="45.8798003" lon="11.964622"><ele>161.0</ele><time>2026-04-26T13:20:07.84Z</time></trkpt><trkpt lat="45.8798235" lon="11.9645279"><ele>161.0</ele><time>2026-04-26T13:20:08.858Z</time></trkpt><trkpt lat="45.8798492" lon="11.9644331"><ele>161.0</ele><time>2026-04-26T13:20:09.857Z</time></trkpt><trkpt lat="45.8798756" lon="11.9643411"><ele>161.0</ele><time>2026-04-26T13:20:10.845Z</time></trkpt><trkpt lat="45.8799007" lon="11.9642539"><ele>161.0</ele><time>2026-04-26T13:20:11.839Z</time></trkpt><trkpt lat="45.8799404" lon="11.9640947"><ele>161.0</ele><time>2026-04-26T13:20:13.842Z</time></trkpt><trkpt lat="45.8799811" lon="11.9639431"><ele>161.0</ele><time>2026-04-26T13:20:15.848Z</time></trkpt><trkpt lat="45.8800152" lon="11.963813"><ele>160.83333333333331</ele><time>2026-04-26T13:20:17.852Z</time></trkpt><trkpt lat="45.8800421" lon="11.9636842"><ele>160.66666666666666</ele><time>2026-04-26T13:20:19.829Z</time></trkpt><trkpt lat="45.8800633" lon="11.9635579"><ele>160.5</ele><time>2026-04-26T13:20:21.843Z</time></trkpt><trkpt lat="45.8800821" lon="11.9634578"><ele>160.33333333333334</ele><time>2026-04-26T13:20:23.849Z</time></trkpt><trkpt lat="45.880107" lon="11.9633679"><ele>160.16666666666669</ele><time>2026-04-26T13:20:26.864Z</time></trkpt><trkpt lat="45.8801489" lon="11.963263"><ele>160.0</ele><time>2026-04-26T13:21:38.833Z</time></trkpt><trkpt lat="45.8801483" lon="11.963137"><ele>160.0</ele><time>2026-04-26T13:21:41.843Z</time></trkpt><trkpt lat="45.8801183" lon="11.9632309"><ele>160.0</ele><time>2026-04-26T13:21:47.844Z</time></trkpt><trkpt lat="45.8801216" lon="11.9633465"><ele>160.0</ele><time>2026-04-26T13:21:50.843Z</time></trkpt><trkpt lat="45.8801035" lon="11.9634406"><ele>160.0</ele><time>2026-04-26T13:21:52.84Z</time></trkpt><trkpt lat="45.8800797" lon="11.9635716"><ele>160.0</ele><time>2026-04-26T13:21:54.843Z</time></trkpt><trkpt lat="45.8800466" lon="11.9637338"><ele>160.0</ele><time>2026-04-26T13:21:56.841Z</time></trkpt><trkpt lat="45.8800255" lon="11.9638269"><ele>160.16666666666669</ele><time>2026-04-26T13:21:57.844Z</time></trkpt><trkpt lat="45.8800008" lon="11.963931"><ele>160.33333333333334</ele><time>2026-04-26T13:21:58.847Z</time></trkpt><trkpt lat="45.8799743" lon="11.9640342"><ele>160.5</ele><time>2026-04-26T13:21:59.835Z</time></trkpt><trkpt lat="45.8799417" lon="11.9641389"><ele>160.66666666666666</ele><time>2026-04-26T13:22:00.849Z</time></trkpt><trkpt lat="45.8799105" lon="11.9642466"><ele>160.83333333333331</ele><time>2026-04-26T13:22:01.861Z</time></trkpt><trkpt lat="45.8798806" lon="11.9643545"><ele>161.0</ele><time>2026-04-26T13:22:02.847Z</time></trkpt><trkpt lat="45.8798526" lon="11.9644548"><ele>161.0</ele><time>2026-04-26T13:22:03.86Z</time></trkpt><trkpt lat="45.8798269" lon="11.9645462"><ele>161.0</ele><time>2026-04-26T13:22:04.849Z</time></trkpt><trkpt lat="45.879804" lon="11.9646358"><ele>161.0</ele><time>2026-04-26T13:22:05.861Z</time></trkpt><trkpt lat="45.8797844" lon="11.9647254"><ele>161.0</ele><time>2026-04-26T13:22:06.845Z</time></trkpt><trkpt lat="45.8797693" lon="11.964818"><ele>161.0</ele><time>2026-04-26T13:22:07.857Z</time></trkpt><trkpt lat="45.8797587" lon="11.9649131"><ele>161.0</ele><time>2026-04-26T13:22:08.847Z</time></trkpt><trkpt lat="45.8797505" lon="11.9650062"><ele>161.0</ele><time>2026-04-26T13:22:09.86Z</time></trkpt><trkpt lat="45.8797351" lon="11.9651741"><ele>160.8</ele><time>2026-04-26T13:22:11.836Z</time></trkpt><trkpt lat="45.8797207" lon="11.9653148"><ele>160.60000000000002</ele><time>2026-04-26T13:22:13.832Z</time></trkpt><trkpt lat="45.8797046" lon="11.9654332"><ele>160.4</ele><time>2026-04-26T13:22:15.84Z</time></trkpt><trkpt lat="45.879668" lon="11.9655598"><ele>160.2</ele><time>2026-04-26T13:22:17.838Z</time></trkpt><trkpt lat="45.8796168" lon="11.9657017"><ele>160.0</ele><time>2026-04-26T13:22:19.835Z</time></trkpt><trkpt lat="45.8795806" lon="11.9658511"><ele>159.66666666666669</ele><time>2026-04-26T13:22:21.854Z</time></trkpt><trkpt lat="45.8795418" lon="11.9660012"><ele>159.33333333333334</ele><time>2026-04-26T13:22:23.85Z</time></trkpt><trkpt lat="45.8794838" lon="11.9661075"><ele>159.0</ele><time>2026-04-26T13:22:25.852Z</time></trkpt><trkpt lat="45.8794094" lon="11.966207"><ele>158.66666666666666</ele><time>2026-04-26T13:22:27.854Z</time></trkpt><trkpt lat="45.8793484" lon="11.9662501"><ele>158.33333333333331</ele><time>2026-04-26T13:22:28.842Z</time></trkpt><trkpt lat="45.8792992" lon="11.9663147"><ele>158.0</ele><time>2026-04-26T13:22:29.852Z</time></trkpt><trkpt lat="45.879252" lon="11.9663973"><ele>159.4</ele><time>2026-04-26T13:22:30.861Z</time></trkpt><trkpt lat="45.8792085" lon="11.9664807"><ele>160.8</ele><time>2026-04-26T13:22:31.839Z</time></trkpt><trkpt lat="45.879168" lon="11.9665591"><ele>162.2</ele><time>2026-04-26T13:22:32.844Z</time></trkpt><trkpt lat="45.8790956" lon="11.9666832"><ele>163.6</ele><time>2026-04-26T13:22:34.852Z</time></trkpt><trkpt lat="45.8790234" lon="11.9668072"><ele>165.0</ele><time>2026-04-26T13:22:36.851Z</time></trkpt><trkpt lat="45.8789446" lon="11.9669558"><ele>165.0</ele><time>2026-04-26T13:22:38.847Z</time></trkpt><trkpt lat="45.8788941" lon="11.9670312"><ele>165.0</ele><time>2026-04-26T13:22:39.837Z</time></trkpt><trkpt lat="45.8788388" lon="11.9671236"><ele>165.0</ele><time>2026-04-26T13:22:40.861Z</time></trkpt><trkpt lat="45.8787884" lon="11.9672085"><ele>165.0</ele><time>2026-04-26T13:22:41.843Z</time></trkpt><trkpt lat="45.8787371" lon="11.9672813"><ele>165.0</ele><time>2026-04-26T13:22:42.839Z</time></trkpt><trkpt lat="45.878684" lon="11.9673438"><ele>165.0</ele><time>2026-04-26T13:22:43.851Z</time></trkpt><trkpt lat="45.8786225" lon="11.9674159"><ele>165.0</ele><time>2026-04-26T13:22:44.846Z</time></trkpt><trkpt lat="45.8785518" lon="11.9674905"><ele>165.0</ele><time>2026-04-26T13:22:45.838Z</time></trkpt><trkpt lat="45.8784751" lon="11.9675822"><ele>165.0</ele><time>2026-04-26T13:22:46.85Z</time></trkpt><trkpt lat="45.8784" lon="11.9676825"><ele>165.0</ele><time>2026-04-26T13:22:47.853Z</time></trkpt><trkpt lat="45.8783365" lon="11.967765"><ele>165.0</ele><time>2026-04-26T13:22:48.852Z</time></trkpt><trkpt lat="45.8782815" lon="11.9678387"><ele>165.83333333333334</ele><time>2026-04-26T13:22:49.837Z</time></trkpt><trkpt lat="45.8782331" lon="11.9678974"><ele>166.66666666666666</ele><time>2026-04-26T13:22:50.835Z</time></trkpt><trkpt lat="45.8781825" lon="11.9679519"><ele>167.5</ele><time>2026-04-26T13:22:51.837Z</time></trkpt><trkpt lat="45.8781304" lon="11.9680044"><ele>168.33333333333331</ele><time>2026-04-26T13:22:52.832Z</time></trkpt><trkpt lat="45.8780768" lon="11.9680601"><ele>169.16666666666666</ele><time>2026-04-26T13:22:53.825Z</time></trkpt><trkpt lat="45.8779886" lon="11.9681587"><ele>170.0</ele><time>2026-04-26T13:22:55.84Z</time></trkpt><trkpt lat="45.8779097" lon="11.968258"><ele>169.2</ele><time>2026-04-26T13:22:57.834Z</time></trkpt><trkpt lat="45.8778332" lon="11.9683803"><ele>168.4</ele><time>2026-04-26T13:22:59.858Z</time></trkpt><trkpt lat="45.8777528" lon="11.9684936"><ele>167.60000000000002</ele><time>2026-04-26T13:23:01.86Z</time></trkpt><trkpt lat="45.8776821" lon="11.968599"><ele>166.8</ele><time>2026-04-26T13:23:03.829Z</time></trkpt><trkpt lat="45.8776222" lon="11.9687177"><ele>166.0</ele><time>2026-04-26T13:23:05.841Z</time></trkpt><trkpt lat="45.8776056" lon="11.9688388"><ele>166.0</ele><time>2026-04-26T13:23:07.845Z</time></trkpt><trkpt lat="45.8776416" lon="11.9689476"><ele>166.0</ele><time>2026-04-26T13:23:09.844Z</time></trkpt><trkpt lat="45.8777143" lon="11.9690573"><ele>166.0</ele><time>2026-04-26T13:23:11.874Z</time></trkpt><trkpt lat="45.8777907" lon="11.9691775"><ele>166.0</ele><time>2026-04-26T13:23:13.862Z</time></trkpt><trkpt lat="45.8778553" lon="11.9693076"><ele>166.0</ele><time>2026-04-26T13:23:15.866Z</time></trkpt><trkpt lat="45.8778919" lon="11.9694433"><ele>165.33333333333334</ele><time>2026-04-26T13:23:17.88Z</time></trkpt><trkpt lat="45.8779075" lon="11.9695592"><ele>164.66666666666669</ele><time>2026-04-26T13:23:19.848Z</time></trkpt><trkpt lat="45.8779295" lon="11.9696703"><ele>164.0</ele><time>2026-04-26T13:23:21.852Z</time></trkpt><trkpt lat="45.8779525" lon="11.9697845"><ele>163.33333333333334</ele><time>2026-04-26T13:23:23.858Z</time></trkpt><trkpt lat="45.8779577" lon="11.9699027"><ele>162.66666666666666</ele><time>2026-04-26T13:23:25.865Z</time></trkpt><trkpt lat="45.877946" lon="11.9700511"><ele>162.0</ele><time>2026-04-26T13:23:27.872Z</time></trkpt><trkpt lat="45.8779238" lon="11.9702144"><ele>162.0</ele><time>2026-04-26T13:23:29.85Z</time></trkpt><trkpt lat="45.8779091" lon="11.970355"><ele>162.0</ele><time>2026-04-26T13:23:31.844Z</time></trkpt><trkpt lat="45.8779245" lon="11.9704506"><ele>162.0</ele><time>2026-04-26T13:23:36.846Z</time></trkpt><trkpt lat="45.8779641" lon="11.9703241"><ele>162.0</ele><time>2026-04-26T13:24:07.852Z</time></trkpt></trkseg></trk></gpx>